<?xml version="1.0" encoding="UTF-8" standalone="no" ?>
<gpx xmlns="http://www.topografix.com/GPX/1/1" xmlns:xsi="http://www.w3.org/2001/XMLSchema-instance" xsi:schemaLocation="http://www.topografix.com/GPX/1/1 http://www.topografix.com/GPX/1/1/gpx.xsd" version="1.1" creator="VisuGPX - https://www.visugpx.com">
  <metadata>
    <name>Cyclo - Jura Suisse et Français 1er jour</name>
    <desc><![CDATA[Tour de 8 jours au travers du Jura Suisse et Français. Super.]]></desc>
  </metadata>
  <trk>
    <name><![CDATA[21-JUIL-152:21:39]]></name>
    <trkseg>
      <trkpt lat="46.90088" lon="6.37598">
        <ele>811.97</ele>
        <time>2015-07-21T06:07:27Z</time>
      </trkpt>
      <trkpt lat="46.90082" lon="6.37609">
        <ele>810.05</ele>
        <time>2015-07-21T06:14:09Z</time>
      </trkpt>
      <trkpt lat="46.90081" lon="6.37609">
        <ele>810.05</ele>
        <time>2015-07-21T06:14:11Z</time>
      </trkpt>
      <trkpt lat="46.90083" lon="6.37608">
        <ele>812.93</ele>
        <time>2015-07-21T06:14:16Z</time>
      </trkpt>
      <trkpt lat="46.90084" lon="6.37608">
        <ele>818.22</ele>
        <time>2015-07-21T06:14:18Z</time>
      </trkpt>
      <trkpt lat="46.90085" lon="6.37608">
        <ele>823.51</ele>
        <time>2015-07-21T06:14:20Z</time>
      </trkpt>
      <trkpt lat="46.90087" lon="6.37608">
        <ele>828.31</ele>
        <time>2015-07-21T06:14:22Z</time>
      </trkpt>
      <trkpt lat="46.90088" lon="6.37609">
        <ele>832.64</ele>
        <time>2015-07-21T06:14:24Z</time>
      </trkpt>
      <trkpt lat="46.90088" lon="6.37609">
        <ele>836.48</ele>
        <time>2015-07-21T06:14:26Z</time>
      </trkpt>
      <trkpt lat="46.90088" lon="6.37608">
        <ele>840.33</ele>
        <time>2015-07-21T06:14:28Z</time>
      </trkpt>
      <trkpt lat="46.90088" lon="6.37607">
        <ele>844.18</ele>
        <time>2015-07-21T06:14:30Z</time>
      </trkpt>
      <trkpt lat="46.90092" lon="6.37609">
        <ele>847.54</ele>
        <time>2015-07-21T06:14:32Z</time>
      </trkpt>
      <trkpt lat="46.90096" lon="6.37609">
        <ele>850.9</ele>
        <time>2015-07-21T06:14:34Z</time>
      </trkpt>
      <trkpt lat="46.90101" lon="6.37611">
        <ele>855.23</ele>
        <time>2015-07-21T06:14:37Z</time>
      </trkpt>
      <trkpt lat="46.90106" lon="6.37609">
        <ele>858.59</ele>
        <time>2015-07-21T06:14:40Z</time>
      </trkpt>
      <trkpt lat="46.90114" lon="6.37608">
        <ele>861.96</ele>
        <time>2015-07-21T06:14:43Z</time>
      </trkpt>
      <trkpt lat="46.90119" lon="6.37605">
        <ele>863.88</ele>
        <time>2015-07-21T06:14:45Z</time>
      </trkpt>
      <trkpt lat="46.90118" lon="6.3759">
        <ele>867.73</ele>
        <time>2015-07-21T06:14:51Z</time>
      </trkpt>
      <trkpt lat="46.9011" lon="6.37575">
        <ele>870.13</ele>
        <time>2015-07-21T06:14:56Z</time>
      </trkpt>
      <trkpt lat="46.90085" lon="6.37532">
        <ele>873.01</ele>
        <time>2015-07-21T06:15:07Z</time>
      </trkpt>
      <trkpt lat="46.90083" lon="6.37531">
        <ele>876.38</ele>
        <time>2015-07-21T06:15:17Z</time>
      </trkpt>
      <trkpt lat="46.90082" lon="6.3753">
        <ele>879.26</ele>
        <time>2015-07-21T06:15:30Z</time>
      </trkpt>
      <trkpt lat="46.90083" lon="6.37528">
        <ele>881.67</ele>
        <time>2015-07-21T06:15:52Z</time>
      </trkpt>
      <trkpt lat="46.90083" lon="6.37529">
        <ele>883.11</ele>
        <time>2015-07-21T06:16:07Z</time>
      </trkpt>
      <trkpt lat="46.90069" lon="6.37513">
        <ele>883.11</ele>
        <time>2015-07-21T06:26:02Z</time>
      </trkpt>
      <trkpt lat="46.90072" lon="6.37518">
        <ele>883.11</ele>
        <time>2015-07-21T06:26:05Z</time>
      </trkpt>
      <trkpt lat="46.90082" lon="6.37527">
        <ele>883.11</ele>
        <time>2015-07-21T06:26:11Z</time>
      </trkpt>
      <trkpt lat="46.90083" lon="6.37522">
        <ele>883.59</ele>
        <time>2015-07-21T06:26:15Z</time>
      </trkpt>
      <trkpt lat="46.90062" lon="6.37475">
        <ele>881.67</ele>
        <time>2015-07-21T06:26:26Z</time>
      </trkpt>
      <trkpt lat="46.90039" lon="6.37425">
        <ele>878.78</ele>
        <time>2015-07-21T06:26:35Z</time>
      </trkpt>
      <trkpt lat="46.9002" lon="6.37405">
        <ele>877.34</ele>
        <time>2015-07-21T06:26:40Z</time>
      </trkpt>
      <trkpt lat="46.90009" lon="6.37369">
        <ele>875.42</ele>
        <time>2015-07-21T06:26:45Z</time>
      </trkpt>
      <trkpt lat="46.90001" lon="6.37315">
        <ele>873.01</ele>
        <time>2015-07-21T06:26:50Z</time>
      </trkpt>
      <trkpt lat="46.9" lon="6.37303">
        <ele>872.53</ele>
        <time>2015-07-21T06:26:51Z</time>
      </trkpt>
      <trkpt lat="46.9" lon="6.37195">
        <ele>869.17</ele>
        <time>2015-07-21T06:27:00Z</time>
      </trkpt>
      <trkpt lat="46.89999" lon="6.37092">
        <ele>865.8</ele>
        <time>2015-07-21T06:27:09Z</time>
      </trkpt>
      <trkpt lat="46.89998" lon="6.37063">
        <ele>864.84</ele>
        <time>2015-07-21T06:27:12Z</time>
      </trkpt>
      <trkpt lat="46.89976" lon="6.37009">
        <ele>862.44</ele>
        <time>2015-07-21T06:27:20Z</time>
      </trkpt>
      <trkpt lat="46.89977" lon="6.36983">
        <ele>861.96</ele>
        <time>2015-07-21T06:27:24Z</time>
      </trkpt>
      <trkpt lat="46.89986" lon="6.3695">
        <ele>861.48</ele>
        <time>2015-07-21T06:27:29Z</time>
      </trkpt>
      <trkpt lat="46.89992" lon="6.36903">
        <ele>860.52</ele>
        <time>2015-07-21T06:27:35Z</time>
      </trkpt>
      <trkpt lat="46.89972" lon="6.36868">
        <ele>859.56</ele>
        <time>2015-07-21T06:27:42Z</time>
      </trkpt>
      <trkpt lat="46.89928" lon="6.36821">
        <ele>859.08</ele>
        <time>2015-07-21T06:27:53Z</time>
      </trkpt>
      <trkpt lat="46.89878" lon="6.36765">
        <ele>856.67</ele>
        <time>2015-07-21T06:28:04Z</time>
      </trkpt>
      <trkpt lat="46.8981" lon="6.36665">
        <ele>853.79</ele>
        <time>2015-07-21T06:28:19Z</time>
      </trkpt>
      <trkpt lat="46.89764" lon="6.36598">
        <ele>851.38</ele>
        <time>2015-07-21T06:28:28Z</time>
      </trkpt>
      <trkpt lat="46.89753" lon="6.36549">
        <ele>851.38</ele>
        <time>2015-07-21T06:28:33Z</time>
      </trkpt>
      <trkpt lat="46.89762" lon="6.36454">
        <ele>849.46</ele>
        <time>2015-07-21T06:28:42Z</time>
      </trkpt>
      <trkpt lat="46.89777" lon="6.36415">
        <ele>847.54</ele>
        <time>2015-07-21T06:28:46Z</time>
      </trkpt>
      <trkpt lat="46.89841" lon="6.36293">
        <ele>845.62</ele>
        <time>2015-07-21T06:29:01Z</time>
      </trkpt>
      <trkpt lat="46.8986" lon="6.3624">
        <ele>843.69</ele>
        <time>2015-07-21T06:29:09Z</time>
      </trkpt>
      <trkpt lat="46.89902" lon="6.36202">
        <ele>842.25</ele>
        <time>2015-07-21T06:29:19Z</time>
      </trkpt>
      <trkpt lat="46.89964" lon="6.3615">
        <ele>841.29</ele>
        <time>2015-07-21T06:29:31Z</time>
      </trkpt>
      <trkpt lat="46.9" lon="6.36119">
        <ele>840.33</ele>
        <time>2015-07-21T06:29:38Z</time>
      </trkpt>
      <trkpt lat="46.90015" lon="6.36105">
        <ele>840.33</ele>
        <time>2015-07-21T06:29:41Z</time>
      </trkpt>
      <trkpt lat="46.90013" lon="6.36059">
        <ele>839.85</ele>
        <time>2015-07-21T06:29:47Z</time>
      </trkpt>
      <trkpt lat="46.89989" lon="6.3593">
        <ele>838.41</ele>
        <time>2015-07-21T06:30:02Z</time>
      </trkpt>
      <trkpt lat="46.89984" lon="6.35907">
        <ele>838.89</ele>
        <time>2015-07-21T06:30:05Z</time>
      </trkpt>
      <trkpt lat="46.89983" lon="6.35879">
        <ele>837.93</ele>
        <time>2015-07-21T06:30:10Z</time>
      </trkpt>
      <trkpt lat="46.89992" lon="6.35866">
        <ele>838.41</ele>
        <time>2015-07-21T06:30:13Z</time>
      </trkpt>
      <trkpt lat="46.90015" lon="6.35787">
        <ele>838.89</ele>
        <time>2015-07-21T06:30:27Z</time>
      </trkpt>
      <trkpt lat="46.90035" lon="6.35712">
        <ele>839.85</ele>
        <time>2015-07-21T06:30:39Z</time>
      </trkpt>
      <trkpt lat="46.90056" lon="6.35637">
        <ele>840.81</ele>
        <time>2015-07-21T06:30:53Z</time>
      </trkpt>
      <trkpt lat="46.90057" lon="6.35631">
        <ele>840.81</ele>
        <time>2015-07-21T06:30:54Z</time>
      </trkpt>
      <trkpt lat="46.90063" lon="6.35611">
        <ele>841.29</ele>
        <time>2015-07-21T06:30:58Z</time>
      </trkpt>
      <trkpt lat="46.90085" lon="6.35537">
        <ele>843.21</ele>
        <time>2015-07-21T06:31:11Z</time>
      </trkpt>
      <trkpt lat="46.9009" lon="6.35512">
        <ele>843.21</ele>
        <time>2015-07-21T06:31:15Z</time>
      </trkpt>
      <trkpt lat="46.9012" lon="6.3542">
        <ele>844.18</ele>
        <time>2015-07-21T06:31:30Z</time>
      </trkpt>
      <trkpt lat="46.90129" lon="6.35404">
        <ele>844.18</ele>
        <time>2015-07-21T06:31:33Z</time>
      </trkpt>
      <trkpt lat="46.9014" lon="6.35392">
        <ele>844.18</ele>
        <time>2015-07-21T06:31:36Z</time>
      </trkpt>
      <trkpt lat="46.90143" lon="6.35344">
        <ele>844.66</ele>
        <time>2015-07-21T06:31:44Z</time>
      </trkpt>
      <trkpt lat="46.90142" lon="6.35338">
        <ele>844.66</ele>
        <time>2015-07-21T06:31:45Z</time>
      </trkpt>
      <trkpt lat="46.9014" lon="6.35324">
        <ele>844.66</ele>
        <time>2015-07-21T06:31:47Z</time>
      </trkpt>
      <trkpt lat="46.90139" lon="6.35287">
        <ele>844.66</ele>
        <time>2015-07-21T06:31:52Z</time>
      </trkpt>
      <trkpt lat="46.90141" lon="6.35209">
        <ele>844.66</ele>
        <time>2015-07-21T06:32:02Z</time>
      </trkpt>
      <trkpt lat="46.90145" lon="6.35142">
        <ele>845.14</ele>
        <time>2015-07-21T06:32:10Z</time>
      </trkpt>
      <trkpt lat="46.90147" lon="6.35034">
        <ele>844.66</ele>
        <time>2015-07-21T06:32:22Z</time>
      </trkpt>
      <trkpt lat="46.90143" lon="6.34998">
        <ele>844.18</ele>
        <time>2015-07-21T06:32:26Z</time>
      </trkpt>
      <trkpt lat="46.9014" lon="6.34962">
        <ele>844.66</ele>
        <time>2015-07-21T06:32:30Z</time>
      </trkpt>
      <trkpt lat="46.90139" lon="6.34938">
        <ele>844.18</ele>
        <time>2015-07-21T06:32:33Z</time>
      </trkpt>
      <trkpt lat="46.90139" lon="6.34929">
        <ele>844.18</ele>
        <time>2015-07-21T06:32:34Z</time>
      </trkpt>
      <trkpt lat="46.90133" lon="6.3488">
        <ele>844.18</ele>
        <time>2015-07-21T06:32:40Z</time>
      </trkpt>
      <trkpt lat="46.90136" lon="6.34829">
        <ele>844.18</ele>
        <time>2015-07-21T06:32:50Z</time>
      </trkpt>
      <trkpt lat="46.90137" lon="6.34823">
        <ele>844.18</ele>
        <time>2015-07-21T06:32:52Z</time>
      </trkpt>
      <trkpt lat="46.90129" lon="6.34812">
        <ele>844.18</ele>
        <time>2015-07-21T06:32:57Z</time>
      </trkpt>
      <trkpt lat="46.90108" lon="6.34775">
        <ele>845.14</ele>
        <time>2015-07-21T06:33:07Z</time>
      </trkpt>
      <trkpt lat="46.90084" lon="6.34739">
        <ele>847.06</ele>
        <time>2015-07-21T06:33:18Z</time>
      </trkpt>
      <trkpt lat="46.90057" lon="6.3471">
        <ele>848.98</ele>
        <time>2015-07-21T06:33:29Z</time>
      </trkpt>
      <trkpt lat="46.9003" lon="6.34701">
        <ele>849.94</ele>
        <time>2015-07-21T06:33:39Z</time>
      </trkpt>
      <trkpt lat="46.89999" lon="6.34698">
        <ele>849.94</ele>
        <time>2015-07-21T06:33:53Z</time>
      </trkpt>
      <trkpt lat="46.89969" lon="6.34689">
        <ele>848.98</ele>
        <time>2015-07-21T06:34:00Z</time>
      </trkpt>
      <trkpt lat="46.89919" lon="6.34654">
        <ele>845.62</ele>
        <time>2015-07-21T06:34:08Z</time>
      </trkpt>
      <trkpt lat="46.89897" lon="6.34638">
        <ele>844.18</ele>
        <time>2015-07-21T06:34:11Z</time>
      </trkpt>
      <trkpt lat="46.89827" lon="6.34538">
        <ele>842.25</ele>
        <time>2015-07-21T06:34:23Z</time>
      </trkpt>
      <trkpt lat="46.89779" lon="6.34477">
        <ele>841.29</ele>
        <time>2015-07-21T06:34:33Z</time>
      </trkpt>
      <trkpt lat="46.89705" lon="6.34417">
        <ele>840.81</ele>
        <time>2015-07-21T06:34:46Z</time>
      </trkpt>
      <trkpt lat="46.89646" lon="6.34371">
        <ele>840.81</ele>
        <time>2015-07-21T06:34:56Z</time>
      </trkpt>
      <trkpt lat="46.8964" lon="6.34367">
        <ele>840.33</ele>
        <time>2015-07-21T06:34:57Z</time>
      </trkpt>
      <trkpt lat="46.89565" lon="6.34306">
        <ele>839.37</ele>
        <time>2015-07-21T06:35:11Z</time>
      </trkpt>
      <trkpt lat="46.89492" lon="6.34247">
        <ele>838.41</ele>
        <time>2015-07-21T06:35:25Z</time>
      </trkpt>
      <trkpt lat="46.89477" lon="6.34234">
        <ele>837.93</ele>
        <time>2015-07-21T06:35:28Z</time>
      </trkpt>
      <trkpt lat="46.89451" lon="6.34212">
        <ele>837.45</ele>
        <time>2015-07-21T06:35:33Z</time>
      </trkpt>
      <trkpt lat="46.89431" lon="6.34195">
        <ele>837.45</ele>
        <time>2015-07-21T06:35:37Z</time>
      </trkpt>
      <trkpt lat="46.89415" lon="6.34181">
        <ele>836.96</ele>
        <time>2015-07-21T06:35:40Z</time>
      </trkpt>
      <trkpt lat="46.8939" lon="6.34163">
        <ele>836.96</ele>
        <time>2015-07-21T06:35:45Z</time>
      </trkpt>
      <trkpt lat="46.89369" lon="6.34148">
        <ele>836.48</ele>
        <time>2015-07-21T06:35:49Z</time>
      </trkpt>
      <trkpt lat="46.89354" lon="6.34136">
        <ele>836.48</ele>
        <time>2015-07-21T06:35:52Z</time>
      </trkpt>
      <trkpt lat="46.89341" lon="6.3412">
        <ele>836.48</ele>
        <time>2015-07-21T06:35:55Z</time>
      </trkpt>
      <trkpt lat="46.89326" lon="6.34097">
        <ele>836</ele>
        <time>2015-07-21T06:35:59Z</time>
      </trkpt>
      <trkpt lat="46.89307" lon="6.34068">
        <ele>836</ele>
        <time>2015-07-21T06:36:04Z</time>
      </trkpt>
      <trkpt lat="46.89252" lon="6.33986">
        <ele>835.52</ele>
        <time>2015-07-21T06:36:18Z</time>
      </trkpt>
      <trkpt lat="46.89212" lon="6.33929">
        <ele>835.04</ele>
        <time>2015-07-21T06:36:28Z</time>
      </trkpt>
      <trkpt lat="46.89173" lon="6.33869">
        <ele>835.04</ele>
        <time>2015-07-21T06:36:39Z</time>
      </trkpt>
      <trkpt lat="46.89138" lon="6.33816">
        <ele>835.04</ele>
        <time>2015-07-21T06:36:49Z</time>
      </trkpt>
      <trkpt lat="46.8909" lon="6.33746">
        <ele>836.48</ele>
        <time>2015-07-21T06:37:03Z</time>
      </trkpt>
      <trkpt lat="46.89052" lon="6.33685">
        <ele>836.96</ele>
        <time>2015-07-21T06:37:15Z</time>
      </trkpt>
      <trkpt lat="46.89012" lon="6.33621">
        <ele>836.48</ele>
        <time>2015-07-21T06:37:26Z</time>
      </trkpt>
      <trkpt lat="46.89004" lon="6.33608">
        <ele>836.48</ele>
        <time>2015-07-21T06:37:28Z</time>
      </trkpt>
      <trkpt lat="46.88994" lon="6.33588">
        <ele>836.48</ele>
        <time>2015-07-21T06:37:31Z</time>
      </trkpt>
      <trkpt lat="46.88975" lon="6.33555">
        <ele>836</ele>
        <time>2015-07-21T06:37:36Z</time>
      </trkpt>
      <trkpt lat="46.88922" lon="6.33469">
        <ele>835.52</ele>
        <time>2015-07-21T06:37:49Z</time>
      </trkpt>
      <trkpt lat="46.88911" lon="6.3345">
        <ele>835.52</ele>
        <time>2015-07-21T06:37:52Z</time>
      </trkpt>
      <trkpt lat="46.88877" lon="6.33399">
        <ele>835.52</ele>
        <time>2015-07-21T06:38:00Z</time>
      </trkpt>
      <trkpt lat="46.8887" lon="6.33387">
        <ele>835.52</ele>
        <time>2015-07-21T06:38:02Z</time>
      </trkpt>
      <trkpt lat="46.88844" lon="6.33352">
        <ele>836</ele>
        <time>2015-07-21T06:38:08Z</time>
      </trkpt>
      <trkpt lat="46.88797" lon="6.33273">
        <ele>836</ele>
        <time>2015-07-21T06:38:21Z</time>
      </trkpt>
      <trkpt lat="46.88755" lon="6.33206">
        <ele>836.96</ele>
        <time>2015-07-21T06:38:33Z</time>
      </trkpt>
      <trkpt lat="46.88747" lon="6.33195">
        <ele>837.45</ele>
        <time>2015-07-21T06:38:35Z</time>
      </trkpt>
      <trkpt lat="46.88699" lon="6.33116">
        <ele>837.45</ele>
        <time>2015-07-21T06:38:48Z</time>
      </trkpt>
      <trkpt lat="46.88667" lon="6.33065">
        <ele>837.45</ele>
        <time>2015-07-21T06:38:56Z</time>
      </trkpt>
      <trkpt lat="46.88652" lon="6.33039">
        <ele>836.96</ele>
        <time>2015-07-21T06:39:00Z</time>
      </trkpt>
      <trkpt lat="46.88592" lon="6.32943">
        <ele>836.96</ele>
        <time>2015-07-21T06:39:15Z</time>
      </trkpt>
      <trkpt lat="46.88582" lon="6.32925">
        <ele>836.96</ele>
        <time>2015-07-21T06:39:18Z</time>
      </trkpt>
      <trkpt lat="46.88546" lon="6.32869">
        <ele>836.96</ele>
        <time>2015-07-21T06:39:27Z</time>
      </trkpt>
      <trkpt lat="46.88504" lon="6.32797">
        <ele>837.93</ele>
        <time>2015-07-21T06:39:39Z</time>
      </trkpt>
      <trkpt lat="46.88482" lon="6.32739">
        <ele>839.85</ele>
        <time>2015-07-21T06:39:49Z</time>
      </trkpt>
      <trkpt lat="46.88464" lon="6.32684">
        <ele>840.81</ele>
        <time>2015-07-21T06:39:58Z</time>
      </trkpt>
      <trkpt lat="46.88457" lon="6.32666">
        <ele>841.29</ele>
        <time>2015-07-21T06:40:01Z</time>
      </trkpt>
      <trkpt lat="46.88448" lon="6.32651">
        <ele>841.77</ele>
        <time>2015-07-21T06:40:04Z</time>
      </trkpt>
      <trkpt lat="46.88438" lon="6.32636">
        <ele>841.77</ele>
        <time>2015-07-21T06:40:07Z</time>
      </trkpt>
      <trkpt lat="46.88427" lon="6.32616">
        <ele>842.73</ele>
        <time>2015-07-21T06:40:11Z</time>
      </trkpt>
      <trkpt lat="46.88407" lon="6.32583">
        <ele>843.21</ele>
        <time>2015-07-21T06:40:17Z</time>
      </trkpt>
      <trkpt lat="46.88401" lon="6.32571">
        <ele>842.73</ele>
        <time>2015-07-21T06:40:19Z</time>
      </trkpt>
      <trkpt lat="46.88377" lon="6.3252">
        <ele>843.21</ele>
        <time>2015-07-21T06:40:27Z</time>
      </trkpt>
      <trkpt lat="46.88372" lon="6.32497">
        <ele>843.69</ele>
        <time>2015-07-21T06:40:30Z</time>
      </trkpt>
      <trkpt lat="46.88355" lon="6.32397">
        <ele>845.62</ele>
        <time>2015-07-21T06:40:44Z</time>
      </trkpt>
      <trkpt lat="46.8835" lon="6.3238">
        <ele>845.62</ele>
        <time>2015-07-21T06:40:47Z</time>
      </trkpt>
      <trkpt lat="46.88337" lon="6.32347">
        <ele>846.58</ele>
        <time>2015-07-21T06:40:53Z</time>
      </trkpt>
      <trkpt lat="46.88326" lon="6.32326">
        <ele>847.06</ele>
        <time>2015-07-21T06:40:57Z</time>
      </trkpt>
      <trkpt lat="46.88318" lon="6.32311">
        <ele>847.54</ele>
        <time>2015-07-21T06:41:00Z</time>
      </trkpt>
      <trkpt lat="46.88312" lon="6.32295">
        <ele>848.02</ele>
        <time>2015-07-21T06:41:03Z</time>
      </trkpt>
      <trkpt lat="46.883" lon="6.32223">
        <ele>849.94</ele>
        <time>2015-07-21T06:41:14Z</time>
      </trkpt>
      <trkpt lat="46.88292" lon="6.3217">
        <ele>850.42</ele>
        <time>2015-07-21T06:41:22Z</time>
      </trkpt>
      <trkpt lat="46.8829" lon="6.32155">
        <ele>850.9</ele>
        <time>2015-07-21T06:41:24Z</time>
      </trkpt>
      <trkpt lat="46.88299" lon="6.32071">
        <ele>850.9</ele>
        <time>2015-07-21T06:41:35Z</time>
      </trkpt>
      <trkpt lat="46.88303" lon="6.32037">
        <ele>850.42</ele>
        <time>2015-07-21T06:41:39Z</time>
      </trkpt>
      <trkpt lat="46.88301" lon="6.31952">
        <ele>850.42</ele>
        <time>2015-07-21T06:41:49Z</time>
      </trkpt>
      <trkpt lat="46.88298" lon="6.31936">
        <ele>850.42</ele>
        <time>2015-07-21T06:41:51Z</time>
      </trkpt>
      <trkpt lat="46.88294" lon="6.31919">
        <ele>850.42</ele>
        <time>2015-07-21T06:41:53Z</time>
      </trkpt>
      <trkpt lat="46.88284" lon="6.31887">
        <ele>850.42</ele>
        <time>2015-07-21T06:41:57Z</time>
      </trkpt>
      <trkpt lat="46.88273" lon="6.31859">
        <ele>850.42</ele>
        <time>2015-07-21T06:42:01Z</time>
      </trkpt>
      <trkpt lat="46.88244" lon="6.31796">
        <ele>851.87</ele>
        <time>2015-07-21T06:42:11Z</time>
      </trkpt>
      <trkpt lat="46.8823" lon="6.31766">
        <ele>852.83</ele>
        <time>2015-07-21T06:42:16Z</time>
      </trkpt>
      <trkpt lat="46.88226" lon="6.31755">
        <ele>852.83</ele>
        <time>2015-07-21T06:42:18Z</time>
      </trkpt>
      <trkpt lat="46.88211" lon="6.31728">
        <ele>853.79</ele>
        <time>2015-07-21T06:42:23Z</time>
      </trkpt>
      <trkpt lat="46.88203" lon="6.31713">
        <ele>854.27</ele>
        <time>2015-07-21T06:42:26Z</time>
      </trkpt>
      <trkpt lat="46.88191" lon="6.31693">
        <ele>854.75</ele>
        <time>2015-07-21T06:42:30Z</time>
      </trkpt>
      <trkpt lat="46.88186" lon="6.31682">
        <ele>855.23</ele>
        <time>2015-07-21T06:42:32Z</time>
      </trkpt>
      <trkpt lat="46.88175" lon="6.31662">
        <ele>855.71</ele>
        <time>2015-07-21T06:42:36Z</time>
      </trkpt>
      <trkpt lat="46.8816" lon="6.31628">
        <ele>856.19</ele>
        <time>2015-07-21T06:42:42Z</time>
      </trkpt>
      <trkpt lat="46.8815" lon="6.31606">
        <ele>857.15</ele>
        <time>2015-07-21T06:42:46Z</time>
      </trkpt>
      <trkpt lat="46.88137" lon="6.3158">
        <ele>857.63</ele>
        <time>2015-07-21T06:42:51Z</time>
      </trkpt>
      <trkpt lat="46.88107" lon="6.31517">
        <ele>859.56</ele>
        <time>2015-07-21T06:43:03Z</time>
      </trkpt>
      <trkpt lat="46.88065" lon="6.31421">
        <ele>859.56</ele>
        <time>2015-07-21T06:43:19Z</time>
      </trkpt>
      <trkpt lat="46.88024" lon="6.31327">
        <ele>858.59</ele>
        <time>2015-07-21T06:43:32Z</time>
      </trkpt>
      <trkpt lat="46.87992" lon="6.31256">
        <ele>856.19</ele>
        <time>2015-07-21T06:43:40Z</time>
      </trkpt>
      <trkpt lat="46.87961" lon="6.31174">
        <ele>853.31</ele>
        <time>2015-07-21T06:43:48Z</time>
      </trkpt>
      <trkpt lat="46.87949" lon="6.31079">
        <ele>850.42</ele>
        <time>2015-07-21T06:43:55Z</time>
      </trkpt>
      <trkpt lat="46.8794" lon="6.31025">
        <ele>848.5</ele>
        <time>2015-07-21T06:43:59Z</time>
      </trkpt>
      <trkpt lat="46.87933" lon="6.30997">
        <ele>847.06</ele>
        <time>2015-07-21T06:44:01Z</time>
      </trkpt>
      <trkpt lat="46.87919" lon="6.30961">
        <ele>845.14</ele>
        <time>2015-07-21T06:44:04Z</time>
      </trkpt>
      <trkpt lat="46.87901" lon="6.30819">
        <ele>844.18</ele>
        <time>2015-07-21T06:44:16Z</time>
      </trkpt>
      <trkpt lat="46.87884" lon="6.30695">
        <ele>841.29</ele>
        <time>2015-07-21T06:44:26Z</time>
      </trkpt>
      <trkpt lat="46.87879" lon="6.30672">
        <ele>840.81</ele>
        <time>2015-07-21T06:44:28Z</time>
      </trkpt>
      <trkpt lat="46.87853" lon="6.30548">
        <ele>838.41</ele>
        <time>2015-07-21T06:44:40Z</time>
      </trkpt>
      <trkpt lat="46.87843" lon="6.30507">
        <ele>837.45</ele>
        <time>2015-07-21T06:44:49Z</time>
      </trkpt>
      <trkpt lat="46.87843" lon="6.30507">
        <ele>837.45</ele>
        <time>2015-07-21T06:45:11Z</time>
      </trkpt>
      <trkpt lat="46.87843" lon="6.30507">
        <ele>837.45</ele>
        <time>2015-07-21T06:45:31Z</time>
      </trkpt>
      <trkpt lat="46.87843" lon="6.30507">
        <ele>836.96</ele>
        <time>2015-07-21T06:45:44Z</time>
      </trkpt>
      <trkpt lat="46.87843" lon="6.30507">
        <ele>836.48</ele>
        <time>2015-07-21T06:46:17Z</time>
      </trkpt>
      <trkpt lat="46.87843" lon="6.30507">
        <ele>836.48</ele>
        <time>2015-07-21T06:46:33Z</time>
      </trkpt>
      <trkpt lat="46.87841" lon="6.30504">
        <ele>836.96</ele>
        <time>2015-07-21T06:46:35Z</time>
      </trkpt>
      <trkpt lat="46.87837" lon="6.30495">
        <ele>836.96</ele>
        <time>2015-07-21T06:46:39Z</time>
      </trkpt>
      <trkpt lat="46.87824" lon="6.30431">
        <ele>835.52</ele>
        <time>2015-07-21T06:46:50Z</time>
      </trkpt>
      <trkpt lat="46.87811" lon="6.30335">
        <ele>833.6</ele>
        <time>2015-07-21T06:47:01Z</time>
      </trkpt>
      <trkpt lat="46.878" lon="6.30201">
        <ele>832.16</ele>
        <time>2015-07-21T06:47:15Z</time>
      </trkpt>
      <trkpt lat="46.87788" lon="6.30068">
        <ele>831.2</ele>
        <time>2015-07-21T06:47:29Z</time>
      </trkpt>
      <trkpt lat="46.87785" lon="6.3004">
        <ele>831.2</ele>
        <time>2015-07-21T06:47:32Z</time>
      </trkpt>
      <trkpt lat="46.87777" lon="6.29898">
        <ele>830.72</ele>
        <time>2015-07-21T06:47:47Z</time>
      </trkpt>
      <trkpt lat="46.87769" lon="6.29779">
        <ele>830.72</ele>
        <time>2015-07-21T06:48:00Z</time>
      </trkpt>
      <trkpt lat="46.87763" lon="6.29653">
        <ele>830.24</ele>
        <time>2015-07-21T06:48:14Z</time>
      </trkpt>
      <trkpt lat="46.87759" lon="6.2954">
        <ele>830.72</ele>
        <time>2015-07-21T06:48:27Z</time>
      </trkpt>
      <trkpt lat="46.87766" lon="6.29435">
        <ele>830.72</ele>
        <time>2015-07-21T06:48:39Z</time>
      </trkpt>
      <trkpt lat="46.87774" lon="6.29322">
        <ele>830.72</ele>
        <time>2015-07-21T06:48:52Z</time>
      </trkpt>
      <trkpt lat="46.87776" lon="6.29305">
        <ele>830.72</ele>
        <time>2015-07-21T06:48:54Z</time>
      </trkpt>
      <trkpt lat="46.87788" lon="6.29262">
        <ele>830.72</ele>
        <time>2015-07-21T06:48:59Z</time>
      </trkpt>
      <trkpt lat="46.87809" lon="6.29191">
        <ele>830.72</ele>
        <time>2015-07-21T06:49:08Z</time>
      </trkpt>
      <trkpt lat="46.87832" lon="6.29087">
        <ele>830.72</ele>
        <time>2015-07-21T06:49:20Z</time>
      </trkpt>
      <trkpt lat="46.87854" lon="6.28976">
        <ele>830.72</ele>
        <time>2015-07-21T06:49:33Z</time>
      </trkpt>
      <trkpt lat="46.87861" lon="6.28869">
        <ele>830.72</ele>
        <time>2015-07-21T06:49:45Z</time>
      </trkpt>
      <trkpt lat="46.87898" lon="6.28762">
        <ele>830.72</ele>
        <time>2015-07-21T06:49:59Z</time>
      </trkpt>
      <trkpt lat="46.87906" lon="6.28739">
        <ele>830.72</ele>
        <time>2015-07-21T06:50:02Z</time>
      </trkpt>
      <trkpt lat="46.87915" lon="6.28664">
        <ele>830.72</ele>
        <time>2015-07-21T06:50:11Z</time>
      </trkpt>
      <trkpt lat="46.87913" lon="6.2854">
        <ele>830.72</ele>
        <time>2015-07-21T06:50:25Z</time>
      </trkpt>
      <trkpt lat="46.87914" lon="6.28531">
        <ele>830.72</ele>
        <time>2015-07-21T06:50:26Z</time>
      </trkpt>
      <trkpt lat="46.87918" lon="6.285">
        <ele>831.2</ele>
        <time>2015-07-21T06:50:30Z</time>
      </trkpt>
      <trkpt lat="46.87932" lon="6.28426">
        <ele>832.16</ele>
        <time>2015-07-21T06:50:41Z</time>
      </trkpt>
      <trkpt lat="46.87941" lon="6.28339">
        <ele>833.6</ele>
        <time>2015-07-21T06:50:54Z</time>
      </trkpt>
      <trkpt lat="46.8794" lon="6.28325">
        <ele>833.6</ele>
        <time>2015-07-21T06:50:56Z</time>
      </trkpt>
      <trkpt lat="46.87925" lon="6.28256">
        <ele>835.52</ele>
        <time>2015-07-21T06:51:08Z</time>
      </trkpt>
      <trkpt lat="46.87923" lon="6.28251">
        <ele>835.52</ele>
        <time>2015-07-21T06:51:09Z</time>
      </trkpt>
      <trkpt lat="46.87915" lon="6.28235">
        <ele>836</ele>
        <time>2015-07-21T06:51:12Z</time>
      </trkpt>
      <trkpt lat="46.87903" lon="6.28205">
        <ele>837.45</ele>
        <time>2015-07-21T06:51:18Z</time>
      </trkpt>
      <trkpt lat="46.87877" lon="6.28143">
        <ele>839.37</ele>
        <time>2015-07-21T06:51:31Z</time>
      </trkpt>
      <trkpt lat="46.87854" lon="6.28087">
        <ele>841.29</ele>
        <time>2015-07-21T06:51:43Z</time>
      </trkpt>
      <trkpt lat="46.8783" lon="6.28031">
        <ele>843.21</ele>
        <time>2015-07-21T06:51:55Z</time>
      </trkpt>
      <trkpt lat="46.87803" lon="6.27962">
        <ele>845.62</ele>
        <time>2015-07-21T06:52:09Z</time>
      </trkpt>
      <trkpt lat="46.87792" lon="6.27915">
        <ele>846.1</ele>
        <time>2015-07-21T06:52:17Z</time>
      </trkpt>
      <trkpt lat="46.8779" lon="6.27885">
        <ele>846.1</ele>
        <time>2015-07-21T06:52:21Z</time>
      </trkpt>
      <trkpt lat="46.87792" lon="6.27852">
        <ele>846.1</ele>
        <time>2015-07-21T06:52:25Z</time>
      </trkpt>
      <trkpt lat="46.87799" lon="6.27808">
        <ele>845.14</ele>
        <time>2015-07-21T06:52:30Z</time>
      </trkpt>
      <trkpt lat="46.87828" lon="6.27705">
        <ele>843.69</ele>
        <time>2015-07-21T06:52:41Z</time>
      </trkpt>
      <trkpt lat="46.87825" lon="6.27633">
        <ele>842.73</ele>
        <time>2015-07-21T06:52:48Z</time>
      </trkpt>
      <trkpt lat="46.87803" lon="6.27533">
        <ele>841.77</ele>
        <time>2015-07-21T06:52:58Z</time>
      </trkpt>
      <trkpt lat="46.87792" lon="6.27476">
        <ele>842.25</ele>
        <time>2015-07-21T06:53:04Z</time>
      </trkpt>
      <trkpt lat="46.8776" lon="6.27324">
        <ele>843.69</ele>
        <time>2015-07-21T06:53:22Z</time>
      </trkpt>
      <trkpt lat="46.87752" lon="6.2728">
        <ele>844.66</ele>
        <time>2015-07-21T06:53:28Z</time>
      </trkpt>
      <trkpt lat="46.87751" lon="6.27242">
        <ele>845.14</ele>
        <time>2015-07-21T06:53:33Z</time>
      </trkpt>
      <trkpt lat="46.87776" lon="6.27139">
        <ele>844.18</ele>
        <time>2015-07-21T06:53:47Z</time>
      </trkpt>
      <trkpt lat="46.87833" lon="6.27027">
        <ele>840.81</ele>
        <time>2015-07-21T06:54:02Z</time>
      </trkpt>
      <trkpt lat="46.87844" lon="6.27004">
        <ele>840.33</ele>
        <time>2015-07-21T06:54:05Z</time>
      </trkpt>
      <trkpt lat="46.87871" lon="6.26885">
        <ele>837.93</ele>
        <time>2015-07-21T06:54:18Z</time>
      </trkpt>
      <trkpt lat="46.87882" lon="6.26829">
        <ele>836.48</ele>
        <time>2015-07-21T06:54:24Z</time>
      </trkpt>
      <trkpt lat="46.87878" lon="6.26736">
        <ele>836</ele>
        <time>2015-07-21T06:54:34Z</time>
      </trkpt>
      <trkpt lat="46.87875" lon="6.26709">
        <ele>835.04</ele>
        <time>2015-07-21T06:54:37Z</time>
      </trkpt>
      <trkpt lat="46.87842" lon="6.26587">
        <ele>833.6</ele>
        <time>2015-07-21T06:54:50Z</time>
      </trkpt>
      <trkpt lat="46.87797" lon="6.26486">
        <ele>832.16</ele>
        <time>2015-07-21T06:55:02Z</time>
      </trkpt>
      <trkpt lat="46.87776" lon="6.26438">
        <ele>831.68</ele>
        <time>2015-07-21T06:55:08Z</time>
      </trkpt>
      <trkpt lat="46.87721" lon="6.26397">
        <ele>831.2</ele>
        <time>2015-07-21T06:55:18Z</time>
      </trkpt>
      <trkpt lat="46.87705" lon="6.26396">
        <ele>832.16</ele>
        <time>2015-07-21T06:55:21Z</time>
      </trkpt>
      <trkpt lat="46.87673" lon="6.26389">
        <ele>833.6</ele>
        <time>2015-07-21T06:55:28Z</time>
      </trkpt>
      <trkpt lat="46.87647" lon="6.26368">
        <ele>835.04</ele>
        <time>2015-07-21T06:55:36Z</time>
      </trkpt>
      <trkpt lat="46.87613" lon="6.26323">
        <ele>836</ele>
        <time>2015-07-21T06:55:48Z</time>
      </trkpt>
      <trkpt lat="46.87583" lon="6.26288">
        <ele>837.45</ele>
        <time>2015-07-21T06:56:01Z</time>
      </trkpt>
      <trkpt lat="46.87572" lon="6.26268">
        <ele>837.45</ele>
        <time>2015-07-21T06:56:07Z</time>
      </trkpt>
      <trkpt lat="46.87555" lon="6.26249">
        <ele>837.45</ele>
        <time>2015-07-21T06:56:15Z</time>
      </trkpt>
      <trkpt lat="46.87523" lon="6.26203">
        <ele>837.93</ele>
        <time>2015-07-21T06:56:28Z</time>
      </trkpt>
      <trkpt lat="46.87498" lon="6.26154">
        <ele>837.93</ele>
        <time>2015-07-21T06:56:40Z</time>
      </trkpt>
      <trkpt lat="46.87496" lon="6.2615">
        <ele>837.45</ele>
        <time>2015-07-21T06:56:41Z</time>
      </trkpt>
      <trkpt lat="46.87466" lon="6.26065">
        <ele>836</ele>
        <time>2015-07-21T06:56:54Z</time>
      </trkpt>
      <trkpt lat="46.87443" lon="6.25988">
        <ele>835.04</ele>
        <time>2015-07-21T06:57:03Z</time>
      </trkpt>
      <trkpt lat="46.87431" lon="6.25953">
        <ele>834.08</ele>
        <time>2015-07-21T06:57:07Z</time>
      </trkpt>
      <trkpt lat="46.87382" lon="6.25846">
        <ele>833.12</ele>
        <time>2015-07-21T06:57:20Z</time>
      </trkpt>
      <trkpt lat="46.87339" lon="6.25721">
        <ele>830.72</ele>
        <time>2015-07-21T06:57:34Z</time>
      </trkpt>
      <trkpt lat="46.87308" lon="6.2559">
        <ele>829.76</ele>
        <time>2015-07-21T06:57:47Z</time>
      </trkpt>
      <trkpt lat="46.87278" lon="6.2548">
        <ele>828.31</ele>
        <time>2015-07-21T06:57:59Z</time>
      </trkpt>
      <trkpt lat="46.87266" lon="6.25449">
        <ele>828.31</ele>
        <time>2015-07-21T06:58:03Z</time>
      </trkpt>
      <trkpt lat="46.87218" lon="6.25367">
        <ele>828.31</ele>
        <time>2015-07-21T06:58:15Z</time>
      </trkpt>
      <trkpt lat="46.87161" lon="6.25288">
        <ele>829.27</ele>
        <time>2015-07-21T06:58:29Z</time>
      </trkpt>
      <trkpt lat="46.87126" lon="6.25219">
        <ele>830.24</ele>
        <time>2015-07-21T06:58:41Z</time>
      </trkpt>
      <trkpt lat="46.87121" lon="6.25207">
        <ele>830.72</ele>
        <time>2015-07-21T06:58:43Z</time>
      </trkpt>
      <trkpt lat="46.87086" lon="6.25126">
        <ele>831.68</ele>
        <time>2015-07-21T06:58:56Z</time>
      </trkpt>
      <trkpt lat="46.87069" lon="6.25089">
        <ele>832.16</ele>
        <time>2015-07-21T06:59:02Z</time>
      </trkpt>
      <trkpt lat="46.87028" lon="6.24996">
        <ele>832.16</ele>
        <time>2015-07-21T06:59:16Z</time>
      </trkpt>
      <trkpt lat="46.86986" lon="6.24897">
        <ele>831.68</ele>
        <time>2015-07-21T06:59:30Z</time>
      </trkpt>
      <trkpt lat="46.86952" lon="6.24774">
        <ele>831.68</ele>
        <time>2015-07-21T06:59:45Z</time>
      </trkpt>
      <trkpt lat="46.86916" lon="6.24638">
        <ele>831.2</ele>
        <time>2015-07-21T07:00:01Z</time>
      </trkpt>
      <trkpt lat="46.86891" lon="6.24538">
        <ele>831.68</ele>
        <time>2015-07-21T07:00:13Z</time>
      </trkpt>
      <trkpt lat="46.86859" lon="6.24434">
        <ele>831.68</ele>
        <time>2015-07-21T07:00:26Z</time>
      </trkpt>
      <trkpt lat="46.86808" lon="6.24285">
        <ele>831.2</ele>
        <time>2015-07-21T07:00:43Z</time>
      </trkpt>
      <trkpt lat="46.86794" lon="6.24241">
        <ele>830.72</ele>
        <time>2015-07-21T07:00:48Z</time>
      </trkpt>
      <trkpt lat="46.86754" lon="6.24097">
        <ele>830.24</ele>
        <time>2015-07-21T07:01:04Z</time>
      </trkpt>
      <trkpt lat="46.86717" lon="6.23931">
        <ele>829.27</ele>
        <time>2015-07-21T07:01:22Z</time>
      </trkpt>
      <trkpt lat="46.86709" lon="6.23808">
        <ele>830.72</ele>
        <time>2015-07-21T07:01:35Z</time>
      </trkpt>
      <trkpt lat="46.86699" lon="6.23683">
        <ele>830.72</ele>
        <time>2015-07-21T07:01:48Z</time>
      </trkpt>
      <trkpt lat="46.86691" lon="6.23526">
        <ele>831.68</ele>
        <time>2015-07-21T07:02:04Z</time>
      </trkpt>
      <trkpt lat="46.86677" lon="6.23361">
        <ele>831.2</ele>
        <time>2015-07-21T07:02:21Z</time>
      </trkpt>
      <trkpt lat="46.86678" lon="6.2322">
        <ele>831.2</ele>
        <time>2015-07-21T07:02:35Z</time>
      </trkpt>
      <trkpt lat="46.86677" lon="6.23173">
        <ele>832.16</ele>
        <time>2015-07-21T07:02:40Z</time>
      </trkpt>
      <trkpt lat="46.86673" lon="6.23133">
        <ele>833.12</ele>
        <time>2015-07-21T07:02:45Z</time>
      </trkpt>
      <trkpt lat="46.8666" lon="6.23043">
        <ele>835.04</ele>
        <time>2015-07-21T07:02:57Z</time>
      </trkpt>
      <trkpt lat="46.86654" lon="6.2301">
        <ele>836</ele>
        <time>2015-07-21T07:03:02Z</time>
      </trkpt>
      <trkpt lat="46.86648" lon="6.22978">
        <ele>836</ele>
        <time>2015-07-21T07:03:07Z</time>
      </trkpt>
      <trkpt lat="46.8663" lon="6.22883">
        <ele>837.45</ele>
        <time>2015-07-21T07:03:21Z</time>
      </trkpt>
      <trkpt lat="46.86627" lon="6.22861">
        <ele>837.45</ele>
        <time>2015-07-21T07:03:24Z</time>
      </trkpt>
      <trkpt lat="46.86622" lon="6.22833">
        <ele>837.45</ele>
        <time>2015-07-21T07:03:28Z</time>
      </trkpt>
      <trkpt lat="46.86618" lon="6.22802">
        <ele>837.45</ele>
        <time>2015-07-21T07:03:32Z</time>
      </trkpt>
      <trkpt lat="46.86603" lon="6.22668">
        <ele>836</ele>
        <time>2015-07-21T07:03:46Z</time>
      </trkpt>
      <trkpt lat="46.86598" lon="6.22541">
        <ele>833.6</ele>
        <time>2015-07-21T07:03:58Z</time>
      </trkpt>
      <trkpt lat="46.86593" lon="6.22423">
        <ele>831.68</ele>
        <time>2015-07-21T07:04:09Z</time>
      </trkpt>
      <trkpt lat="46.86588" lon="6.22306">
        <ele>832.16</ele>
        <time>2015-07-21T07:04:22Z</time>
      </trkpt>
      <trkpt lat="46.86588" lon="6.22298">
        <ele>832.64</ele>
        <time>2015-07-21T07:04:23Z</time>
      </trkpt>
      <trkpt lat="46.86585" lon="6.22229">
        <ele>833.12</ele>
        <time>2015-07-21T07:04:32Z</time>
      </trkpt>
      <trkpt lat="46.86584" lon="6.22204">
        <ele>834.08</ele>
        <time>2015-07-21T07:04:36Z</time>
      </trkpt>
      <trkpt lat="46.86583" lon="6.22155">
        <ele>833.6</ele>
        <time>2015-07-21T07:04:43Z</time>
      </trkpt>
      <trkpt lat="46.86583" lon="6.22117">
        <ele>833.6</ele>
        <time>2015-07-21T07:04:48Z</time>
      </trkpt>
      <trkpt lat="46.8657" lon="6.22029">
        <ele>832.16</ele>
        <time>2015-07-21T07:04:59Z</time>
      </trkpt>
      <trkpt lat="46.86568" lon="6.2202">
        <ele>831.68</ele>
        <time>2015-07-21T07:05:00Z</time>
      </trkpt>
      <trkpt lat="46.86561" lon="6.21994">
        <ele>831.2</ele>
        <time>2015-07-21T07:05:03Z</time>
      </trkpt>
      <trkpt lat="46.86554" lon="6.21978">
        <ele>831.2</ele>
        <time>2015-07-21T07:05:05Z</time>
      </trkpt>
      <trkpt lat="46.86558" lon="6.21917">
        <ele>830.72</ele>
        <time>2015-07-21T07:05:12Z</time>
      </trkpt>
      <trkpt lat="46.86601" lon="6.21859">
        <ele>831.2</ele>
        <time>2015-07-21T07:05:22Z</time>
      </trkpt>
      <trkpt lat="46.86648" lon="6.21798">
        <ele>831.68</ele>
        <time>2015-07-21T07:05:34Z</time>
      </trkpt>
      <trkpt lat="46.86663" lon="6.21779">
        <ele>831.68</ele>
        <time>2015-07-21T07:05:38Z</time>
      </trkpt>
      <trkpt lat="46.86677" lon="6.21758">
        <ele>831.68</ele>
        <time>2015-07-21T07:05:42Z</time>
      </trkpt>
      <trkpt lat="46.8669" lon="6.21742">
        <ele>831.68</ele>
        <time>2015-07-21T07:05:45Z</time>
      </trkpt>
      <trkpt lat="46.867" lon="6.21726">
        <ele>831.68</ele>
        <time>2015-07-21T07:05:48Z</time>
      </trkpt>
      <trkpt lat="46.86714" lon="6.21689">
        <ele>833.12</ele>
        <time>2015-07-21T07:05:54Z</time>
      </trkpt>
      <trkpt lat="46.86717" lon="6.21678">
        <ele>833.6</ele>
        <time>2015-07-21T07:05:56Z</time>
      </trkpt>
      <trkpt lat="46.86735" lon="6.21636">
        <ele>834.56</ele>
        <time>2015-07-21T07:06:06Z</time>
      </trkpt>
      <trkpt lat="46.86735" lon="6.21636">
        <ele>834.08</ele>
        <time>2015-07-21T07:06:32Z</time>
      </trkpt>
      <trkpt lat="46.86749" lon="6.21604">
        <ele>833.6</ele>
        <time>2015-07-21T07:06:43Z</time>
      </trkpt>
      <trkpt lat="46.86788" lon="6.2152">
        <ele>832.16</ele>
        <time>2015-07-21T07:06:57Z</time>
      </trkpt>
      <trkpt lat="46.86796" lon="6.21501">
        <ele>832.64</ele>
        <time>2015-07-21T07:07:00Z</time>
      </trkpt>
      <trkpt lat="46.86812" lon="6.21466">
        <ele>832.64</ele>
        <time>2015-07-21T07:07:06Z</time>
      </trkpt>
      <trkpt lat="46.86815" lon="6.21425">
        <ele>833.12</ele>
        <time>2015-07-21T07:07:14Z</time>
      </trkpt>
      <trkpt lat="46.86812" lon="6.21418">
        <ele>832.64</ele>
        <time>2015-07-21T07:07:16Z</time>
      </trkpt>
      <trkpt lat="46.86779" lon="6.21392">
        <ele>832.16</ele>
        <time>2015-07-21T07:07:26Z</time>
      </trkpt>
      <trkpt lat="46.86727" lon="6.21366">
        <ele>832.16</ele>
        <time>2015-07-21T07:07:38Z</time>
      </trkpt>
      <trkpt lat="46.86682" lon="6.2135">
        <ele>832.16</ele>
        <time>2015-07-21T07:07:48Z</time>
      </trkpt>
      <trkpt lat="46.86678" lon="6.21348">
        <ele>832.16</ele>
        <time>2015-07-21T07:07:49Z</time>
      </trkpt>
      <trkpt lat="46.86662" lon="6.21342">
        <ele>831.68</ele>
        <time>2015-07-21T07:07:53Z</time>
      </trkpt>
      <trkpt lat="46.86645" lon="6.21335">
        <ele>831.68</ele>
        <time>2015-07-21T07:07:57Z</time>
      </trkpt>
      <trkpt lat="46.86635" lon="6.21332">
        <ele>831.68</ele>
        <time>2015-07-21T07:07:59Z</time>
      </trkpt>
      <trkpt lat="46.86578" lon="6.21319">
        <ele>831.2</ele>
        <time>2015-07-21T07:08:10Z</time>
      </trkpt>
      <trkpt lat="46.86519" lon="6.21312">
        <ele>831.68</ele>
        <time>2015-07-21T07:08:21Z</time>
      </trkpt>
      <trkpt lat="46.86479" lon="6.21296">
        <ele>833.6</ele>
        <time>2015-07-21T07:08:30Z</time>
      </trkpt>
      <trkpt lat="46.86472" lon="6.21291">
        <ele>833.12</ele>
        <time>2015-07-21T07:08:32Z</time>
      </trkpt>
      <trkpt lat="46.86439" lon="6.21265">
        <ele>833.12</ele>
        <time>2015-07-21T07:08:40Z</time>
      </trkpt>
      <trkpt lat="46.86415" lon="6.2125">
        <ele>833.12</ele>
        <time>2015-07-21T07:08:45Z</time>
      </trkpt>
      <trkpt lat="46.86399" lon="6.2124">
        <ele>832.64</ele>
        <time>2015-07-21T07:08:48Z</time>
      </trkpt>
      <trkpt lat="46.86335" lon="6.21187">
        <ele>832.64</ele>
        <time>2015-07-21T07:09:01Z</time>
      </trkpt>
      <trkpt lat="46.86282" lon="6.21142">
        <ele>833.12</ele>
        <time>2015-07-21T07:09:13Z</time>
      </trkpt>
      <trkpt lat="46.86252" lon="6.21109">
        <ele>833.12</ele>
        <time>2015-07-21T07:09:20Z</time>
      </trkpt>
      <trkpt lat="46.86194" lon="6.2104">
        <ele>833.6</ele>
        <time>2015-07-21T07:09:34Z</time>
      </trkpt>
      <trkpt lat="46.86153" lon="6.20996">
        <ele>833.12</ele>
        <time>2015-07-21T07:09:43Z</time>
      </trkpt>
      <trkpt lat="46.86111" lon="6.2097">
        <ele>832.64</ele>
        <time>2015-07-21T07:09:51Z</time>
      </trkpt>
      <trkpt lat="46.86061" lon="6.20981">
        <ele>832.64</ele>
        <time>2015-07-21T07:10:00Z</time>
      </trkpt>
      <trkpt lat="46.86011" lon="6.21019">
        <ele>833.12</ele>
        <time>2015-07-21T07:10:10Z</time>
      </trkpt>
      <trkpt lat="46.85965" lon="6.2102">
        <ele>835.04</ele>
        <time>2015-07-21T07:10:20Z</time>
      </trkpt>
      <trkpt lat="46.8594" lon="6.2102">
        <ele>836</ele>
        <time>2015-07-21T07:10:26Z</time>
      </trkpt>
      <trkpt lat="46.85913" lon="6.21018">
        <ele>836.48</ele>
        <time>2015-07-21T07:10:33Z</time>
      </trkpt>
      <trkpt lat="46.85861" lon="6.21016">
        <ele>836.96</ele>
        <time>2015-07-21T07:10:45Z</time>
      </trkpt>
      <trkpt lat="46.85795" lon="6.21009">
        <ele>834.08</ele>
        <time>2015-07-21T07:10:56Z</time>
      </trkpt>
      <trkpt lat="46.85704" lon="6.20997">
        <ele>833.6</ele>
        <time>2015-07-21T07:11:09Z</time>
      </trkpt>
      <trkpt lat="46.85686" lon="6.20992">
        <ele>833.6</ele>
        <time>2015-07-21T07:11:12Z</time>
      </trkpt>
      <trkpt lat="46.85634" lon="6.20961">
        <ele>835.04</ele>
        <time>2015-07-21T07:11:23Z</time>
      </trkpt>
      <trkpt lat="46.85613" lon="6.20948">
        <ele>835.52</ele>
        <time>2015-07-21T07:11:28Z</time>
      </trkpt>
      <trkpt lat="46.85588" lon="6.20932">
        <ele>836.96</ele>
        <time>2015-07-21T07:11:35Z</time>
      </trkpt>
      <trkpt lat="46.85542" lon="6.20915">
        <ele>837.93</ele>
        <time>2015-07-21T07:11:47Z</time>
      </trkpt>
      <trkpt lat="46.85528" lon="6.2091">
        <ele>837.93</ele>
        <time>2015-07-21T07:11:51Z</time>
      </trkpt>
      <trkpt lat="46.855" lon="6.209">
        <ele>838.41</ele>
        <time>2015-07-21T07:11:58Z</time>
      </trkpt>
      <trkpt lat="46.85447" lon="6.20876">
        <ele>836.96</ele>
        <time>2015-07-21T07:12:09Z</time>
      </trkpt>
      <trkpt lat="46.85424" lon="6.2086">
        <ele>836</ele>
        <time>2015-07-21T07:12:13Z</time>
      </trkpt>
      <trkpt lat="46.85341" lon="6.20797">
        <ele>834.56</ele>
        <time>2015-07-21T07:12:28Z</time>
      </trkpt>
      <trkpt lat="46.85317" lon="6.20787">
        <ele>833.6</ele>
        <time>2015-07-21T07:12:32Z</time>
      </trkpt>
      <trkpt lat="46.85308" lon="6.20779">
        <ele>834.08</ele>
        <time>2015-07-21T07:12:34Z</time>
      </trkpt>
      <trkpt lat="46.85245" lon="6.20734">
        <ele>835.04</ele>
        <time>2015-07-21T07:12:49Z</time>
      </trkpt>
      <trkpt lat="46.85199" lon="6.20701">
        <ele>835.04</ele>
        <time>2015-07-21T07:12:59Z</time>
      </trkpt>
      <trkpt lat="46.85182" lon="6.2069">
        <ele>835.52</ele>
        <time>2015-07-21T07:13:03Z</time>
      </trkpt>
      <trkpt lat="46.85132" lon="6.20652">
        <ele>834.56</ele>
        <time>2015-07-21T07:13:13Z</time>
      </trkpt>
      <trkpt lat="46.85084" lon="6.20627">
        <ele>834.08</ele>
        <time>2015-07-21T07:13:22Z</time>
      </trkpt>
      <trkpt lat="46.85034" lon="6.20593">
        <ele>834.56</ele>
        <time>2015-07-21T07:13:34Z</time>
      </trkpt>
      <trkpt lat="46.85024" lon="6.20579">
        <ele>834.56</ele>
        <time>2015-07-21T07:13:38Z</time>
      </trkpt>
      <trkpt lat="46.84998" lon="6.20516">
        <ele>833.6</ele>
        <time>2015-07-21T07:13:48Z</time>
      </trkpt>
      <trkpt lat="46.84979" lon="6.20481">
        <ele>833.12</ele>
        <time>2015-07-21T07:13:54Z</time>
      </trkpt>
      <trkpt lat="46.84967" lon="6.2047">
        <ele>833.6</ele>
        <time>2015-07-21T07:13:57Z</time>
      </trkpt>
      <trkpt lat="46.84929" lon="6.20434">
        <ele>834.08</ele>
        <time>2015-07-21T07:14:10Z</time>
      </trkpt>
      <trkpt lat="46.84917" lon="6.20412">
        <ele>834.08</ele>
        <time>2015-07-21T07:14:22Z</time>
      </trkpt>
      <trkpt lat="46.84916" lon="6.20409">
        <ele>834.08</ele>
        <time>2015-07-21T07:14:24Z</time>
      </trkpt>
      <trkpt lat="46.8491" lon="6.20397">
        <ele>834.56</ele>
        <time>2015-07-21T07:14:33Z</time>
      </trkpt>
      <trkpt lat="46.84916" lon="6.2041">
        <ele>834.08</ele>
        <time>2015-07-21T07:14:39Z</time>
      </trkpt>
      <trkpt lat="46.84952" lon="6.20447">
        <ele>833.6</ele>
        <time>2015-07-21T07:14:52Z</time>
      </trkpt>
      <trkpt lat="46.84965" lon="6.20458">
        <ele>833.6</ele>
        <time>2015-07-21T07:14:56Z</time>
      </trkpt>
      <trkpt lat="46.85007" lon="6.20529">
        <ele>833.6</ele>
        <time>2015-07-21T07:15:10Z</time>
      </trkpt>
      <trkpt lat="46.85009" lon="6.20535">
        <ele>833.6</ele>
        <time>2015-07-21T07:15:11Z</time>
      </trkpt>
      <trkpt lat="46.85016" lon="6.20551">
        <ele>833.6</ele>
        <time>2015-07-21T07:15:14Z</time>
      </trkpt>
      <trkpt lat="46.85051" lon="6.20596">
        <ele>834.56</ele>
        <time>2015-07-21T07:15:26Z</time>
      </trkpt>
      <trkpt lat="46.85068" lon="6.20612">
        <ele>835.04</ele>
        <time>2015-07-21T07:15:31Z</time>
      </trkpt>
      <trkpt lat="46.85077" lon="6.20617">
        <ele>834.56</ele>
        <time>2015-07-21T07:15:33Z</time>
      </trkpt>
      <trkpt lat="46.85112" lon="6.20634">
        <ele>834.08</ele>
        <time>2015-07-21T07:15:40Z</time>
      </trkpt>
      <trkpt lat="46.85129" lon="6.20641">
        <ele>834.08</ele>
        <time>2015-07-21T07:15:43Z</time>
      </trkpt>
      <trkpt lat="46.85138" lon="6.20648">
        <ele>834.08</ele>
        <time>2015-07-21T07:15:45Z</time>
      </trkpt>
      <trkpt lat="46.85152" lon="6.20657">
        <ele>834.56</ele>
        <time>2015-07-21T07:15:48Z</time>
      </trkpt>
      <trkpt lat="46.85182" lon="6.20682">
        <ele>835.04</ele>
        <time>2015-07-21T07:15:55Z</time>
      </trkpt>
      <trkpt lat="46.85237" lon="6.20721">
        <ele>835.04</ele>
        <time>2015-07-21T07:16:07Z</time>
      </trkpt>
      <trkpt lat="46.85246" lon="6.20728">
        <ele>835.04</ele>
        <time>2015-07-21T07:16:09Z</time>
      </trkpt>
      <trkpt lat="46.85301" lon="6.20772">
        <ele>834.56</ele>
        <time>2015-07-21T07:16:22Z</time>
      </trkpt>
      <trkpt lat="46.85311" lon="6.20778">
        <ele>835.04</ele>
        <time>2015-07-21T07:16:24Z</time>
      </trkpt>
      <trkpt lat="46.85325" lon="6.20812">
        <ele>833.6</ele>
        <time>2015-07-21T07:16:30Z</time>
      </trkpt>
      <trkpt lat="46.85306" lon="6.20857">
        <ele>832.64</ele>
        <time>2015-07-21T07:16:36Z</time>
      </trkpt>
      <trkpt lat="46.85282" lon="6.20923">
        <ele>833.12</ele>
        <time>2015-07-21T07:16:45Z</time>
      </trkpt>
      <trkpt lat="46.85252" lon="6.20938">
        <ele>832.64</ele>
        <time>2015-07-21T07:16:51Z</time>
      </trkpt>
      <trkpt lat="46.85241" lon="6.20935">
        <ele>832.64</ele>
        <time>2015-07-21T07:16:53Z</time>
      </trkpt>
      <trkpt lat="46.85199" lon="6.20914">
        <ele>833.12</ele>
        <time>2015-07-21T07:17:01Z</time>
      </trkpt>
      <trkpt lat="46.85168" lon="6.20906">
        <ele>833.12</ele>
        <time>2015-07-21T07:17:07Z</time>
      </trkpt>
      <trkpt lat="46.85101" lon="6.20915">
        <ele>833.6</ele>
        <time>2015-07-21T07:17:20Z</time>
      </trkpt>
      <trkpt lat="46.85053" lon="6.20926">
        <ele>835.52</ele>
        <time>2015-07-21T07:17:30Z</time>
      </trkpt>
      <trkpt lat="46.85017" lon="6.20938">
        <ele>837.45</ele>
        <time>2015-07-21T07:17:40Z</time>
      </trkpt>
      <trkpt lat="46.84988" lon="6.2095">
        <ele>837.45</ele>
        <time>2015-07-21T07:17:49Z</time>
      </trkpt>
      <trkpt lat="46.84966" lon="6.20962">
        <ele>836.96</ele>
        <time>2015-07-21T07:17:54Z</time>
      </trkpt>
      <trkpt lat="46.84958" lon="6.20968">
        <ele>836.96</ele>
        <time>2015-07-21T07:17:56Z</time>
      </trkpt>
      <trkpt lat="46.84946" lon="6.20979">
        <ele>836.96</ele>
        <time>2015-07-21T07:17:59Z</time>
      </trkpt>
      <trkpt lat="46.84871" lon="6.21062">
        <ele>835.52</ele>
        <time>2015-07-21T07:18:14Z</time>
      </trkpt>
      <trkpt lat="46.84794" lon="6.21128">
        <ele>835.52</ele>
        <time>2015-07-21T07:18:29Z</time>
      </trkpt>
      <trkpt lat="46.84747" lon="6.21164">
        <ele>836.48</ele>
        <time>2015-07-21T07:18:39Z</time>
      </trkpt>
      <trkpt lat="46.84713" lon="6.21177">
        <ele>837.93</ele>
        <time>2015-07-21T07:18:47Z</time>
      </trkpt>
      <trkpt lat="46.84667" lon="6.21182">
        <ele>838.41</ele>
        <time>2015-07-21T07:18:57Z</time>
      </trkpt>
      <trkpt lat="46.84658" lon="6.21182">
        <ele>838.89</ele>
        <time>2015-07-21T07:18:59Z</time>
      </trkpt>
      <trkpt lat="46.84641" lon="6.21183">
        <ele>838.89</ele>
        <time>2015-07-21T07:19:03Z</time>
      </trkpt>
      <trkpt lat="46.84619" lon="6.21182">
        <ele>839.85</ele>
        <time>2015-07-21T07:19:08Z</time>
      </trkpt>
      <trkpt lat="46.84561" lon="6.21179">
        <ele>841.29</ele>
        <time>2015-07-21T07:19:22Z</time>
      </trkpt>
      <trkpt lat="46.84518" lon="6.21179">
        <ele>843.21</ele>
        <time>2015-07-21T07:19:33Z</time>
      </trkpt>
      <trkpt lat="46.84474" lon="6.21176">
        <ele>845.14</ele>
        <time>2015-07-21T07:19:45Z</time>
      </trkpt>
      <trkpt lat="46.8443" lon="6.21175">
        <ele>847.54</ele>
        <time>2015-07-21T07:19:56Z</time>
      </trkpt>
      <trkpt lat="46.84418" lon="6.21175">
        <ele>847.54</ele>
        <time>2015-07-21T07:19:59Z</time>
      </trkpt>
      <trkpt lat="46.84356" lon="6.21175">
        <ele>847.54</ele>
        <time>2015-07-21T07:20:13Z</time>
      </trkpt>
      <trkpt lat="46.84285" lon="6.21178">
        <ele>846.1</ele>
        <time>2015-07-21T07:20:25Z</time>
      </trkpt>
      <trkpt lat="46.84188" lon="6.2117">
        <ele>844.18</ele>
        <time>2015-07-21T07:20:38Z</time>
      </trkpt>
      <trkpt lat="46.84108" lon="6.21156">
        <ele>845.62</ele>
        <time>2015-07-21T07:20:50Z</time>
      </trkpt>
      <trkpt lat="46.84098" lon="6.21154">
        <ele>845.14</ele>
        <time>2015-07-21T07:20:52Z</time>
      </trkpt>
      <trkpt lat="46.84076" lon="6.21148">
        <ele>845.62</ele>
        <time>2015-07-21T07:20:56Z</time>
      </trkpt>
      <trkpt lat="46.84021" lon="6.21134">
        <ele>847.54</ele>
        <time>2015-07-21T07:21:07Z</time>
      </trkpt>
      <trkpt lat="46.84012" lon="6.2113">
        <ele>848.02</ele>
        <time>2015-07-21T07:21:09Z</time>
      </trkpt>
      <trkpt lat="46.83956" lon="6.21115">
        <ele>850.42</ele>
        <time>2015-07-21T07:21:21Z</time>
      </trkpt>
      <trkpt lat="46.83901" lon="6.2111">
        <ele>851.38</ele>
        <time>2015-07-21T07:21:33Z</time>
      </trkpt>
      <trkpt lat="46.8384" lon="6.2111">
        <ele>851.38</ele>
        <time>2015-07-21T07:21:44Z</time>
      </trkpt>
      <trkpt lat="46.83766" lon="6.21108">
        <ele>850.9</ele>
        <time>2015-07-21T07:21:56Z</time>
      </trkpt>
      <trkpt lat="46.83708" lon="6.21109">
        <ele>850.9</ele>
        <time>2015-07-21T07:22:06Z</time>
      </trkpt>
      <trkpt lat="46.83651" lon="6.21104">
        <ele>850.9</ele>
        <time>2015-07-21T07:22:16Z</time>
      </trkpt>
      <trkpt lat="46.83637" lon="6.211">
        <ele>851.38</ele>
        <time>2015-07-21T07:22:19Z</time>
      </trkpt>
      <trkpt lat="46.83614" lon="6.21091">
        <ele>850.9</ele>
        <time>2015-07-21T07:22:24Z</time>
      </trkpt>
      <trkpt lat="46.83543" lon="6.2106">
        <ele>848.5</ele>
        <time>2015-07-21T07:22:35Z</time>
      </trkpt>
      <trkpt lat="46.83463" lon="6.21026">
        <ele>847.06</ele>
        <time>2015-07-21T07:22:47Z</time>
      </trkpt>
      <trkpt lat="46.83392" lon="6.20987">
        <ele>846.58</ele>
        <time>2015-07-21T07:22:58Z</time>
      </trkpt>
      <trkpt lat="46.83316" lon="6.20936">
        <ele>844.66</ele>
        <time>2015-07-21T07:23:09Z</time>
      </trkpt>
      <trkpt lat="46.83297" lon="6.20924">
        <ele>844.66</ele>
        <time>2015-07-21T07:23:12Z</time>
      </trkpt>
      <trkpt lat="46.83273" lon="6.2092">
        <ele>845.62</ele>
        <time>2015-07-21T07:23:16Z</time>
      </trkpt>
      <trkpt lat="46.83255" lon="6.20929">
        <ele>846.58</ele>
        <time>2015-07-21T07:23:20Z</time>
      </trkpt>
      <trkpt lat="46.83238" lon="6.20945">
        <ele>846.58</ele>
        <time>2015-07-21T07:23:30Z</time>
      </trkpt>
      <trkpt lat="46.83236" lon="6.20949">
        <ele>846.58</ele>
        <time>2015-07-21T07:23:43Z</time>
      </trkpt>
      <trkpt lat="46.83225" lon="6.2096">
        <ele>847.06</ele>
        <time>2015-07-21T07:23:51Z</time>
      </trkpt>
      <trkpt lat="46.83218" lon="6.2097">
        <ele>846.1</ele>
        <time>2015-07-21T07:23:56Z</time>
      </trkpt>
      <trkpt lat="46.83181" lon="6.21013">
        <ele>845.14</ele>
        <time>2015-07-21T07:24:08Z</time>
      </trkpt>
      <trkpt lat="46.8316" lon="6.21018">
        <ele>844.66</ele>
        <time>2015-07-21T07:24:12Z</time>
      </trkpt>
      <trkpt lat="46.83137" lon="6.21011">
        <ele>844.18</ele>
        <time>2015-07-21T07:24:17Z</time>
      </trkpt>
      <trkpt lat="46.83076" lon="6.20958">
        <ele>844.18</ele>
        <time>2015-07-21T07:24:29Z</time>
      </trkpt>
      <trkpt lat="46.83057" lon="6.20945">
        <ele>844.66</ele>
        <time>2015-07-21T07:24:33Z</time>
      </trkpt>
      <trkpt lat="46.83012" lon="6.20906">
        <ele>845.62</ele>
        <time>2015-07-21T07:24:45Z</time>
      </trkpt>
      <trkpt lat="46.82968" lon="6.20864">
        <ele>846.1</ele>
        <time>2015-07-21T07:24:57Z</time>
      </trkpt>
      <trkpt lat="46.82917" lon="6.20818">
        <ele>846.1</ele>
        <time>2015-07-21T07:25:09Z</time>
      </trkpt>
      <trkpt lat="46.82874" lon="6.20779">
        <ele>845.62</ele>
        <time>2015-07-21T07:25:19Z</time>
      </trkpt>
      <trkpt lat="46.82849" lon="6.2075">
        <ele>845.62</ele>
        <time>2015-07-21T07:25:25Z</time>
      </trkpt>
      <trkpt lat="46.82803" lon="6.20687">
        <ele>844.66</ele>
        <time>2015-07-21T07:25:37Z</time>
      </trkpt>
      <trkpt lat="46.82757" lon="6.20578">
        <ele>844.18</ele>
        <time>2015-07-21T07:25:51Z</time>
      </trkpt>
      <trkpt lat="46.8272" lon="6.20509">
        <ele>843.69</ele>
        <time>2015-07-21T07:26:01Z</time>
      </trkpt>
      <trkpt lat="46.82663" lon="6.2042">
        <ele>843.21</ele>
        <time>2015-07-21T07:26:15Z</time>
      </trkpt>
      <trkpt lat="46.82611" lon="6.20319">
        <ele>842.73</ele>
        <time>2015-07-21T07:26:29Z</time>
      </trkpt>
      <trkpt lat="46.82568" lon="6.20218">
        <ele>841.77</ele>
        <time>2015-07-21T07:26:41Z</time>
      </trkpt>
      <trkpt lat="46.82512" lon="6.20134">
        <ele>842.25</ele>
        <time>2015-07-21T07:26:54Z</time>
      </trkpt>
      <trkpt lat="46.82508" lon="6.20127">
        <ele>841.77</ele>
        <time>2015-07-21T07:26:55Z</time>
      </trkpt>
      <trkpt lat="46.82457" lon="6.20029">
        <ele>842.25</ele>
        <time>2015-07-21T07:27:09Z</time>
      </trkpt>
      <trkpt lat="46.82388" lon="6.19944">
        <ele>840.33</ele>
        <time>2015-07-21T07:27:22Z</time>
      </trkpt>
      <trkpt lat="46.82331" lon="6.19867">
        <ele>841.29</ele>
        <time>2015-07-21T07:27:34Z</time>
      </trkpt>
      <trkpt lat="46.8231" lon="6.19829">
        <ele>841.77</ele>
        <time>2015-07-21T07:27:40Z</time>
      </trkpt>
      <trkpt lat="46.82295" lon="6.19807">
        <ele>842.25</ele>
        <time>2015-07-21T07:27:44Z</time>
      </trkpt>
      <trkpt lat="46.82258" lon="6.19755">
        <ele>845.62</ele>
        <time>2015-07-21T07:27:56Z</time>
      </trkpt>
      <trkpt lat="46.82234" lon="6.19709">
        <ele>848.02</ele>
        <time>2015-07-21T07:28:07Z</time>
      </trkpt>
      <trkpt lat="46.82206" lon="6.19678">
        <ele>848.98</ele>
        <time>2015-07-21T07:28:16Z</time>
      </trkpt>
      <trkpt lat="46.82186" lon="6.19653">
        <ele>849.46</ele>
        <time>2015-07-21T07:28:22Z</time>
      </trkpt>
      <trkpt lat="46.82157" lon="6.19625">
        <ele>850.42</ele>
        <time>2015-07-21T07:28:30Z</time>
      </trkpt>
      <trkpt lat="46.82111" lon="6.19577">
        <ele>851.38</ele>
        <time>2015-07-21T07:28:42Z</time>
      </trkpt>
      <trkpt lat="46.82069" lon="6.1952">
        <ele>851.87</ele>
        <time>2015-07-21T07:28:54Z</time>
      </trkpt>
      <trkpt lat="46.82034" lon="6.1947">
        <ele>852.83</ele>
        <time>2015-07-21T07:29:03Z</time>
      </trkpt>
      <trkpt lat="46.81996" lon="6.19435">
        <ele>853.31</ele>
        <time>2015-07-21T07:29:12Z</time>
      </trkpt>
      <trkpt lat="46.81974" lon="6.19418">
        <ele>853.31</ele>
        <time>2015-07-21T07:29:17Z</time>
      </trkpt>
      <trkpt lat="46.81906" lon="6.19351">
        <ele>852.83</ele>
        <time>2015-07-21T07:29:31Z</time>
      </trkpt>
      <trkpt lat="46.81854" lon="6.19272">
        <ele>853.31</ele>
        <time>2015-07-21T07:29:44Z</time>
      </trkpt>
      <trkpt lat="46.81826" lon="6.1923">
        <ele>853.31</ele>
        <time>2015-07-21T07:29:51Z</time>
      </trkpt>
      <trkpt lat="46.81758" lon="6.19145">
        <ele>850.9</ele>
        <time>2015-07-21T07:30:03Z</time>
      </trkpt>
      <trkpt lat="46.81696" lon="6.19071">
        <ele>851.38</ele>
        <time>2015-07-21T07:30:14Z</time>
      </trkpt>
      <trkpt lat="46.81669" lon="6.19041">
        <ele>852.35</ele>
        <time>2015-07-21T07:30:20Z</time>
      </trkpt>
      <trkpt lat="46.81657" lon="6.19025">
        <ele>853.31</ele>
        <time>2015-07-21T07:30:23Z</time>
      </trkpt>
      <trkpt lat="46.81628" lon="6.18995">
        <ele>855.23</ele>
        <time>2015-07-21T07:30:31Z</time>
      </trkpt>
      <trkpt lat="46.81595" lon="6.18967">
        <ele>856.67</ele>
        <time>2015-07-21T07:30:41Z</time>
      </trkpt>
      <trkpt lat="46.8158" lon="6.18953">
        <ele>856.67</ele>
        <time>2015-07-21T07:30:45Z</time>
      </trkpt>
      <trkpt lat="46.8151" lon="6.18907">
        <ele>855.71</ele>
        <time>2015-07-21T07:30:58Z</time>
      </trkpt>
      <trkpt lat="46.81493" lon="6.18895">
        <ele>855.71</ele>
        <time>2015-07-21T07:31:01Z</time>
      </trkpt>
      <trkpt lat="46.81437" lon="6.18855">
        <ele>858.11</ele>
        <time>2015-07-21T07:31:14Z</time>
      </trkpt>
      <trkpt lat="46.81399" lon="6.18824">
        <ele>859.56</ele>
        <time>2015-07-21T07:31:25Z</time>
      </trkpt>
      <trkpt lat="46.81354" lon="6.1878">
        <ele>862.44</ele>
        <time>2015-07-21T07:31:40Z</time>
      </trkpt>
      <trkpt lat="46.81314" lon="6.18766">
        <ele>865.32</ele>
        <time>2015-07-21T07:31:53Z</time>
      </trkpt>
      <trkpt lat="46.81278" lon="6.18744">
        <ele>867.25</ele>
        <time>2015-07-21T07:32:04Z</time>
      </trkpt>
      <trkpt lat="46.81226" lon="6.18711">
        <ele>867.73</ele>
        <time>2015-07-21T07:32:17Z</time>
      </trkpt>
      <trkpt lat="46.81167" lon="6.18672">
        <ele>866.29</ele>
        <time>2015-07-21T07:32:29Z</time>
      </trkpt>
      <trkpt lat="46.81121" lon="6.18653">
        <ele>864.36</ele>
        <time>2015-07-21T07:32:37Z</time>
      </trkpt>
      <trkpt lat="46.81115" lon="6.1865">
        <ele>863.88</ele>
        <time>2015-07-21T07:32:38Z</time>
      </trkpt>
      <trkpt lat="46.81033" lon="6.18594">
        <ele>861.96</ele>
        <time>2015-07-21T07:32:52Z</time>
      </trkpt>
      <trkpt lat="46.81019" lon="6.18583">
        <ele>861.48</ele>
        <time>2015-07-21T07:32:55Z</time>
      </trkpt>
      <trkpt lat="46.81006" lon="6.18573">
        <ele>862.44</ele>
        <time>2015-07-21T07:32:58Z</time>
      </trkpt>
      <trkpt lat="46.80989" lon="6.18562">
        <ele>862.44</ele>
        <time>2015-07-21T07:33:02Z</time>
      </trkpt>
      <trkpt lat="46.80949" lon="6.1853">
        <ele>862.92</ele>
        <time>2015-07-21T07:33:13Z</time>
      </trkpt>
      <trkpt lat="46.80938" lon="6.18521">
        <ele>862.44</ele>
        <time>2015-07-21T07:33:16Z</time>
      </trkpt>
      <trkpt lat="46.80914" lon="6.18528">
        <ele>861.48</ele>
        <time>2015-07-21T07:33:23Z</time>
      </trkpt>
      <trkpt lat="46.80902" lon="6.18549">
        <ele>861</ele>
        <time>2015-07-21T07:33:32Z</time>
      </trkpt>
      <trkpt lat="46.80904" lon="6.18568">
        <ele>861.48</ele>
        <time>2015-07-21T07:33:46Z</time>
      </trkpt>
      <trkpt lat="46.80904" lon="6.18568">
        <ele>861.48</ele>
        <time>2015-07-21T07:34:09Z</time>
      </trkpt>
      <trkpt lat="46.80905" lon="6.18568">
        <ele>861.96</ele>
        <time>2015-07-21T07:34:39Z</time>
      </trkpt>
      <trkpt lat="46.80905" lon="6.18568">
        <ele>861.96</ele>
        <time>2015-07-21T07:35:07Z</time>
      </trkpt>
      <trkpt lat="46.80905" lon="6.18568">
        <ele>861.96</ele>
        <time>2015-07-21T07:35:08Z</time>
      </trkpt>
      <trkpt lat="46.80889" lon="6.18535">
        <ele>861</ele>
        <time>2015-07-21T07:35:17Z</time>
      </trkpt>
      <trkpt lat="46.80854" lon="6.18471">
        <ele>859.56</ele>
        <time>2015-07-21T07:35:29Z</time>
      </trkpt>
      <trkpt lat="46.80816" lon="6.18418">
        <ele>861</ele>
        <time>2015-07-21T07:35:42Z</time>
      </trkpt>
      <trkpt lat="46.80805" lon="6.18408">
        <ele>861.96</ele>
        <time>2015-07-21T07:35:46Z</time>
      </trkpt>
      <trkpt lat="46.80793" lon="6.18403">
        <ele>862.92</ele>
        <time>2015-07-21T07:35:50Z</time>
      </trkpt>
      <trkpt lat="46.80767" lon="6.18378">
        <ele>864.84</ele>
        <time>2015-07-21T07:36:02Z</time>
      </trkpt>
      <trkpt lat="46.80741" lon="6.18349">
        <ele>866.29</ele>
        <time>2015-07-21T07:36:13Z</time>
      </trkpt>
      <trkpt lat="46.80737" lon="6.18338">
        <ele>866.29</ele>
        <time>2015-07-21T07:36:15Z</time>
      </trkpt>
      <trkpt lat="46.80728" lon="6.18303">
        <ele>865.32</ele>
        <time>2015-07-21T07:36:20Z</time>
      </trkpt>
      <trkpt lat="46.80715" lon="6.18255">
        <ele>865.8</ele>
        <time>2015-07-21T07:36:27Z</time>
      </trkpt>
      <trkpt lat="46.80712" lon="6.18243">
        <ele>865.8</ele>
        <time>2015-07-21T07:36:29Z</time>
      </trkpt>
      <trkpt lat="46.80694" lon="6.1817">
        <ele>865.8</ele>
        <time>2015-07-21T07:36:40Z</time>
      </trkpt>
      <trkpt lat="46.80689" lon="6.18148">
        <ele>865.32</ele>
        <time>2015-07-21T07:36:43Z</time>
      </trkpt>
      <trkpt lat="46.80682" lon="6.18118">
        <ele>865.8</ele>
        <time>2015-07-21T07:36:47Z</time>
      </trkpt>
      <trkpt lat="46.80674" lon="6.18037">
        <ele>866.77</ele>
        <time>2015-07-21T07:36:58Z</time>
      </trkpt>
      <trkpt lat="46.80668" lon="6.17953">
        <ele>868.69</ele>
        <time>2015-07-21T07:37:10Z</time>
      </trkpt>
      <trkpt lat="46.80665" lon="6.17916">
        <ele>869.17</ele>
        <time>2015-07-21T07:37:17Z</time>
      </trkpt>
      <trkpt lat="46.80661" lon="6.17825">
        <ele>868.21</ele>
        <time>2015-07-21T07:37:31Z</time>
      </trkpt>
      <trkpt lat="46.80653" lon="6.17708">
        <ele>864.84</ele>
        <time>2015-07-21T07:37:41Z</time>
      </trkpt>
      <trkpt lat="46.80645" lon="6.17558">
        <ele>861.96</ele>
        <time>2015-07-21T07:37:53Z</time>
      </trkpt>
      <trkpt lat="46.80635" lon="6.17396">
        <ele>860.04</ele>
        <time>2015-07-21T07:38:06Z</time>
      </trkpt>
      <trkpt lat="46.80628" lon="6.17246">
        <ele>860.52</ele>
        <time>2015-07-21T07:38:21Z</time>
      </trkpt>
      <trkpt lat="46.80622" lon="6.17121">
        <ele>860.04</ele>
        <time>2015-07-21T07:38:35Z</time>
      </trkpt>
      <trkpt lat="46.80616" lon="6.16994">
        <ele>859.08</ele>
        <time>2015-07-21T07:38:48Z</time>
      </trkpt>
      <trkpt lat="46.80608" lon="6.16855">
        <ele>859.56</ele>
        <time>2015-07-21T07:39:02Z</time>
      </trkpt>
      <trkpt lat="46.80604" lon="6.16756">
        <ele>861</ele>
        <time>2015-07-21T07:39:14Z</time>
      </trkpt>
      <trkpt lat="46.806" lon="6.1665">
        <ele>863.88</ele>
        <time>2015-07-21T07:39:28Z</time>
      </trkpt>
      <trkpt lat="46.80594" lon="6.16558">
        <ele>864.36</ele>
        <time>2015-07-21T07:39:40Z</time>
      </trkpt>
      <trkpt lat="46.80593" lon="6.16529">
        <ele>864.84</ele>
        <time>2015-07-21T07:39:44Z</time>
      </trkpt>
      <trkpt lat="46.80591" lon="6.16514">
        <ele>864.84</ele>
        <time>2015-07-21T07:39:46Z</time>
      </trkpt>
      <trkpt lat="46.80584" lon="6.16413">
        <ele>863.88</ele>
        <time>2015-07-21T07:40:00Z</time>
      </trkpt>
      <trkpt lat="46.80578" lon="6.16348">
        <ele>862.92</ele>
        <time>2015-07-21T07:40:12Z</time>
      </trkpt>
      <trkpt lat="46.80578" lon="6.16347">
        <ele>862.44</ele>
        <time>2015-07-21T07:40:32Z</time>
      </trkpt>
      <trkpt lat="46.80579" lon="6.16345">
        <ele>861.96</ele>
        <time>2015-07-21T07:40:50Z</time>
      </trkpt>
      <trkpt lat="46.80579" lon="6.16344">
        <ele>862.44</ele>
        <time>2015-07-21T07:41:05Z</time>
      </trkpt>
      <trkpt lat="46.80578" lon="6.1633">
        <ele>861.96</ele>
        <time>2015-07-21T07:41:18Z</time>
      </trkpt>
      <trkpt lat="46.80571" lon="6.16275">
        <ele>861</ele>
        <time>2015-07-21T07:41:28Z</time>
      </trkpt>
      <trkpt lat="46.80559" lon="6.16148">
        <ele>859.08</ele>
        <time>2015-07-21T07:41:43Z</time>
      </trkpt>
      <trkpt lat="46.80547" lon="6.16022">
        <ele>858.59</ele>
        <time>2015-07-21T07:41:57Z</time>
      </trkpt>
      <trkpt lat="46.80533" lon="6.15893">
        <ele>859.08</ele>
        <time>2015-07-21T07:42:12Z</time>
      </trkpt>
      <trkpt lat="46.80523" lon="6.15794">
        <ele>858.59</ele>
        <time>2015-07-21T07:42:24Z</time>
      </trkpt>
      <trkpt lat="46.80514" lon="6.15722">
        <ele>858.11</ele>
        <time>2015-07-21T07:42:32Z</time>
      </trkpt>
      <trkpt lat="46.80513" lon="6.15706">
        <ele>858.59</ele>
        <time>2015-07-21T07:42:34Z</time>
      </trkpt>
      <trkpt lat="46.80507" lon="6.15641">
        <ele>858.59</ele>
        <time>2015-07-21T07:42:42Z</time>
      </trkpt>
      <trkpt lat="46.805" lon="6.15588">
        <ele>858.59</ele>
        <time>2015-07-21T07:42:48Z</time>
      </trkpt>
      <trkpt lat="46.8049" lon="6.15478">
        <ele>857.15</ele>
        <time>2015-07-21T07:43:00Z</time>
      </trkpt>
      <trkpt lat="46.80478" lon="6.15361">
        <ele>856.67</ele>
        <time>2015-07-21T07:43:13Z</time>
      </trkpt>
      <trkpt lat="46.80468" lon="6.1534">
        <ele>856.67</ele>
        <time>2015-07-21T07:43:18Z</time>
      </trkpt>
      <trkpt lat="46.80467" lon="6.15339">
        <ele>857.15</ele>
        <time>2015-07-21T07:43:30Z</time>
      </trkpt>
      <trkpt lat="46.80467" lon="6.15339">
        <ele>856.67</ele>
        <time>2015-07-21T07:43:53Z</time>
      </trkpt>
      <trkpt lat="46.80463" lon="6.15326">
        <ele>857.63</ele>
        <time>2015-07-21T07:46:51Z</time>
      </trkpt>
      <trkpt lat="46.80466" lon="6.1533">
        <ele>857.15</ele>
        <time>2015-07-21T07:46:52Z</time>
      </trkpt>
      <trkpt lat="46.8047" lon="6.15343">
        <ele>856.67</ele>
        <time>2015-07-21T07:47:12Z</time>
      </trkpt>
      <trkpt lat="46.8047" lon="6.15343">
        <ele>856.67</ele>
        <time>2015-07-21T07:47:29Z</time>
      </trkpt>
      <trkpt lat="46.80465" lon="6.1534">
        <ele>856.67</ele>
        <time>2015-07-21T07:47:33Z</time>
      </trkpt>
      <trkpt lat="46.80435" lon="6.15307">
        <ele>856.67</ele>
        <time>2015-07-21T07:47:47Z</time>
      </trkpt>
      <trkpt lat="46.80395" lon="6.15258">
        <ele>856.67</ele>
        <time>2015-07-21T07:48:01Z</time>
      </trkpt>
      <trkpt lat="46.80338" lon="6.15196">
        <ele>857.63</ele>
        <time>2015-07-21T07:48:19Z</time>
      </trkpt>
      <trkpt lat="46.80302" lon="6.15141">
        <ele>858.11</ele>
        <time>2015-07-21T07:48:32Z</time>
      </trkpt>
      <trkpt lat="46.80286" lon="6.1508">
        <ele>858.59</ele>
        <time>2015-07-21T07:48:45Z</time>
      </trkpt>
      <trkpt lat="46.80267" lon="6.15015">
        <ele>859.08</ele>
        <time>2015-07-21T07:48:58Z</time>
      </trkpt>
      <trkpt lat="46.80236" lon="6.14963">
        <ele>860.04</ele>
        <time>2015-07-21T07:49:09Z</time>
      </trkpt>
      <trkpt lat="46.80212" lon="6.14913">
        <ele>861.48</ele>
        <time>2015-07-21T07:49:20Z</time>
      </trkpt>
      <trkpt lat="46.8021" lon="6.14909">
        <ele>861.48</ele>
        <time>2015-07-21T07:49:21Z</time>
      </trkpt>
      <trkpt lat="46.80181" lon="6.14851">
        <ele>863.4</ele>
        <time>2015-07-21T07:49:35Z</time>
      </trkpt>
      <trkpt lat="46.80159" lon="6.14807">
        <ele>865.32</ele>
        <time>2015-07-21T07:49:47Z</time>
      </trkpt>
      <trkpt lat="46.80139" lon="6.14762">
        <ele>866.77</ele>
        <time>2015-07-21T07:49:59Z</time>
      </trkpt>
      <trkpt lat="46.80112" lon="6.1473">
        <ele>867.73</ele>
        <time>2015-07-21T07:50:11Z</time>
      </trkpt>
      <trkpt lat="46.80076" lon="6.14687">
        <ele>869.65</ele>
        <time>2015-07-21T07:50:25Z</time>
      </trkpt>
      <trkpt lat="46.80037" lon="6.14632">
        <ele>871.09</ele>
        <time>2015-07-21T07:50:39Z</time>
      </trkpt>
      <trkpt lat="46.79993" lon="6.14544">
        <ele>873.5</ele>
        <time>2015-07-21T07:50:57Z</time>
      </trkpt>
      <trkpt lat="46.79943" lon="6.14487">
        <ele>875.42</ele>
        <time>2015-07-21T07:51:14Z</time>
      </trkpt>
      <trkpt lat="46.79898" lon="6.14443">
        <ele>877.34</ele>
        <time>2015-07-21T07:51:28Z</time>
      </trkpt>
      <trkpt lat="46.79854" lon="6.14405">
        <ele>878.78</ele>
        <time>2015-07-21T07:51:41Z</time>
      </trkpt>
      <trkpt lat="46.7981" lon="6.14372">
        <ele>880.22</ele>
        <time>2015-07-21T07:51:54Z</time>
      </trkpt>
      <trkpt lat="46.79758" lon="6.14332">
        <ele>881.19</ele>
        <time>2015-07-21T07:52:08Z</time>
      </trkpt>
      <trkpt lat="46.79716" lon="6.14296">
        <ele>882.15</ele>
        <time>2015-07-21T07:52:19Z</time>
      </trkpt>
      <trkpt lat="46.79695" lon="6.1428">
        <ele>882.63</ele>
        <time>2015-07-21T07:52:24Z</time>
      </trkpt>
      <trkpt lat="46.79683" lon="6.14272">
        <ele>882.63</ele>
        <time>2015-07-21T07:52:27Z</time>
      </trkpt>
      <trkpt lat="46.7966" lon="6.14254">
        <ele>883.11</ele>
        <time>2015-07-21T07:52:33Z</time>
      </trkpt>
      <trkpt lat="46.7961" lon="6.14213">
        <ele>885.03</ele>
        <time>2015-07-21T07:52:47Z</time>
      </trkpt>
      <trkpt lat="46.79561" lon="6.14185">
        <ele>886.95</ele>
        <time>2015-07-21T07:53:01Z</time>
      </trkpt>
      <trkpt lat="46.79543" lon="6.14172">
        <ele>887.91</ele>
        <time>2015-07-21T07:53:06Z</time>
      </trkpt>
      <trkpt lat="46.79501" lon="6.14125">
        <ele>888.4</ele>
        <time>2015-07-21T07:53:19Z</time>
      </trkpt>
      <trkpt lat="46.79489" lon="6.14104">
        <ele>888.4</ele>
        <time>2015-07-21T07:53:23Z</time>
      </trkpt>
      <trkpt lat="46.79469" lon="6.14051">
        <ele>887.43</ele>
        <time>2015-07-21T07:53:31Z</time>
      </trkpt>
      <trkpt lat="46.79459" lon="6.14023">
        <ele>886.95</ele>
        <time>2015-07-21T07:53:35Z</time>
      </trkpt>
      <trkpt lat="46.79424" lon="6.13932">
        <ele>885.99</ele>
        <time>2015-07-21T07:53:46Z</time>
      </trkpt>
      <trkpt lat="46.79401" lon="6.13866">
        <ele>886.47</ele>
        <time>2015-07-21T07:53:54Z</time>
      </trkpt>
      <trkpt lat="46.79366" lon="6.13765">
        <ele>887.91</ele>
        <time>2015-07-21T07:54:08Z</time>
      </trkpt>
      <trkpt lat="46.79341" lon="6.13697">
        <ele>888.4</ele>
        <time>2015-07-21T07:54:18Z</time>
      </trkpt>
      <trkpt lat="46.79333" lon="6.13672">
        <ele>888.88</ele>
        <time>2015-07-21T07:54:22Z</time>
      </trkpt>
      <trkpt lat="46.79295" lon="6.13573">
        <ele>890.8</ele>
        <time>2015-07-21T07:54:38Z</time>
      </trkpt>
      <trkpt lat="46.79263" lon="6.13477">
        <ele>890.8</ele>
        <time>2015-07-21T07:54:52Z</time>
      </trkpt>
      <trkpt lat="46.79245" lon="6.1342">
        <ele>890.32</ele>
        <time>2015-07-21T07:55:00Z</time>
      </trkpt>
      <trkpt lat="46.79213" lon="6.13323">
        <ele>888.4</ele>
        <time>2015-07-21T07:55:11Z</time>
      </trkpt>
      <trkpt lat="46.79172" lon="6.13204">
        <ele>884.55</ele>
        <time>2015-07-21T07:55:23Z</time>
      </trkpt>
      <trkpt lat="46.79156" lon="6.13162">
        <ele>884.07</ele>
        <time>2015-07-21T07:55:27Z</time>
      </trkpt>
      <trkpt lat="46.7914" lon="6.1311">
        <ele>883.59</ele>
        <time>2015-07-21T07:55:32Z</time>
      </trkpt>
      <trkpt lat="46.7913" lon="6.13049">
        <ele>882.63</ele>
        <time>2015-07-21T07:55:38Z</time>
      </trkpt>
      <trkpt lat="46.79126" lon="6.12977">
        <ele>880.71</ele>
        <time>2015-07-21T07:55:46Z</time>
      </trkpt>
      <trkpt lat="46.79116" lon="6.12878">
        <ele>878.78</ele>
        <time>2015-07-21T07:55:58Z</time>
      </trkpt>
      <trkpt lat="46.79097" lon="6.12792">
        <ele>875.42</ele>
        <time>2015-07-21T07:56:10Z</time>
      </trkpt>
      <trkpt lat="46.79097" lon="6.12781">
        <ele>875.42</ele>
        <time>2015-07-21T07:56:23Z</time>
      </trkpt>
      <trkpt lat="46.79097" lon="6.12781">
        <ele>875.42</ele>
        <time>2015-07-21T07:56:45Z</time>
      </trkpt>
      <trkpt lat="46.79097" lon="6.12779">
        <ele>875.42</ele>
        <time>2015-07-21T07:57:13Z</time>
      </trkpt>
      <trkpt lat="46.79099" lon="6.12778">
        <ele>875.9</ele>
        <time>2015-07-21T07:57:42Z</time>
      </trkpt>
      <trkpt lat="46.79099" lon="6.12778">
        <ele>875.42</ele>
        <time>2015-07-21T07:58:06Z</time>
      </trkpt>
      <trkpt lat="46.79099" lon="6.12777">
        <ele>875.9</ele>
        <time>2015-07-21T07:58:38Z</time>
      </trkpt>
      <trkpt lat="46.79099" lon="6.12777">
        <ele>875.9</ele>
        <time>2015-07-21T07:59:04Z</time>
      </trkpt>
      <trkpt lat="46.79099" lon="6.12777">
        <ele>875.9</ele>
        <time>2015-07-21T07:59:31Z</time>
      </trkpt>
      <trkpt lat="46.791" lon="6.12766">
        <ele>875.9</ele>
        <time>2015-07-21T07:59:35Z</time>
      </trkpt>
      <trkpt lat="46.7911" lon="6.12731">
        <ele>876.38</ele>
        <time>2015-07-21T07:59:43Z</time>
      </trkpt>
      <trkpt lat="46.79107" lon="6.12711">
        <ele>876.86</ele>
        <time>2015-07-21T07:59:47Z</time>
      </trkpt>
      <trkpt lat="46.79086" lon="6.12633">
        <ele>877.82</ele>
        <time>2015-07-21T08:00:03Z</time>
      </trkpt>
      <trkpt lat="46.7907" lon="6.12553">
        <ele>877.82</ele>
        <time>2015-07-21T08:00:16Z</time>
      </trkpt>
      <trkpt lat="46.79048" lon="6.12486">
        <ele>875.42</ele>
        <time>2015-07-21T08:00:24Z</time>
      </trkpt>
      <trkpt lat="46.79025" lon="6.12442">
        <ele>874.94</ele>
        <time>2015-07-21T08:00:30Z</time>
      </trkpt>
      <trkpt lat="46.79017" lon="6.12404">
        <ele>874.46</ele>
        <time>2015-07-21T08:00:34Z</time>
      </trkpt>
      <trkpt lat="46.79019" lon="6.12234">
        <ele>871.57</ele>
        <time>2015-07-21T08:00:49Z</time>
      </trkpt>
      <trkpt lat="46.7902" lon="6.12122">
        <ele>872.05</ele>
        <time>2015-07-21T08:01:01Z</time>
      </trkpt>
      <trkpt lat="46.79016" lon="6.12035">
        <ele>871.57</ele>
        <time>2015-07-21T08:01:11Z</time>
      </trkpt>
      <trkpt lat="46.79002" lon="6.11909">
        <ele>872.05</ele>
        <time>2015-07-21T08:01:25Z</time>
      </trkpt>
      <trkpt lat="46.78991" lon="6.11858">
        <ele>873.01</ele>
        <time>2015-07-21T08:01:32Z</time>
      </trkpt>
      <trkpt lat="46.78978" lon="6.11825">
        <ele>873.98</ele>
        <time>2015-07-21T08:01:37Z</time>
      </trkpt>
      <trkpt lat="46.78941" lon="6.11763">
        <ele>874.46</ele>
        <time>2015-07-21T08:01:48Z</time>
      </trkpt>
      <trkpt lat="46.78897" lon="6.11692">
        <ele>875.42</ele>
        <time>2015-07-21T08:02:00Z</time>
      </trkpt>
      <trkpt lat="46.78865" lon="6.11625">
        <ele>876.86</ele>
        <time>2015-07-21T08:02:12Z</time>
      </trkpt>
      <trkpt lat="46.78834" lon="6.11545">
        <ele>877.34</ele>
        <time>2015-07-21T08:02:24Z</time>
      </trkpt>
      <trkpt lat="46.78794" lon="6.11455">
        <ele>877.34</ele>
        <time>2015-07-21T08:02:37Z</time>
      </trkpt>
      <trkpt lat="46.78739" lon="6.11367">
        <ele>876.38</ele>
        <time>2015-07-21T08:02:50Z</time>
      </trkpt>
      <trkpt lat="46.78725" lon="6.11346">
        <ele>876.38</ele>
        <time>2015-07-21T08:02:53Z</time>
      </trkpt>
      <trkpt lat="46.78703" lon="6.1131">
        <ele>876.38</ele>
        <time>2015-07-21T08:02:58Z</time>
      </trkpt>
      <trkpt lat="46.78632" lon="6.11197">
        <ele>874.94</ele>
        <time>2015-07-21T08:03:14Z</time>
      </trkpt>
      <trkpt lat="46.78605" lon="6.11145">
        <ele>873.98</ele>
        <time>2015-07-21T08:03:20Z</time>
      </trkpt>
      <trkpt lat="46.78608" lon="6.1105">
        <ele>873.01</ele>
        <time>2015-07-21T08:03:28Z</time>
      </trkpt>
      <trkpt lat="46.78623" lon="6.1101">
        <ele>872.53</ele>
        <time>2015-07-21T08:03:32Z</time>
      </trkpt>
      <trkpt lat="46.78651" lon="6.10962">
        <ele>869.17</ele>
        <time>2015-07-21T08:03:37Z</time>
      </trkpt>
      <trkpt lat="46.78679" lon="6.10914">
        <ele>866.77</ele>
        <time>2015-07-21T08:03:42Z</time>
      </trkpt>
      <trkpt lat="46.78688" lon="6.10867">
        <ele>866.29</ele>
        <time>2015-07-21T08:03:46Z</time>
      </trkpt>
      <trkpt lat="46.78685" lon="6.10828">
        <ele>864.36</ele>
        <time>2015-07-21T08:03:49Z</time>
      </trkpt>
      <trkpt lat="46.78684" lon="6.10816">
        <ele>864.36</ele>
        <time>2015-07-21T08:03:50Z</time>
      </trkpt>
      <trkpt lat="46.78696" lon="6.10684">
        <ele>862.92</ele>
        <time>2015-07-21T08:04:02Z</time>
      </trkpt>
      <trkpt lat="46.78716" lon="6.10563">
        <ele>863.4</ele>
        <time>2015-07-21T08:04:16Z</time>
      </trkpt>
      <trkpt lat="46.78723" lon="6.10519">
        <ele>863.88</ele>
        <time>2015-07-21T08:04:22Z</time>
      </trkpt>
      <trkpt lat="46.78723" lon="6.10505">
        <ele>864.36</ele>
        <time>2015-07-21T08:04:24Z</time>
      </trkpt>
      <trkpt lat="46.78706" lon="6.10444">
        <ele>864.36</ele>
        <time>2015-07-21T08:04:33Z</time>
      </trkpt>
      <trkpt lat="46.78663" lon="6.10376">
        <ele>864.84</ele>
        <time>2015-07-21T08:04:45Z</time>
      </trkpt>
      <trkpt lat="46.78651" lon="6.10356">
        <ele>865.32</ele>
        <time>2015-07-21T08:04:49Z</time>
      </trkpt>
      <trkpt lat="46.78623" lon="6.10312">
        <ele>867.25</ele>
        <time>2015-07-21T08:04:59Z</time>
      </trkpt>
      <trkpt lat="46.78588" lon="6.10256">
        <ele>869.17</ele>
        <time>2015-07-21T08:05:13Z</time>
      </trkpt>
      <trkpt lat="46.78552" lon="6.10211">
        <ele>871.09</ele>
        <time>2015-07-21T08:05:27Z</time>
      </trkpt>
      <trkpt lat="46.78511" lon="6.10167">
        <ele>873.5</ele>
        <time>2015-07-21T08:05:42Z</time>
      </trkpt>
      <trkpt lat="46.78479" lon="6.10121">
        <ele>874.94</ele>
        <time>2015-07-21T08:05:54Z</time>
      </trkpt>
      <trkpt lat="46.78461" lon="6.10059">
        <ele>876.38</ele>
        <time>2015-07-21T08:06:07Z</time>
      </trkpt>
      <trkpt lat="46.78456" lon="6.10043">
        <ele>876.38</ele>
        <time>2015-07-21T08:06:10Z</time>
      </trkpt>
      <trkpt lat="46.78441" lon="6.09936">
        <ele>876.86</ele>
        <time>2015-07-21T08:06:25Z</time>
      </trkpt>
      <trkpt lat="46.78431" lon="6.09866">
        <ele>876.86</ele>
        <time>2015-07-21T08:06:34Z</time>
      </trkpt>
      <trkpt lat="46.78416" lon="6.09789">
        <ele>876.86</ele>
        <time>2015-07-21T08:06:48Z</time>
      </trkpt>
      <trkpt lat="46.78409" lon="6.09732">
        <ele>876.38</ele>
        <time>2015-07-21T08:07:03Z</time>
      </trkpt>
      <trkpt lat="46.78407" lon="6.09717">
        <ele>875.9</ele>
        <time>2015-07-21T08:07:14Z</time>
      </trkpt>
      <trkpt lat="46.78407" lon="6.09717">
        <ele>875.9</ele>
        <time>2015-07-21T08:07:30Z</time>
      </trkpt>
      <trkpt lat="46.78404" lon="6.09699">
        <ele>876.38</ele>
        <time>2015-07-21T08:07:36Z</time>
      </trkpt>
      <trkpt lat="46.78387" lon="6.0961">
        <ele>875.42</ele>
        <time>2015-07-21T08:07:48Z</time>
      </trkpt>
      <trkpt lat="46.7838" lon="6.09573">
        <ele>875.42</ele>
        <time>2015-07-21T08:07:53Z</time>
      </trkpt>
      <trkpt lat="46.78376" lon="6.09546">
        <ele>874.94</ele>
        <time>2015-07-21T08:07:57Z</time>
      </trkpt>
      <trkpt lat="46.78366" lon="6.09493">
        <ele>875.42</ele>
        <time>2015-07-21T08:08:06Z</time>
      </trkpt>
      <trkpt lat="46.78358" lon="6.09453">
        <ele>875.42</ele>
        <time>2015-07-21T08:08:13Z</time>
      </trkpt>
      <trkpt lat="46.7834" lon="6.09355">
        <ele>874.46</ele>
        <time>2015-07-21T08:08:27Z</time>
      </trkpt>
      <trkpt lat="46.7832" lon="6.09232">
        <ele>871.57</ele>
        <time>2015-07-21T08:08:40Z</time>
      </trkpt>
      <trkpt lat="46.78321" lon="6.09189">
        <ele>870.13</ele>
        <time>2015-07-21T08:08:44Z</time>
      </trkpt>
      <trkpt lat="46.78356" lon="6.09066">
        <ele>866.77</ele>
        <time>2015-07-21T08:08:56Z</time>
      </trkpt>
      <trkpt lat="46.7837" lon="6.09038">
        <ele>865.32</ele>
        <time>2015-07-21T08:08:59Z</time>
      </trkpt>
      <trkpt lat="46.78445" lon="6.08925">
        <ele>863.4</ele>
        <time>2015-07-21T08:09:13Z</time>
      </trkpt>
      <trkpt lat="46.78496" lon="6.0885">
        <ele>860.04</ele>
        <time>2015-07-21T08:09:22Z</time>
      </trkpt>
      <trkpt lat="46.78506" lon="6.0883">
        <ele>858.11</ele>
        <time>2015-07-21T08:09:24Z</time>
      </trkpt>
      <trkpt lat="46.78515" lon="6.08811">
        <ele>857.63</ele>
        <time>2015-07-21T08:09:26Z</time>
      </trkpt>
      <trkpt lat="46.78525" lon="6.08772">
        <ele>856.67</ele>
        <time>2015-07-21T08:09:30Z</time>
      </trkpt>
      <trkpt lat="46.78525" lon="6.08739">
        <ele>856.67</ele>
        <time>2015-07-21T08:09:33Z</time>
      </trkpt>
      <trkpt lat="46.78536" lon="6.08681">
        <ele>855.23</ele>
        <time>2015-07-21T08:09:38Z</time>
      </trkpt>
      <trkpt lat="46.78575" lon="6.08543">
        <ele>851.87</ele>
        <time>2015-07-21T08:09:50Z</time>
      </trkpt>
      <trkpt lat="46.78615" lon="6.08487">
        <ele>849.46</ele>
        <time>2015-07-21T08:09:57Z</time>
      </trkpt>
      <trkpt lat="46.7868" lon="6.08459">
        <ele>846.58</ele>
        <time>2015-07-21T08:10:05Z</time>
      </trkpt>
      <trkpt lat="46.78722" lon="6.0846">
        <ele>845.62</ele>
        <time>2015-07-21T08:10:10Z</time>
      </trkpt>
      <trkpt lat="46.78748" lon="6.08456">
        <ele>842.73</ele>
        <time>2015-07-21T08:10:13Z</time>
      </trkpt>
      <trkpt lat="46.78756" lon="6.08453">
        <ele>842.73</ele>
        <time>2015-07-21T08:10:14Z</time>
      </trkpt>
      <trkpt lat="46.78798" lon="6.0838">
        <ele>839.85</ele>
        <time>2015-07-21T08:10:22Z</time>
      </trkpt>
      <trkpt lat="46.7878" lon="6.08322">
        <ele>838.41</ele>
        <time>2015-07-21T08:10:27Z</time>
      </trkpt>
      <trkpt lat="46.7877" lon="6.08303">
        <ele>837.93</ele>
        <time>2015-07-21T08:10:29Z</time>
      </trkpt>
      <trkpt lat="46.7876" lon="6.08238">
        <ele>836.96</ele>
        <time>2015-07-21T08:10:35Z</time>
      </trkpt>
      <trkpt lat="46.78766" lon="6.0819">
        <ele>836</ele>
        <time>2015-07-21T08:10:39Z</time>
      </trkpt>
      <trkpt lat="46.78757" lon="6.08063">
        <ele>832.64</ele>
        <time>2015-07-21T08:10:49Z</time>
      </trkpt>
      <trkpt lat="46.78752" lon="6.07999">
        <ele>831.2</ele>
        <time>2015-07-21T08:10:54Z</time>
      </trkpt>
      <trkpt lat="46.78751" lon="6.0789">
        <ele>828.31</ele>
        <time>2015-07-21T08:11:03Z</time>
      </trkpt>
      <trkpt lat="46.78759" lon="6.0778">
        <ele>825.91</ele>
        <time>2015-07-21T08:11:12Z</time>
      </trkpt>
      <trkpt lat="46.7877" lon="6.07665">
        <ele>822.55</ele>
        <time>2015-07-21T08:11:22Z</time>
      </trkpt>
      <trkpt lat="46.78778" lon="6.07561">
        <ele>819.18</ele>
        <time>2015-07-21T08:11:31Z</time>
      </trkpt>
      <trkpt lat="46.78773" lon="6.07426">
        <ele>815.82</ele>
        <time>2015-07-21T08:11:42Z</time>
      </trkpt>
      <trkpt lat="46.78781" lon="6.07299">
        <ele>812.93</ele>
        <time>2015-07-21T08:11:52Z</time>
      </trkpt>
      <trkpt lat="46.78792" lon="6.07169">
        <ele>809.57</ele>
        <time>2015-07-21T08:12:02Z</time>
      </trkpt>
      <trkpt lat="46.78801" lon="6.07055">
        <ele>806.68</ele>
        <time>2015-07-21T08:12:11Z</time>
      </trkpt>
      <trkpt lat="46.7881" lon="6.06912">
        <ele>803.32</ele>
        <time>2015-07-21T08:12:22Z</time>
      </trkpt>
      <trkpt lat="46.78811" lon="6.06887">
        <ele>802.84</ele>
        <time>2015-07-21T08:12:24Z</time>
      </trkpt>
      <trkpt lat="46.78793" lon="6.06815">
        <ele>801.4</ele>
        <time>2015-07-21T08:12:30Z</time>
      </trkpt>
      <trkpt lat="46.78768" lon="6.06765">
        <ele>800.44</ele>
        <time>2015-07-21T08:12:35Z</time>
      </trkpt>
      <trkpt lat="46.78721" lon="6.06699">
        <ele>798.51</ele>
        <time>2015-07-21T08:12:44Z</time>
      </trkpt>
      <trkpt lat="46.78709" lon="6.06677">
        <ele>798.51</ele>
        <time>2015-07-21T08:12:47Z</time>
      </trkpt>
      <trkpt lat="46.78684" lon="6.06615">
        <ele>795.15</ele>
        <time>2015-07-21T08:12:54Z</time>
      </trkpt>
      <trkpt lat="46.78651" lon="6.06542">
        <ele>792.26</ele>
        <time>2015-07-21T08:13:01Z</time>
      </trkpt>
      <trkpt lat="46.78614" lon="6.06479">
        <ele>789.38</ele>
        <time>2015-07-21T08:13:07Z</time>
      </trkpt>
      <trkpt lat="46.78576" lon="6.0642">
        <ele>786.02</ele>
        <time>2015-07-21T08:13:13Z</time>
      </trkpt>
      <trkpt lat="46.78529" lon="6.0635">
        <ele>783.13</ele>
        <time>2015-07-21T08:13:20Z</time>
      </trkpt>
      <trkpt lat="46.78489" lon="6.06292">
        <ele>779.77</ele>
        <time>2015-07-21T08:13:26Z</time>
      </trkpt>
      <trkpt lat="46.78483" lon="6.06282">
        <ele>779.77</ele>
        <time>2015-07-21T08:13:27Z</time>
      </trkpt>
      <trkpt lat="46.78465" lon="6.06245">
        <ele>778.32</ele>
        <time>2015-07-21T08:13:30Z</time>
      </trkpt>
      <trkpt lat="46.78447" lon="6.06206">
        <ele>775.92</ele>
        <time>2015-07-21T08:13:33Z</time>
      </trkpt>
      <trkpt lat="46.78405" lon="6.06128">
        <ele>773.04</ele>
        <time>2015-07-21T08:13:40Z</time>
      </trkpt>
      <trkpt lat="46.78313" lon="6.06012">
        <ele>770.63</ele>
        <time>2015-07-21T08:13:54Z</time>
      </trkpt>
      <trkpt lat="46.78288" lon="6.05975">
        <ele>768.71</ele>
        <time>2015-07-21T08:13:58Z</time>
      </trkpt>
      <trkpt lat="46.78255" lon="6.05915">
        <ele>766.79</ele>
        <time>2015-07-21T08:14:04Z</time>
      </trkpt>
      <trkpt lat="46.78187" lon="6.05857">
        <ele>764.87</ele>
        <time>2015-07-21T08:14:13Z</time>
      </trkpt>
      <trkpt lat="46.78161" lon="6.05824">
        <ele>764.87</ele>
        <time>2015-07-21T08:14:17Z</time>
      </trkpt>
      <trkpt lat="46.78137" lon="6.05725">
        <ele>765.35</ele>
        <time>2015-07-21T08:14:28Z</time>
      </trkpt>
      <trkpt lat="46.78112" lon="6.05624">
        <ele>766.31</ele>
        <time>2015-07-21T08:14:43Z</time>
      </trkpt>
      <trkpt lat="46.78094" lon="6.05554">
        <ele>766.79</ele>
        <time>2015-07-21T08:14:54Z</time>
      </trkpt>
      <trkpt lat="46.78078" lon="6.05487">
        <ele>767.27</ele>
        <time>2015-07-21T08:15:04Z</time>
      </trkpt>
      <trkpt lat="46.78068" lon="6.05441">
        <ele>767.75</ele>
        <time>2015-07-21T08:15:11Z</time>
      </trkpt>
      <trkpt lat="46.78062" lon="6.05348">
        <ele>768.23</ele>
        <time>2015-07-21T08:15:25Z</time>
      </trkpt>
      <trkpt lat="46.78064" lon="6.05288">
        <ele>768.71</ele>
        <time>2015-07-21T08:15:34Z</time>
      </trkpt>
      <trkpt lat="46.7805" lon="6.05204">
        <ele>770.63</ele>
        <time>2015-07-21T08:15:49Z</time>
      </trkpt>
      <trkpt lat="46.78026" lon="6.05143">
        <ele>773.04</ele>
        <time>2015-07-21T08:16:04Z</time>
      </trkpt>
      <trkpt lat="46.78007" lon="6.05067">
        <ele>775.44</ele>
        <time>2015-07-21T08:16:20Z</time>
      </trkpt>
      <trkpt lat="46.78006" lon="6.04999">
        <ele>777.36</ele>
        <time>2015-07-21T08:16:34Z</time>
      </trkpt>
      <trkpt lat="46.78006" lon="6.04916">
        <ele>779.29</ele>
        <time>2015-07-21T08:16:50Z</time>
      </trkpt>
      <trkpt lat="46.77998" lon="6.04849">
        <ele>782.17</ele>
        <time>2015-07-21T08:17:04Z</time>
      </trkpt>
      <trkpt lat="46.77975" lon="6.04799">
        <ele>784.09</ele>
        <time>2015-07-21T08:17:18Z</time>
      </trkpt>
      <trkpt lat="46.77948" lon="6.04747">
        <ele>785.05</ele>
        <time>2015-07-21T08:17:31Z</time>
      </trkpt>
      <trkpt lat="46.77914" lon="6.0469">
        <ele>785.05</ele>
        <time>2015-07-21T08:17:43Z</time>
      </trkpt>
      <trkpt lat="46.77894" lon="6.04653">
        <ele>784.57</ele>
        <time>2015-07-21T08:17:51Z</time>
      </trkpt>
      <trkpt lat="46.77888" lon="6.04643">
        <ele>784.57</ele>
        <time>2015-07-21T08:17:53Z</time>
      </trkpt>
      <trkpt lat="46.77868" lon="6.04609">
        <ele>784.09</ele>
        <time>2015-07-21T08:18:00Z</time>
      </trkpt>
      <trkpt lat="46.77864" lon="6.04596">
        <ele>784.09</ele>
        <time>2015-07-21T08:18:02Z</time>
      </trkpt>
      <trkpt lat="46.77837" lon="6.0449">
        <ele>784.09</ele>
        <time>2015-07-21T08:18:17Z</time>
      </trkpt>
      <trkpt lat="46.77813" lon="6.04412">
        <ele>783.61</ele>
        <time>2015-07-21T08:18:28Z</time>
      </trkpt>
      <trkpt lat="46.778" lon="6.04362">
        <ele>783.61</ele>
        <time>2015-07-21T08:18:35Z</time>
      </trkpt>
      <trkpt lat="46.77778" lon="6.04322">
        <ele>784.09</ele>
        <time>2015-07-21T08:18:42Z</time>
      </trkpt>
      <trkpt lat="46.77765" lon="6.04301">
        <ele>784.57</ele>
        <time>2015-07-21T08:18:46Z</time>
      </trkpt>
      <trkpt lat="46.77758" lon="6.04283">
        <ele>785.05</ele>
        <time>2015-07-21T08:18:49Z</time>
      </trkpt>
      <trkpt lat="46.77733" lon="6.04236">
        <ele>786.02</ele>
        <time>2015-07-21T08:18:57Z</time>
      </trkpt>
      <trkpt lat="46.77714" lon="6.04202">
        <ele>786.98</ele>
        <time>2015-07-21T08:19:03Z</time>
      </trkpt>
      <trkpt lat="46.77694" lon="6.04161">
        <ele>788.9</ele>
        <time>2015-07-21T08:19:13Z</time>
      </trkpt>
      <trkpt lat="46.77679" lon="6.04127">
        <ele>790.82</ele>
        <time>2015-07-21T08:19:23Z</time>
      </trkpt>
      <trkpt lat="46.77662" lon="6.0408">
        <ele>792.74</ele>
        <time>2015-07-21T08:19:35Z</time>
      </trkpt>
      <trkpt lat="46.77634" lon="6.04041">
        <ele>795.63</ele>
        <time>2015-07-21T08:19:50Z</time>
      </trkpt>
      <trkpt lat="46.77619" lon="6.04011">
        <ele>797.55</ele>
        <time>2015-07-21T08:20:00Z</time>
      </trkpt>
      <trkpt lat="46.77608" lon="6.03999">
        <ele>798.99</ele>
        <time>2015-07-21T08:20:05Z</time>
      </trkpt>
      <trkpt lat="46.77583" lon="6.03945">
        <ele>800.44</ele>
        <time>2015-07-21T08:20:20Z</time>
      </trkpt>
      <trkpt lat="46.77563" lon="6.03899">
        <ele>801.88</ele>
        <time>2015-07-21T08:20:32Z</time>
      </trkpt>
      <trkpt lat="46.77543" lon="6.03862">
        <ele>802.84</ele>
        <time>2015-07-21T08:20:44Z</time>
      </trkpt>
      <trkpt lat="46.77533" lon="6.03837">
        <ele>804.28</ele>
        <time>2015-07-21T08:20:56Z</time>
      </trkpt>
      <trkpt lat="46.77521" lon="6.03794">
        <ele>804.76</ele>
        <time>2015-07-21T08:21:09Z</time>
      </trkpt>
      <trkpt lat="46.77507" lon="6.03754">
        <ele>805.72</ele>
        <time>2015-07-21T08:21:22Z</time>
      </trkpt>
      <trkpt lat="46.77489" lon="6.03728">
        <ele>805.72</ele>
        <time>2015-07-21T08:21:32Z</time>
      </trkpt>
      <trkpt lat="46.77488" lon="6.03722">
        <ele>806.68</ele>
        <time>2015-07-21T08:21:47Z</time>
      </trkpt>
      <trkpt lat="46.77487" lon="6.03719">
        <ele>806.2</ele>
        <time>2015-07-21T08:21:51Z</time>
      </trkpt>
      <trkpt lat="46.7755" lon="6.03837">
        <ele>802.84</ele>
        <time>2015-07-21T08:39:45Z</time>
      </trkpt>
      <trkpt lat="46.77553" lon="6.03838">
        <ele>802.36</ele>
        <time>2015-07-21T08:39:47Z</time>
      </trkpt>
      <trkpt lat="46.77586" lon="6.03909">
        <ele>800.92</ele>
        <time>2015-07-21T08:40:00Z</time>
      </trkpt>
      <trkpt lat="46.77588" lon="6.03915">
        <ele>800.92</ele>
        <time>2015-07-21T08:40:01Z</time>
      </trkpt>
      <trkpt lat="46.77628" lon="6.04014">
        <ele>797.07</ele>
        <time>2015-07-21T08:40:14Z</time>
      </trkpt>
      <trkpt lat="46.7764" lon="6.04027">
        <ele>796.11</ele>
        <time>2015-07-21T08:40:16Z</time>
      </trkpt>
      <trkpt lat="46.77658" lon="6.0405">
        <ele>797.07</ele>
        <time>2015-07-21T08:40:19Z</time>
      </trkpt>
      <trkpt lat="46.7768" lon="6.04108">
        <ele>793.71</ele>
        <time>2015-07-21T08:40:24Z</time>
      </trkpt>
      <trkpt lat="46.77693" lon="6.04144">
        <ele>790.34</ele>
        <time>2015-07-21T08:40:27Z</time>
      </trkpt>
      <trkpt lat="46.77723" lon="6.042">
        <ele>786.98</ele>
        <time>2015-07-21T08:40:32Z</time>
      </trkpt>
      <trkpt lat="46.77796" lon="6.0434">
        <ele>783.61</ele>
        <time>2015-07-21T08:40:45Z</time>
      </trkpt>
      <trkpt lat="46.77828" lon="6.04445">
        <ele>783.13</ele>
        <time>2015-07-21T08:40:56Z</time>
      </trkpt>
      <trkpt lat="46.77852" lon="6.04538">
        <ele>783.13</ele>
        <time>2015-07-21T08:41:07Z</time>
      </trkpt>
      <trkpt lat="46.7787" lon="6.04601">
        <ele>783.61</ele>
        <time>2015-07-21T08:41:15Z</time>
      </trkpt>
      <trkpt lat="46.77879" lon="6.04622">
        <ele>783.61</ele>
        <time>2015-07-21T08:41:18Z</time>
      </trkpt>
      <trkpt lat="46.77866" lon="6.04659">
        <ele>782.65</ele>
        <time>2015-07-21T08:41:25Z</time>
      </trkpt>
      <trkpt lat="46.77831" lon="6.04643">
        <ele>781.21</ele>
        <time>2015-07-21T08:41:30Z</time>
      </trkpt>
      <trkpt lat="46.77787" lon="6.04573">
        <ele>778.81</ele>
        <time>2015-07-21T08:41:38Z</time>
      </trkpt>
      <trkpt lat="46.77757" lon="6.04508">
        <ele>775.44</ele>
        <time>2015-07-21T08:41:44Z</time>
      </trkpt>
      <trkpt lat="46.77724" lon="6.04441">
        <ele>773.04</ele>
        <time>2015-07-21T08:41:50Z</time>
      </trkpt>
      <trkpt lat="46.77689" lon="6.04374">
        <ele>770.63</ele>
        <time>2015-07-21T08:41:56Z</time>
      </trkpt>
      <trkpt lat="46.77662" lon="6.04338">
        <ele>768.71</ele>
        <time>2015-07-21T08:42:00Z</time>
      </trkpt>
      <trkpt lat="46.77631" lon="6.04305">
        <ele>766.79</ele>
        <time>2015-07-21T08:42:04Z</time>
      </trkpt>
      <trkpt lat="46.77589" lon="6.04269">
        <ele>763.42</ele>
        <time>2015-07-21T08:42:09Z</time>
      </trkpt>
      <trkpt lat="46.7758" lon="6.04262">
        <ele>763.42</ele>
        <time>2015-07-21T08:42:10Z</time>
      </trkpt>
      <trkpt lat="46.7752" lon="6.04222">
        <ele>761.5</ele>
        <time>2015-07-21T08:42:17Z</time>
      </trkpt>
      <trkpt lat="46.7746" lon="6.04211">
        <ele>757.66</ele>
        <time>2015-07-21T08:42:23Z</time>
      </trkpt>
      <trkpt lat="46.77417" lon="6.04225">
        <ele>755.25</ele>
        <time>2015-07-21T08:42:27Z</time>
      </trkpt>
      <trkpt lat="46.77315" lon="6.04288">
        <ele>753.81</ele>
        <time>2015-07-21T08:42:39Z</time>
      </trkpt>
      <trkpt lat="46.77284" lon="6.04316">
        <ele>753.33</ele>
        <time>2015-07-21T08:42:44Z</time>
      </trkpt>
      <trkpt lat="46.7727" lon="6.04324">
        <ele>753.33</ele>
        <time>2015-07-21T08:42:46Z</time>
      </trkpt>
      <trkpt lat="46.77246" lon="6.04328">
        <ele>753.81</ele>
        <time>2015-07-21T08:42:50Z</time>
      </trkpt>
      <trkpt lat="46.7721" lon="6.04311">
        <ele>756.69</ele>
        <time>2015-07-21T08:43:01Z</time>
      </trkpt>
      <trkpt lat="46.77184" lon="6.04278">
        <ele>758.62</ele>
        <time>2015-07-21T08:43:15Z</time>
      </trkpt>
      <trkpt lat="46.77155" lon="6.04243">
        <ele>761.5</ele>
        <time>2015-07-21T08:43:30Z</time>
      </trkpt>
      <trkpt lat="46.77128" lon="6.04249">
        <ele>763.42</ele>
        <time>2015-07-21T08:43:41Z</time>
      </trkpt>
      <trkpt lat="46.77115" lon="6.04291">
        <ele>764.87</ele>
        <time>2015-07-21T08:43:53Z</time>
      </trkpt>
      <trkpt lat="46.77102" lon="6.04348">
        <ele>767.75</ele>
        <time>2015-07-21T08:44:09Z</time>
      </trkpt>
      <trkpt lat="46.77085" lon="6.04396">
        <ele>770.15</ele>
        <time>2015-07-21T08:44:24Z</time>
      </trkpt>
      <trkpt lat="46.77061" lon="6.04421">
        <ele>771.6</ele>
        <time>2015-07-21T08:44:36Z</time>
      </trkpt>
      <trkpt lat="46.77024" lon="6.04445">
        <ele>773.04</ele>
        <time>2015-07-21T08:44:50Z</time>
      </trkpt>
      <trkpt lat="46.76992" lon="6.04468">
        <ele>774</ele>
        <time>2015-07-21T08:45:02Z</time>
      </trkpt>
      <trkpt lat="46.7698" lon="6.04506">
        <ele>774</ele>
        <time>2015-07-21T08:45:12Z</time>
      </trkpt>
      <trkpt lat="46.76997" lon="6.04547">
        <ele>774.96</ele>
        <time>2015-07-21T08:45:23Z</time>
      </trkpt>
      <trkpt lat="46.77005" lon="6.0457">
        <ele>774.96</ele>
        <time>2015-07-21T08:45:27Z</time>
      </trkpt>
      <trkpt lat="46.77006" lon="6.04583">
        <ele>774.96</ele>
        <time>2015-07-21T08:45:29Z</time>
      </trkpt>
      <trkpt lat="46.77004" lon="6.04608">
        <ele>774.48</ele>
        <time>2015-07-21T08:45:33Z</time>
      </trkpt>
      <trkpt lat="46.76987" lon="6.04642">
        <ele>775.44</ele>
        <time>2015-07-21T08:45:39Z</time>
      </trkpt>
      <trkpt lat="46.76958" lon="6.04701">
        <ele>776.88</ele>
        <time>2015-07-21T08:45:53Z</time>
      </trkpt>
      <trkpt lat="46.76941" lon="6.04729">
        <ele>776.4</ele>
        <time>2015-07-21T08:45:59Z</time>
      </trkpt>
      <trkpt lat="46.76891" lon="6.04805">
        <ele>773.04</ele>
        <time>2015-07-21T08:46:10Z</time>
      </trkpt>
      <trkpt lat="46.76878" lon="6.04822">
        <ele>772.08</ele>
        <time>2015-07-21T08:46:12Z</time>
      </trkpt>
      <trkpt lat="46.76821" lon="6.04916">
        <ele>772.08</ele>
        <time>2015-07-21T08:46:24Z</time>
      </trkpt>
      <trkpt lat="46.76791" lon="6.04969">
        <ele>772.56</ele>
        <time>2015-07-21T08:46:32Z</time>
      </trkpt>
      <trkpt lat="46.7676" lon="6.05008">
        <ele>773.52</ele>
        <time>2015-07-21T08:46:39Z</time>
      </trkpt>
      <trkpt lat="46.76751" lon="6.05015">
        <ele>774</ele>
        <time>2015-07-21T08:46:41Z</time>
      </trkpt>
      <trkpt lat="46.76712" lon="6.05036">
        <ele>775.44</ele>
        <time>2015-07-21T08:46:50Z</time>
      </trkpt>
      <trkpt lat="46.76679" lon="6.05069">
        <ele>777.84</ele>
        <time>2015-07-21T08:47:02Z</time>
      </trkpt>
      <trkpt lat="46.76667" lon="6.05117">
        <ele>780.73</ele>
        <time>2015-07-21T08:47:17Z</time>
      </trkpt>
      <trkpt lat="46.76656" lon="6.05157">
        <ele>784.09</ele>
        <time>2015-07-21T08:47:30Z</time>
      </trkpt>
      <trkpt lat="46.76633" lon="6.05199">
        <ele>786.98</ele>
        <time>2015-07-21T08:47:45Z</time>
      </trkpt>
      <trkpt lat="46.7661" lon="6.05235">
        <ele>789.38</ele>
        <time>2015-07-21T08:47:59Z</time>
      </trkpt>
      <trkpt lat="46.76605" lon="6.05263">
        <ele>789.86</ele>
        <time>2015-07-21T08:48:07Z</time>
      </trkpt>
      <trkpt lat="46.76631" lon="6.05296">
        <ele>789.86</ele>
        <time>2015-07-21T08:48:16Z</time>
      </trkpt>
      <trkpt lat="46.76642" lon="6.05311">
        <ele>789.86</ele>
        <time>2015-07-21T08:48:20Z</time>
      </trkpt>
      <trkpt lat="46.76675" lon="6.05354">
        <ele>791.3</ele>
        <time>2015-07-21T08:48:32Z</time>
      </trkpt>
      <trkpt lat="46.76706" lon="6.05393">
        <ele>793.22</ele>
        <time>2015-07-21T08:48:45Z</time>
      </trkpt>
      <trkpt lat="46.76725" lon="6.05434">
        <ele>794.67</ele>
        <time>2015-07-21T08:48:56Z</time>
      </trkpt>
      <trkpt lat="46.76738" lon="6.05499">
        <ele>795.63</ele>
        <time>2015-07-21T08:49:09Z</time>
      </trkpt>
      <trkpt lat="46.76752" lon="6.05583">
        <ele>796.59</ele>
        <time>2015-07-21T08:49:24Z</time>
      </trkpt>
      <trkpt lat="46.76766" lon="6.05652">
        <ele>798.99</ele>
        <time>2015-07-21T08:49:39Z</time>
      </trkpt>
      <trkpt lat="46.76788" lon="6.05699">
        <ele>799.95</ele>
        <time>2015-07-21T08:49:51Z</time>
      </trkpt>
      <trkpt lat="46.76804" lon="6.0572">
        <ele>799.95</ele>
        <time>2015-07-21T08:49:56Z</time>
      </trkpt>
      <trkpt lat="46.76825" lon="6.05734">
        <ele>798.99</ele>
        <time>2015-07-21T08:50:01Z</time>
      </trkpt>
      <trkpt lat="46.76888" lon="6.05767">
        <ele>797.07</ele>
        <time>2015-07-21T08:50:12Z</time>
      </trkpt>
      <trkpt lat="46.76917" lon="6.05826">
        <ele>796.59</ele>
        <time>2015-07-21T08:50:19Z</time>
      </trkpt>
      <trkpt lat="46.7692" lon="6.05896">
        <ele>797.07</ele>
        <time>2015-07-21T08:50:27Z</time>
      </trkpt>
      <trkpt lat="46.7692" lon="6.05911">
        <ele>797.07</ele>
        <time>2015-07-21T08:50:29Z</time>
      </trkpt>
      <trkpt lat="46.7692" lon="6.05933">
        <ele>797.55</ele>
        <time>2015-07-21T08:50:32Z</time>
      </trkpt>
      <trkpt lat="46.76924" lon="6.05992">
        <ele>798.51</ele>
        <time>2015-07-21T08:50:41Z</time>
      </trkpt>
      <trkpt lat="46.76923" lon="6.06074">
        <ele>800.44</ele>
        <time>2015-07-21T08:50:55Z</time>
      </trkpt>
      <trkpt lat="46.76909" lon="6.06126">
        <ele>801.88</ele>
        <time>2015-07-21T08:51:05Z</time>
      </trkpt>
      <trkpt lat="46.76901" lon="6.06148">
        <ele>802.36</ele>
        <time>2015-07-21T08:51:09Z</time>
      </trkpt>
      <trkpt lat="46.76891" lon="6.06174">
        <ele>802.84</ele>
        <time>2015-07-21T08:51:14Z</time>
      </trkpt>
      <trkpt lat="46.76868" lon="6.06228">
        <ele>803.8</ele>
        <time>2015-07-21T08:51:25Z</time>
      </trkpt>
      <trkpt lat="46.76847" lon="6.06283">
        <ele>805.72</ele>
        <time>2015-07-21T08:51:37Z</time>
      </trkpt>
      <trkpt lat="46.76823" lon="6.06341">
        <ele>806.68</ele>
        <time>2015-07-21T08:51:50Z</time>
      </trkpt>
      <trkpt lat="46.76804" lon="6.06389">
        <ele>808.13</ele>
        <time>2015-07-21T08:52:01Z</time>
      </trkpt>
      <trkpt lat="46.76787" lon="6.06447">
        <ele>809.09</ele>
        <time>2015-07-21T08:52:14Z</time>
      </trkpt>
      <trkpt lat="46.76783" lon="6.06459">
        <ele>809.09</ele>
        <time>2015-07-21T08:52:16Z</time>
      </trkpt>
      <trkpt lat="46.76754" lon="6.06538">
        <ele>809.57</ele>
        <time>2015-07-21T08:52:30Z</time>
      </trkpt>
      <trkpt lat="46.76723" lon="6.06598">
        <ele>811.49</ele>
        <time>2015-07-21T08:52:44Z</time>
      </trkpt>
      <trkpt lat="46.76701" lon="6.06646">
        <ele>813.41</ele>
        <time>2015-07-21T08:52:57Z</time>
      </trkpt>
      <trkpt lat="46.76675" lon="6.06693">
        <ele>815.82</ele>
        <time>2015-07-21T08:53:10Z</time>
      </trkpt>
      <trkpt lat="46.76645" lon="6.06747">
        <ele>818.22</ele>
        <time>2015-07-21T08:53:26Z</time>
      </trkpt>
      <trkpt lat="46.76617" lon="6.06809">
        <ele>819.66</ele>
        <time>2015-07-21T08:53:41Z</time>
      </trkpt>
      <trkpt lat="46.76591" lon="6.06881">
        <ele>821.1</ele>
        <time>2015-07-21T08:53:56Z</time>
      </trkpt>
      <trkpt lat="46.76565" lon="6.06933">
        <ele>823.99</ele>
        <time>2015-07-21T08:54:11Z</time>
      </trkpt>
      <trkpt lat="46.76538" lon="6.06982">
        <ele>826.87</ele>
        <time>2015-07-21T08:54:27Z</time>
      </trkpt>
      <trkpt lat="46.76516" lon="6.07019">
        <ele>828.31</ele>
        <time>2015-07-21T08:54:40Z</time>
      </trkpt>
      <trkpt lat="46.76493" lon="6.07062">
        <ele>830.24</ele>
        <time>2015-07-21T08:54:54Z</time>
      </trkpt>
      <trkpt lat="46.76464" lon="6.07115">
        <ele>832.64</ele>
        <time>2015-07-21T08:55:11Z</time>
      </trkpt>
      <trkpt lat="46.76441" lon="6.07155">
        <ele>834.56</ele>
        <time>2015-07-21T08:55:25Z</time>
      </trkpt>
      <trkpt lat="46.76425" lon="6.07191">
        <ele>836.96</ele>
        <time>2015-07-21T08:55:37Z</time>
      </trkpt>
      <trkpt lat="46.76406" lon="6.07242">
        <ele>839.85</ele>
        <time>2015-07-21T08:55:52Z</time>
      </trkpt>
      <trkpt lat="46.76391" lon="6.07285">
        <ele>842.25</ele>
        <time>2015-07-21T08:56:04Z</time>
      </trkpt>
      <trkpt lat="46.76375" lon="6.07323">
        <ele>844.18</ele>
        <time>2015-07-21T08:56:16Z</time>
      </trkpt>
      <trkpt lat="46.76354" lon="6.07373">
        <ele>846.58</ele>
        <time>2015-07-21T08:56:31Z</time>
      </trkpt>
      <trkpt lat="46.76333" lon="6.07412">
        <ele>848.5</ele>
        <time>2015-07-21T08:56:44Z</time>
      </trkpt>
      <trkpt lat="46.76305" lon="6.07458">
        <ele>850.42</ele>
        <time>2015-07-21T08:56:58Z</time>
      </trkpt>
      <trkpt lat="46.76274" lon="6.075">
        <ele>852.83</ele>
        <time>2015-07-21T08:57:14Z</time>
      </trkpt>
      <trkpt lat="46.76243" lon="6.07538">
        <ele>854.75</ele>
        <time>2015-07-21T08:57:29Z</time>
      </trkpt>
      <trkpt lat="46.76207" lon="6.07582">
        <ele>855.71</ele>
        <time>2015-07-21T08:57:42Z</time>
      </trkpt>
      <trkpt lat="46.76176" lon="6.07622">
        <ele>856.67</ele>
        <time>2015-07-21T08:57:54Z</time>
      </trkpt>
      <trkpt lat="46.76141" lon="6.07668">
        <ele>859.08</ele>
        <time>2015-07-21T08:58:08Z</time>
      </trkpt>
      <trkpt lat="46.7611" lon="6.07712">
        <ele>860.52</ele>
        <time>2015-07-21T08:58:21Z</time>
      </trkpt>
      <trkpt lat="46.76086" lon="6.07752">
        <ele>861.48</ele>
        <time>2015-07-21T08:58:32Z</time>
      </trkpt>
      <trkpt lat="46.76065" lon="6.07793">
        <ele>862.44</ele>
        <time>2015-07-21T08:58:42Z</time>
      </trkpt>
      <trkpt lat="46.76041" lon="6.07844">
        <ele>863.88</ele>
        <time>2015-07-21T08:58:54Z</time>
      </trkpt>
      <trkpt lat="46.76018" lon="6.07896">
        <ele>865.8</ele>
        <time>2015-07-21T08:59:07Z</time>
      </trkpt>
      <trkpt lat="46.75989" lon="6.07956">
        <ele>868.21</ele>
        <time>2015-07-21T08:59:23Z</time>
      </trkpt>
      <trkpt lat="46.75966" lon="6.0801">
        <ele>869.17</ele>
        <time>2015-07-21T08:59:36Z</time>
      </trkpt>
      <trkpt lat="46.75949" lon="6.08067">
        <ele>870.61</ele>
        <time>2015-07-21T08:59:49Z</time>
      </trkpt>
      <trkpt lat="46.75941" lon="6.08131">
        <ele>871.57</ele>
        <time>2015-07-21T09:00:01Z</time>
      </trkpt>
      <trkpt lat="46.75935" lon="6.08154">
        <ele>872.05</ele>
        <time>2015-07-21T09:00:05Z</time>
      </trkpt>
      <trkpt lat="46.75906" lon="6.08219">
        <ele>874.46</ele>
        <time>2015-07-21T09:00:20Z</time>
      </trkpt>
      <trkpt lat="46.75898" lon="6.08231">
        <ele>874.46</ele>
        <time>2015-07-21T09:00:24Z</time>
      </trkpt>
      <trkpt lat="46.75882" lon="6.08231">
        <ele>874.94</ele>
        <time>2015-07-21T09:00:29Z</time>
      </trkpt>
      <trkpt lat="46.75877" lon="6.08242">
        <ele>874.94</ele>
        <time>2015-07-21T09:00:40Z</time>
      </trkpt>
      <trkpt lat="46.75877" lon="6.08243">
        <ele>875.9</ele>
        <time>2015-07-21T09:00:56Z</time>
      </trkpt>
      <trkpt lat="46.75876" lon="6.08242">
        <ele>875.9</ele>
        <time>2015-07-21T09:01:04Z</time>
      </trkpt>
      <trkpt lat="46.75876" lon="6.08241">
        <ele>875.42</ele>
        <time>2015-07-21T09:02:12Z</time>
      </trkpt>
      <trkpt lat="46.75878" lon="6.08242">
        <ele>875.42</ele>
        <time>2015-07-21T09:02:13Z</time>
      </trkpt>
      <trkpt lat="46.75875" lon="6.08239">
        <ele>875.42</ele>
        <time>2015-07-21T09:02:31Z</time>
      </trkpt>
      <trkpt lat="46.75876" lon="6.08241">
        <ele>875.42</ele>
        <time>2015-07-21T09:02:53Z</time>
      </trkpt>
      <trkpt lat="46.75882" lon="6.08249">
        <ele>875.42</ele>
        <time>2015-07-21T09:02:59Z</time>
      </trkpt>
      <trkpt lat="46.75873" lon="6.08275">
        <ele>875.9</ele>
        <time>2015-07-21T09:03:12Z</time>
      </trkpt>
      <trkpt lat="46.75872" lon="6.08277">
        <ele>875.9</ele>
        <time>2015-07-21T09:03:13Z</time>
      </trkpt>
      <trkpt lat="46.75873" lon="6.0828">
        <ele>875.9</ele>
        <time>2015-07-21T09:03:18Z</time>
      </trkpt>
      <trkpt lat="46.75879" lon="6.0827">
        <ele>875.42</ele>
        <time>2015-07-21T09:03:24Z</time>
      </trkpt>
      <trkpt lat="46.75882" lon="6.08264">
        <ele>875.9</ele>
        <time>2015-07-21T09:03:27Z</time>
      </trkpt>
      <trkpt lat="46.7588" lon="6.08268">
        <ele>875.9</ele>
        <time>2015-07-21T09:03:33Z</time>
      </trkpt>
      <trkpt lat="46.75878" lon="6.08271">
        <ele>875.42</ele>
        <time>2015-07-21T09:03:36Z</time>
      </trkpt>
      <trkpt lat="46.75867" lon="6.08291">
        <ele>875.9</ele>
        <time>2015-07-21T09:03:46Z</time>
      </trkpt>
      <trkpt lat="46.75864" lon="6.08297">
        <ele>875.9</ele>
        <time>2015-07-21T09:03:48Z</time>
      </trkpt>
      <trkpt lat="46.75839" lon="6.08334">
        <ele>875.42</ele>
        <time>2015-07-21T09:03:58Z</time>
      </trkpt>
      <trkpt lat="46.75801" lon="6.08396">
        <ele>874.94</ele>
        <time>2015-07-21T09:04:09Z</time>
      </trkpt>
      <trkpt lat="46.75753" lon="6.08476">
        <ele>873.5</ele>
        <time>2015-07-21T09:04:20Z</time>
      </trkpt>
      <trkpt lat="46.7569" lon="6.08574">
        <ele>870.13</ele>
        <time>2015-07-21T09:04:32Z</time>
      </trkpt>
      <trkpt lat="46.75654" lon="6.08625">
        <ele>867.73</ele>
        <time>2015-07-21T09:04:37Z</time>
      </trkpt>
      <trkpt lat="46.75631" lon="6.0866">
        <ele>864.84</ele>
        <time>2015-07-21T09:04:40Z</time>
      </trkpt>
      <trkpt lat="46.75615" lon="6.0868">
        <ele>864.84</ele>
        <time>2015-07-21T09:04:42Z</time>
      </trkpt>
      <trkpt lat="46.75582" lon="6.08706">
        <ele>864.84</ele>
        <time>2015-07-21T09:04:46Z</time>
      </trkpt>
      <trkpt lat="46.75502" lon="6.08736">
        <ele>866.77</ele>
        <time>2015-07-21T09:04:58Z</time>
      </trkpt>
      <trkpt lat="46.75442" lon="6.08757">
        <ele>868.69</ele>
        <time>2015-07-21T09:05:10Z</time>
      </trkpt>
      <trkpt lat="46.75427" lon="6.08762">
        <ele>869.65</ele>
        <time>2015-07-21T09:05:13Z</time>
      </trkpt>
      <trkpt lat="46.7539" lon="6.08794">
        <ele>872.53</ele>
        <time>2015-07-21T09:05:26Z</time>
      </trkpt>
      <trkpt lat="46.75387" lon="6.08796">
        <ele>872.53</ele>
        <time>2015-07-21T09:05:27Z</time>
      </trkpt>
      <trkpt lat="46.75365" lon="6.08833">
        <ele>873.98</ele>
        <time>2015-07-21T09:05:38Z</time>
      </trkpt>
      <trkpt lat="46.75343" lon="6.08865">
        <ele>874.46</ele>
        <time>2015-07-21T09:05:46Z</time>
      </trkpt>
      <trkpt lat="46.7533" lon="6.08881">
        <ele>874.46</ele>
        <time>2015-07-21T09:05:50Z</time>
      </trkpt>
      <trkpt lat="46.75295" lon="6.08915">
        <ele>875.9</ele>
        <time>2015-07-21T09:06:01Z</time>
      </trkpt>
      <trkpt lat="46.75262" lon="6.08949">
        <ele>876.86</ele>
        <time>2015-07-21T09:06:13Z</time>
      </trkpt>
      <trkpt lat="46.75259" lon="6.08953">
        <ele>876.86</ele>
        <time>2015-07-21T09:06:14Z</time>
      </trkpt>
      <trkpt lat="46.75253" lon="6.08963">
        <ele>876.38</ele>
        <time>2015-07-21T09:06:16Z</time>
      </trkpt>
      <trkpt lat="46.75244" lon="6.0899">
        <ele>876.38</ele>
        <time>2015-07-21T09:06:20Z</time>
      </trkpt>
      <trkpt lat="46.75207" lon="6.09016">
        <ele>876.38</ele>
        <time>2015-07-21T09:06:28Z</time>
      </trkpt>
      <trkpt lat="46.7518" lon="6.09019">
        <ele>877.34</ele>
        <time>2015-07-21T09:06:33Z</time>
      </trkpt>
      <trkpt lat="46.75142" lon="6.09071">
        <ele>878.78</ele>
        <time>2015-07-21T09:06:47Z</time>
      </trkpt>
      <trkpt lat="46.75101" lon="6.09119">
        <ele>879.74</ele>
        <time>2015-07-21T09:07:01Z</time>
      </trkpt>
      <trkpt lat="46.75094" lon="6.09127">
        <ele>880.22</ele>
        <time>2015-07-21T09:07:03Z</time>
      </trkpt>
      <trkpt lat="46.75061" lon="6.09168">
        <ele>881.67</ele>
        <time>2015-07-21T09:07:15Z</time>
      </trkpt>
      <trkpt lat="46.75031" lon="6.09211">
        <ele>883.11</ele>
        <time>2015-07-21T09:07:27Z</time>
      </trkpt>
      <trkpt lat="46.74994" lon="6.09266">
        <ele>885.51</ele>
        <time>2015-07-21T09:07:43Z</time>
      </trkpt>
      <trkpt lat="46.74967" lon="6.09309">
        <ele>886.95</ele>
        <time>2015-07-21T09:07:55Z</time>
      </trkpt>
      <trkpt lat="46.74947" lon="6.09343">
        <ele>888.88</ele>
        <time>2015-07-21T09:08:05Z</time>
      </trkpt>
      <trkpt lat="46.74917" lon="6.09392">
        <ele>891.28</ele>
        <time>2015-07-21T09:08:20Z</time>
      </trkpt>
      <trkpt lat="46.74891" lon="6.09437">
        <ele>893.68</ele>
        <time>2015-07-21T09:08:34Z</time>
      </trkpt>
      <trkpt lat="46.74864" lon="6.09477">
        <ele>895.61</ele>
        <time>2015-07-21T09:08:47Z</time>
      </trkpt>
      <trkpt lat="46.74842" lon="6.09513">
        <ele>897.53</ele>
        <time>2015-07-21T09:09:00Z</time>
      </trkpt>
      <trkpt lat="46.7482" lon="6.09552">
        <ele>899.93</ele>
        <time>2015-07-21T09:09:13Z</time>
      </trkpt>
      <trkpt lat="46.74792" lon="6.09593">
        <ele>901.85</ele>
        <time>2015-07-21T09:09:27Z</time>
      </trkpt>
      <trkpt lat="46.74776" lon="6.09626">
        <ele>903.78</ele>
        <time>2015-07-21T09:09:38Z</time>
      </trkpt>
      <trkpt lat="46.74756" lon="6.09671">
        <ele>905.7</ele>
        <time>2015-07-21T09:09:52Z</time>
      </trkpt>
      <trkpt lat="46.74737" lon="6.09714">
        <ele>907.14</ele>
        <time>2015-07-21T09:10:05Z</time>
      </trkpt>
      <trkpt lat="46.74715" lon="6.09747">
        <ele>909.06</ele>
        <time>2015-07-21T09:10:16Z</time>
      </trkpt>
      <trkpt lat="46.74675" lon="6.09784">
        <ele>911.47</ele>
        <time>2015-07-21T09:10:32Z</time>
      </trkpt>
      <trkpt lat="46.74646" lon="6.09806">
        <ele>913.39</ele>
        <time>2015-07-21T09:10:45Z</time>
      </trkpt>
      <trkpt lat="46.74611" lon="6.09827">
        <ele>915.31</ele>
        <time>2015-07-21T09:10:58Z</time>
      </trkpt>
      <trkpt lat="46.74577" lon="6.09848">
        <ele>917.72</ele>
        <time>2015-07-21T09:11:13Z</time>
      </trkpt>
      <trkpt lat="46.74546" lon="6.09866">
        <ele>919.16</ele>
        <time>2015-07-21T09:11:25Z</time>
      </trkpt>
      <trkpt lat="46.74514" lon="6.09889">
        <ele>921.56</ele>
        <time>2015-07-21T09:11:40Z</time>
      </trkpt>
      <trkpt lat="46.74478" lon="6.09907">
        <ele>923</ele>
        <time>2015-07-21T09:11:52Z</time>
      </trkpt>
      <trkpt lat="46.74445" lon="6.09927">
        <ele>924.93</ele>
        <time>2015-07-21T09:12:05Z</time>
      </trkpt>
      <trkpt lat="46.74404" lon="6.09956">
        <ele>926.85</ele>
        <time>2015-07-21T09:12:21Z</time>
      </trkpt>
      <trkpt lat="46.74358" lon="6.0998">
        <ele>929.25</ele>
        <time>2015-07-21T09:12:37Z</time>
      </trkpt>
      <trkpt lat="46.74331" lon="6.09998">
        <ele>930.21</ele>
        <time>2015-07-21T09:12:48Z</time>
      </trkpt>
      <trkpt lat="46.74283" lon="6.10018">
        <ele>932.62</ele>
        <time>2015-07-21T09:13:04Z</time>
      </trkpt>
      <trkpt lat="46.74255" lon="6.10024">
        <ele>935.02</ele>
        <time>2015-07-21T09:13:16Z</time>
      </trkpt>
      <trkpt lat="46.74217" lon="6.10016">
        <ele>936.46</ele>
        <time>2015-07-21T09:13:29Z</time>
      </trkpt>
      <trkpt lat="46.74179" lon="6.1001">
        <ele>938.86</ele>
        <time>2015-07-21T09:13:44Z</time>
      </trkpt>
      <trkpt lat="46.74144" lon="6.10003">
        <ele>940.79</ele>
        <time>2015-07-21T09:13:58Z</time>
      </trkpt>
      <trkpt lat="46.74104" lon="6.09998">
        <ele>942.71</ele>
        <time>2015-07-21T09:14:13Z</time>
      </trkpt>
      <trkpt lat="46.74062" lon="6.10001">
        <ele>944.63</ele>
        <time>2015-07-21T09:14:28Z</time>
      </trkpt>
      <trkpt lat="46.74023" lon="6.10018">
        <ele>946.56</ele>
        <time>2015-07-21T09:14:41Z</time>
      </trkpt>
      <trkpt lat="46.73989" lon="6.10037">
        <ele>948</ele>
        <time>2015-07-21T09:14:52Z</time>
      </trkpt>
      <trkpt lat="46.73962" lon="6.1005">
        <ele>949.92</ele>
        <time>2015-07-21T09:15:02Z</time>
      </trkpt>
      <trkpt lat="46.73926" lon="6.10056">
        <ele>951.36</ele>
        <time>2015-07-21T09:15:14Z</time>
      </trkpt>
      <trkpt lat="46.73889" lon="6.10063">
        <ele>953.28</ele>
        <time>2015-07-21T09:15:28Z</time>
      </trkpt>
      <trkpt lat="46.73854" lon="6.10086">
        <ele>954.73</ele>
        <time>2015-07-21T09:15:41Z</time>
      </trkpt>
      <trkpt lat="46.73826" lon="6.10122">
        <ele>956.65</ele>
        <time>2015-07-21T09:15:54Z</time>
      </trkpt>
      <trkpt lat="46.73811" lon="6.10161">
        <ele>958.09</ele>
        <time>2015-07-21T09:16:06Z</time>
      </trkpt>
      <trkpt lat="46.73783" lon="6.10216">
        <ele>960.49</ele>
        <time>2015-07-21T09:16:21Z</time>
      </trkpt>
      <trkpt lat="46.73753" lon="6.10269">
        <ele>962.9</ele>
        <time>2015-07-21T09:16:38Z</time>
      </trkpt>
      <trkpt lat="46.73728" lon="6.10302">
        <ele>964.82</ele>
        <time>2015-07-21T09:16:51Z</time>
      </trkpt>
      <trkpt lat="46.73692" lon="6.10337">
        <ele>966.74</ele>
        <time>2015-07-21T09:17:05Z</time>
      </trkpt>
      <trkpt lat="46.73651" lon="6.10374">
        <ele>968.67</ele>
        <time>2015-07-21T09:17:21Z</time>
      </trkpt>
      <trkpt lat="46.73614" lon="6.1041">
        <ele>970.59</ele>
        <time>2015-07-21T09:17:38Z</time>
      </trkpt>
      <trkpt lat="46.73577" lon="6.10423">
        <ele>972.99</ele>
        <time>2015-07-21T09:17:53Z</time>
      </trkpt>
      <trkpt lat="46.73546" lon="6.10428">
        <ele>974.91</ele>
        <time>2015-07-21T09:18:07Z</time>
      </trkpt>
      <trkpt lat="46.73499" lon="6.10438">
        <ele>977.32</ele>
        <time>2015-07-21T09:18:23Z</time>
      </trkpt>
      <trkpt lat="46.73459" lon="6.10457">
        <ele>978.76</ele>
        <time>2015-07-21T09:18:36Z</time>
      </trkpt>
      <trkpt lat="46.73421" lon="6.10485">
        <ele>980.68</ele>
        <time>2015-07-21T09:18:50Z</time>
      </trkpt>
      <trkpt lat="46.73384" lon="6.10516">
        <ele>983.09</ele>
        <time>2015-07-21T09:19:04Z</time>
      </trkpt>
      <trkpt lat="46.73347" lon="6.10548">
        <ele>985.01</ele>
        <time>2015-07-21T09:19:18Z</time>
      </trkpt>
      <trkpt lat="46.73319" lon="6.10574">
        <ele>985.97</ele>
        <time>2015-07-21T09:19:29Z</time>
      </trkpt>
      <trkpt lat="46.73292" lon="6.10614">
        <ele>986.93</ele>
        <time>2015-07-21T09:19:42Z</time>
      </trkpt>
      <trkpt lat="46.73262" lon="6.10654">
        <ele>987.41</ele>
        <time>2015-07-21T09:19:54Z</time>
      </trkpt>
      <trkpt lat="46.73237" lon="6.10694">
        <ele>987.89</ele>
        <time>2015-07-21T09:20:05Z</time>
      </trkpt>
      <trkpt lat="46.73213" lon="6.10725">
        <ele>988.37</ele>
        <time>2015-07-21T09:20:15Z</time>
      </trkpt>
      <trkpt lat="46.73187" lon="6.10759">
        <ele>988.85</ele>
        <time>2015-07-21T09:20:26Z</time>
      </trkpt>
      <trkpt lat="46.73167" lon="6.10789">
        <ele>989.33</ele>
        <time>2015-07-21T09:20:36Z</time>
      </trkpt>
      <trkpt lat="46.73146" lon="6.10815">
        <ele>989.81</ele>
        <time>2015-07-21T09:20:47Z</time>
      </trkpt>
      <trkpt lat="46.73145" lon="6.10815">
        <ele>989.33</ele>
        <time>2015-07-21T09:21:00Z</time>
      </trkpt>
      <trkpt lat="46.73145" lon="6.10815">
        <ele>989.33</ele>
        <time>2015-07-21T09:21:01Z</time>
      </trkpt>
      <trkpt lat="46.72997" lon="6.11145">
        <ele>1002.31</ele>
        <time>2015-07-21T09:25:25Z</time>
      </trkpt>
      <trkpt lat="46.72994" lon="6.11149">
        <ele>1002.31</ele>
        <time>2015-07-21T09:25:27Z</time>
      </trkpt>
      <trkpt lat="46.72993" lon="6.11188">
        <ele>1002.31</ele>
        <time>2015-07-21T09:25:41Z</time>
      </trkpt>
      <trkpt lat="46.73005" lon="6.11263">
        <ele>1002.31</ele>
        <time>2015-07-21T09:25:54Z</time>
      </trkpt>
      <trkpt lat="46.73024" lon="6.1138">
        <ele>1000.87</ele>
        <time>2015-07-21T09:26:07Z</time>
      </trkpt>
      <trkpt lat="46.73009" lon="6.11496">
        <ele>1000.39</ele>
        <time>2015-07-21T09:26:20Z</time>
      </trkpt>
      <trkpt lat="46.72991" lon="6.11614">
        <ele>1000.87</ele>
        <time>2015-07-21T09:26:35Z</time>
      </trkpt>
      <trkpt lat="46.72982" lon="6.11647">
        <ele>1001.83</ele>
        <time>2015-07-21T09:26:40Z</time>
      </trkpt>
      <trkpt lat="46.72974" lon="6.11668">
        <ele>1002.31</ele>
        <time>2015-07-21T09:26:44Z</time>
      </trkpt>
      <trkpt lat="46.7296" lon="6.11726">
        <ele>1003.75</ele>
        <time>2015-07-21T09:26:56Z</time>
      </trkpt>
      <trkpt lat="46.72955" lon="6.11772">
        <ele>1005.68</ele>
        <time>2015-07-21T09:27:07Z</time>
      </trkpt>
      <trkpt lat="46.72939" lon="6.11834">
        <ele>1007.6</ele>
        <time>2015-07-21T09:27:20Z</time>
      </trkpt>
      <trkpt lat="46.72939" lon="6.11867">
        <ele>1008.08</ele>
        <time>2015-07-21T09:27:27Z</time>
      </trkpt>
      <trkpt lat="46.72922" lon="6.11904">
        <ele>1008.08</ele>
        <time>2015-07-21T09:27:32Z</time>
      </trkpt>
      <trkpt lat="46.729" lon="6.11929">
        <ele>1008.08</ele>
        <time>2015-07-21T09:27:37Z</time>
      </trkpt>
      <trkpt lat="46.72883" lon="6.11943">
        <ele>1008.08</ele>
        <time>2015-07-21T09:27:40Z</time>
      </trkpt>
      <trkpt lat="46.72861" lon="6.11956">
        <ele>1008.56</ele>
        <time>2015-07-21T09:27:45Z</time>
      </trkpt>
      <trkpt lat="46.72798" lon="6.11958">
        <ele>1008.56</ele>
        <time>2015-07-21T09:27:59Z</time>
      </trkpt>
      <trkpt lat="46.72771" lon="6.11962">
        <ele>1008.56</ele>
        <time>2015-07-21T09:28:05Z</time>
      </trkpt>
      <trkpt lat="46.72763" lon="6.11967">
        <ele>1008.56</ele>
        <time>2015-07-21T09:28:07Z</time>
      </trkpt>
      <trkpt lat="46.7273" lon="6.12014">
        <ele>1010.48</ele>
        <time>2015-07-21T09:28:20Z</time>
      </trkpt>
      <trkpt lat="46.72724" lon="6.12064">
        <ele>1012.89</ele>
        <time>2015-07-21T09:28:33Z</time>
      </trkpt>
      <trkpt lat="46.72721" lon="6.12125">
        <ele>1014.81</ele>
        <time>2015-07-21T09:28:49Z</time>
      </trkpt>
      <trkpt lat="46.72722" lon="6.12169">
        <ele>1017.21</ele>
        <time>2015-07-21T09:29:03Z</time>
      </trkpt>
      <trkpt lat="46.72729" lon="6.12246">
        <ele>1019.62</ele>
        <time>2015-07-21T09:29:21Z</time>
      </trkpt>
      <trkpt lat="46.72749" lon="6.12287">
        <ele>1021.54</ele>
        <time>2015-07-21T09:29:34Z</time>
      </trkpt>
      <trkpt lat="46.72764" lon="6.12326">
        <ele>1022.98</ele>
        <time>2015-07-21T09:29:47Z</time>
      </trkpt>
      <trkpt lat="46.72788" lon="6.12372">
        <ele>1024.9</ele>
        <time>2015-07-21T09:30:01Z</time>
      </trkpt>
      <trkpt lat="46.72807" lon="6.12423">
        <ele>1026.34</ele>
        <time>2015-07-21T09:30:15Z</time>
      </trkpt>
      <trkpt lat="46.72832" lon="6.12468">
        <ele>1028.75</ele>
        <time>2015-07-21T09:30:29Z</time>
      </trkpt>
      <trkpt lat="46.72835" lon="6.12476">
        <ele>1028.75</ele>
        <time>2015-07-21T09:30:32Z</time>
      </trkpt>
      <trkpt lat="46.72847" lon="6.1252">
        <ele>1031.15</ele>
        <time>2015-07-21T09:30:44Z</time>
      </trkpt>
      <trkpt lat="46.72858" lon="6.12585">
        <ele>1033.07</ele>
        <time>2015-07-21T09:30:59Z</time>
      </trkpt>
      <trkpt lat="46.72865" lon="6.12635">
        <ele>1035.48</ele>
        <time>2015-07-21T09:31:13Z</time>
      </trkpt>
      <trkpt lat="46.72875" lon="6.12677">
        <ele>1036.92</ele>
        <time>2015-07-21T09:31:25Z</time>
      </trkpt>
      <trkpt lat="46.72886" lon="6.1273">
        <ele>1038.84</ele>
        <time>2015-07-21T09:31:39Z</time>
      </trkpt>
      <trkpt lat="46.72887" lon="6.12738">
        <ele>1038.84</ele>
        <time>2015-07-21T09:31:41Z</time>
      </trkpt>
      <trkpt lat="46.72903" lon="6.12804">
        <ele>1039.8</ele>
        <time>2015-07-21T09:31:56Z</time>
      </trkpt>
      <trkpt lat="46.72922" lon="6.12864">
        <ele>1040.28</ele>
        <time>2015-07-21T09:32:08Z</time>
      </trkpt>
      <trkpt lat="46.7294" lon="6.12934">
        <ele>1041.25</ele>
        <time>2015-07-21T09:32:21Z</time>
      </trkpt>
      <trkpt lat="46.72958" lon="6.12993">
        <ele>1042.69</ele>
        <time>2015-07-21T09:32:35Z</time>
      </trkpt>
      <trkpt lat="46.72972" lon="6.13043">
        <ele>1045.57</ele>
        <time>2015-07-21T09:32:51Z</time>
      </trkpt>
      <trkpt lat="46.7299" lon="6.13099">
        <ele>1047.97</ele>
        <time>2015-07-21T09:33:07Z</time>
      </trkpt>
      <trkpt lat="46.72994" lon="6.13116">
        <ele>1048.94</ele>
        <time>2015-07-21T09:33:11Z</time>
      </trkpt>
      <trkpt lat="46.73" lon="6.13128">
        <ele>1048.94</ele>
        <time>2015-07-21T09:33:14Z</time>
      </trkpt>
      <trkpt lat="46.73008" lon="6.13146">
        <ele>1049.9</ele>
        <time>2015-07-21T09:33:19Z</time>
      </trkpt>
      <trkpt lat="46.73013" lon="6.13163">
        <ele>1050.38</ele>
        <time>2015-07-21T09:33:23Z</time>
      </trkpt>
      <trkpt lat="46.73031" lon="6.13212">
        <ele>1052.78</ele>
        <time>2015-07-21T09:33:37Z</time>
      </trkpt>
      <trkpt lat="46.73045" lon="6.13247">
        <ele>1054.22</ele>
        <time>2015-07-21T09:33:48Z</time>
      </trkpt>
      <trkpt lat="46.73064" lon="6.13295">
        <ele>1056.63</ele>
        <time>2015-07-21T09:34:03Z</time>
      </trkpt>
      <trkpt lat="46.73084" lon="6.1334">
        <ele>1058.07</ele>
        <time>2015-07-21T09:34:16Z</time>
      </trkpt>
      <trkpt lat="46.73107" lon="6.13391">
        <ele>1060.47</ele>
        <time>2015-07-21T09:34:31Z</time>
      </trkpt>
      <trkpt lat="46.7312" lon="6.13432">
        <ele>1061.91</ele>
        <time>2015-07-21T09:34:43Z</time>
      </trkpt>
      <trkpt lat="46.73132" lon="6.1348">
        <ele>1063.36</ele>
        <time>2015-07-21T09:34:55Z</time>
      </trkpt>
      <trkpt lat="46.73146" lon="6.13531">
        <ele>1063.84</ele>
        <time>2015-07-21T09:35:07Z</time>
      </trkpt>
      <trkpt lat="46.73157" lon="6.13595">
        <ele>1065.28</ele>
        <time>2015-07-21T09:35:20Z</time>
      </trkpt>
      <trkpt lat="46.73174" lon="6.13642">
        <ele>1066.24</ele>
        <time>2015-07-21T09:35:33Z</time>
      </trkpt>
      <trkpt lat="46.73186" lon="6.13702">
        <ele>1068.16</ele>
        <time>2015-07-21T09:35:45Z</time>
      </trkpt>
      <trkpt lat="46.73199" lon="6.13755">
        <ele>1070.57</ele>
        <time>2015-07-21T09:36:00Z</time>
      </trkpt>
      <trkpt lat="46.73223" lon="6.13808">
        <ele>1073.45</ele>
        <time>2015-07-21T09:36:16Z</time>
      </trkpt>
      <trkpt lat="46.73236" lon="6.13858">
        <ele>1075.37</ele>
        <time>2015-07-21T09:36:29Z</time>
      </trkpt>
      <trkpt lat="46.73264" lon="6.1393">
        <ele>1077.78</ele>
        <time>2015-07-21T09:36:45Z</time>
      </trkpt>
      <trkpt lat="46.73277" lon="6.13983">
        <ele>1080.18</ele>
        <time>2015-07-21T09:36:59Z</time>
      </trkpt>
      <trkpt lat="46.73275" lon="6.14037">
        <ele>1082.58</ele>
        <time>2015-07-21T09:37:12Z</time>
      </trkpt>
      <trkpt lat="46.7325" lon="6.141">
        <ele>1084.99</ele>
        <time>2015-07-21T09:37:27Z</time>
      </trkpt>
      <trkpt lat="46.73204" lon="6.14158">
        <ele>1087.39</ele>
        <time>2015-07-21T09:37:40Z</time>
      </trkpt>
      <trkpt lat="46.73179" lon="6.14195">
        <ele>1089.79</ele>
        <time>2015-07-21T09:37:54Z</time>
      </trkpt>
      <trkpt lat="46.73148" lon="6.1423">
        <ele>1092.2</ele>
        <time>2015-07-21T09:38:07Z</time>
      </trkpt>
      <trkpt lat="46.73119" lon="6.14243">
        <ele>1094.12</ele>
        <time>2015-07-21T09:38:19Z</time>
      </trkpt>
      <trkpt lat="46.7309" lon="6.14263">
        <ele>1096.04</ele>
        <time>2015-07-21T09:38:32Z</time>
      </trkpt>
      <trkpt lat="46.73071" lon="6.14306">
        <ele>1097.96</ele>
        <time>2015-07-21T09:38:46Z</time>
      </trkpt>
      <trkpt lat="46.73062" lon="6.14363">
        <ele>1100.37</ele>
        <time>2015-07-21T09:39:01Z</time>
      </trkpt>
      <trkpt lat="46.73043" lon="6.14415">
        <ele>1102.77</ele>
        <time>2015-07-21T09:39:15Z</time>
      </trkpt>
      <trkpt lat="46.73018" lon="6.14474">
        <ele>1104.69</ele>
        <time>2015-07-21T09:39:30Z</time>
      </trkpt>
      <trkpt lat="46.72987" lon="6.1452">
        <ele>1107.1</ele>
        <time>2015-07-21T09:39:44Z</time>
      </trkpt>
      <trkpt lat="46.72956" lon="6.14559">
        <ele>1109.02</ele>
        <time>2015-07-21T09:39:57Z</time>
      </trkpt>
      <trkpt lat="46.7293" lon="6.14576">
        <ele>1111.42</ele>
        <time>2015-07-21T09:40:10Z</time>
      </trkpt>
      <trkpt lat="46.72895" lon="6.14586">
        <ele>1113.82</ele>
        <time>2015-07-21T09:40:23Z</time>
      </trkpt>
      <trkpt lat="46.72858" lon="6.14583">
        <ele>1115.75</ele>
        <time>2015-07-21T09:40:36Z</time>
      </trkpt>
      <trkpt lat="46.72829" lon="6.14594">
        <ele>1117.67</ele>
        <time>2015-07-21T09:40:48Z</time>
      </trkpt>
      <trkpt lat="46.72793" lon="6.14599">
        <ele>1119.59</ele>
        <time>2015-07-21T09:41:00Z</time>
      </trkpt>
      <trkpt lat="46.72764" lon="6.14621">
        <ele>1121.52</ele>
        <time>2015-07-21T09:41:14Z</time>
      </trkpt>
      <trkpt lat="46.72733" lon="6.14646">
        <ele>1123.92</ele>
        <time>2015-07-21T09:41:26Z</time>
      </trkpt>
      <trkpt lat="46.72704" lon="6.14666">
        <ele>1125.84</ele>
        <time>2015-07-21T09:41:39Z</time>
      </trkpt>
      <trkpt lat="46.72673" lon="6.14692">
        <ele>1128.24</ele>
        <time>2015-07-21T09:41:53Z</time>
      </trkpt>
      <trkpt lat="46.72648" lon="6.14714">
        <ele>1130.17</ele>
        <time>2015-07-21T09:42:05Z</time>
      </trkpt>
      <trkpt lat="46.72621" lon="6.14744">
        <ele>1132.09</ele>
        <time>2015-07-21T09:42:18Z</time>
      </trkpt>
      <trkpt lat="46.72593" lon="6.14773">
        <ele>1134.49</ele>
        <time>2015-07-21T09:42:30Z</time>
      </trkpt>
      <trkpt lat="46.72571" lon="6.14796">
        <ele>1134.49</ele>
        <time>2015-07-21T09:42:43Z</time>
      </trkpt>
      <trkpt lat="46.72572" lon="6.148">
        <ele>1134.01</ele>
        <time>2015-07-21T09:43:00Z</time>
      </trkpt>
      <trkpt lat="46.72572" lon="6.148">
        <ele>1134.01</ele>
        <time>2015-07-21T09:43:11Z</time>
      </trkpt>
      <trkpt lat="46.72564" lon="6.14824">
        <ele>1133.05</ele>
        <time>2015-07-21T09:43:19Z</time>
      </trkpt>
      <trkpt lat="46.72557" lon="6.14852">
        <ele>1132.09</ele>
        <time>2015-07-21T09:43:31Z</time>
      </trkpt>
      <trkpt lat="46.72555" lon="6.14855">
        <ele>1132.09</ele>
        <time>2015-07-21T09:43:45Z</time>
      </trkpt>
      <trkpt lat="46.72555" lon="6.14855">
        <ele>1132.57</ele>
        <time>2015-07-21T09:44:14Z</time>
      </trkpt>
      <trkpt lat="46.72555" lon="6.14855">
        <ele>1131.13</ele>
        <time>2015-07-21T09:44:30Z</time>
      </trkpt>
      <trkpt lat="46.72535" lon="6.14872">
        <ele>1133.05</ele>
        <time>2015-07-21T09:48:15Z</time>
      </trkpt>
      <trkpt lat="46.72539" lon="6.14869">
        <ele>1132.57</ele>
        <time>2015-07-21T09:48:16Z</time>
      </trkpt>
      <trkpt lat="46.72536" lon="6.14867">
        <ele>1131.61</ele>
        <time>2015-07-21T09:48:36Z</time>
      </trkpt>
      <trkpt lat="46.72514" lon="6.14876">
        <ele>1130.17</ele>
        <time>2015-07-21T09:48:51Z</time>
      </trkpt>
      <trkpt lat="46.72487" lon="6.14902">
        <ele>1126.8</ele>
        <time>2015-07-21T09:49:01Z</time>
      </trkpt>
      <trkpt lat="46.72465" lon="6.14927">
        <ele>1125.36</ele>
        <time>2015-07-21T09:49:05Z</time>
      </trkpt>
      <trkpt lat="46.72455" lon="6.1495">
        <ele>1125.84</ele>
        <time>2015-07-21T09:49:07Z</time>
      </trkpt>
      <trkpt lat="46.72438" lon="6.14997">
        <ele>1123.92</ele>
        <time>2015-07-21T09:49:11Z</time>
      </trkpt>
      <trkpt lat="46.72414" lon="6.15038">
        <ele>1121.52</ele>
        <time>2015-07-21T09:49:15Z</time>
      </trkpt>
      <trkpt lat="46.72408" lon="6.15045">
        <ele>1120.55</ele>
        <time>2015-07-21T09:49:16Z</time>
      </trkpt>
      <trkpt lat="46.72351" lon="6.15081">
        <ele>1116.23</ele>
        <time>2015-07-21T09:49:22Z</time>
      </trkpt>
      <trkpt lat="46.72325" lon="6.15114">
        <ele>1117.19</ele>
        <time>2015-07-21T09:49:26Z</time>
      </trkpt>
      <trkpt lat="46.72306" lon="6.15156">
        <ele>1119.59</ele>
        <time>2015-07-21T09:49:35Z</time>
      </trkpt>
      <trkpt lat="46.72307" lon="6.15156">
        <ele>1120.07</ele>
        <time>2015-07-21T09:49:37Z</time>
      </trkpt>
      <trkpt lat="46.72346" lon="6.15152">
        <ele>1121.52</ele>
        <time>2015-07-21T09:49:42Z</time>
      </trkpt>
      <trkpt lat="46.72359" lon="6.15168">
        <ele>1123.44</ele>
        <time>2015-07-21T09:49:46Z</time>
      </trkpt>
      <trkpt lat="46.72362" lon="6.15177">
        <ele>1123.44</ele>
        <time>2015-07-21T09:49:47Z</time>
      </trkpt>
      <trkpt lat="46.72363" lon="6.15189">
        <ele>1126.32</ele>
        <time>2015-07-21T09:49:49Z</time>
      </trkpt>
      <trkpt lat="46.72362" lon="6.15199">
        <ele>1126.32</ele>
        <time>2015-07-21T09:49:51Z</time>
      </trkpt>
      <trkpt lat="46.72364" lon="6.1521">
        <ele>1128.73</ele>
        <time>2015-07-21T09:49:53Z</time>
      </trkpt>
      <trkpt lat="46.72387" lon="6.15227">
        <ele>1133.53</ele>
        <time>2015-07-21T09:49:59Z</time>
      </trkpt>
      <trkpt lat="46.72393" lon="6.15226">
        <ele>1134.01</ele>
        <time>2015-07-21T09:50:01Z</time>
      </trkpt>
      <trkpt lat="46.72438" lon="6.15212">
        <ele>1135.94</ele>
        <time>2015-07-21T09:50:12Z</time>
      </trkpt>
      <trkpt lat="46.7248" lon="6.15188">
        <ele>1136.42</ele>
        <time>2015-07-21T09:50:19Z</time>
      </trkpt>
      <trkpt lat="46.72513" lon="6.15173">
        <ele>1136.9</ele>
        <time>2015-07-21T09:50:24Z</time>
      </trkpt>
      <trkpt lat="46.72526" lon="6.15167">
        <ele>1136.42</ele>
        <time>2015-07-21T09:50:26Z</time>
      </trkpt>
      <trkpt lat="46.72567" lon="6.15188">
        <ele>1135.94</ele>
        <time>2015-07-21T09:50:33Z</time>
      </trkpt>
      <trkpt lat="46.72557" lon="6.1522">
        <ele>1137.38</ele>
        <time>2015-07-21T09:50:39Z</time>
      </trkpt>
      <trkpt lat="46.72473" lon="6.15262">
        <ele>1139.78</ele>
        <time>2015-07-21T09:50:51Z</time>
      </trkpt>
      <trkpt lat="46.72388" lon="6.15322">
        <ele>1136.42</ele>
        <time>2015-07-21T09:51:01Z</time>
      </trkpt>
      <trkpt lat="46.72304" lon="6.15387">
        <ele>1134.01</ele>
        <time>2015-07-21T09:51:11Z</time>
      </trkpt>
      <trkpt lat="46.72277" lon="6.15403">
        <ele>1133.53</ele>
        <time>2015-07-21T09:51:14Z</time>
      </trkpt>
      <trkpt lat="46.72247" lon="6.15431">
        <ele>1132.09</ele>
        <time>2015-07-21T09:51:18Z</time>
      </trkpt>
      <trkpt lat="46.72229" lon="6.15459">
        <ele>1130.65</ele>
        <time>2015-07-21T09:51:21Z</time>
      </trkpt>
      <trkpt lat="46.72202" lon="6.15509">
        <ele>1128.24</ele>
        <time>2015-07-21T09:51:26Z</time>
      </trkpt>
      <trkpt lat="46.7214" lon="6.15544">
        <ele>1126.8</ele>
        <time>2015-07-21T09:51:32Z</time>
      </trkpt>
      <trkpt lat="46.72087" lon="6.1553">
        <ele>1122</ele>
        <time>2015-07-21T09:51:37Z</time>
      </trkpt>
      <trkpt lat="46.72036" lon="6.15508">
        <ele>1121.52</ele>
        <time>2015-07-21T09:51:42Z</time>
      </trkpt>
      <trkpt lat="46.71986" lon="6.155">
        <ele>1120.07</ele>
        <time>2015-07-21T09:51:47Z</time>
      </trkpt>
      <trkpt lat="46.71934" lon="6.15468">
        <ele>1119.11</ele>
        <time>2015-07-21T09:51:53Z</time>
      </trkpt>
      <trkpt lat="46.71893" lon="6.1545">
        <ele>1118.63</ele>
        <time>2015-07-21T09:51:58Z</time>
      </trkpt>
      <trkpt lat="46.7183" lon="6.15467">
        <ele>1116.71</ele>
        <time>2015-07-21T09:52:05Z</time>
      </trkpt>
      <trkpt lat="46.71791" lon="6.15531">
        <ele>1113.34</ele>
        <time>2015-07-21T09:52:12Z</time>
      </trkpt>
      <trkpt lat="46.71791" lon="6.15544">
        <ele>1112.86</ele>
        <time>2015-07-21T09:52:13Z</time>
      </trkpt>
      <trkpt lat="46.71791" lon="6.15571">
        <ele>1111.9</ele>
        <time>2015-07-21T09:52:15Z</time>
      </trkpt>
      <trkpt lat="46.71803" lon="6.15639">
        <ele>1107.58</ele>
        <time>2015-07-21T09:52:20Z</time>
      </trkpt>
      <trkpt lat="46.71824" lon="6.1572">
        <ele>1104.21</ele>
        <time>2015-07-21T09:52:26Z</time>
      </trkpt>
      <trkpt lat="46.71831" lon="6.15745">
        <ele>1103.73</ele>
        <time>2015-07-21T09:52:28Z</time>
      </trkpt>
      <trkpt lat="46.71873" lon="6.15814">
        <ele>1099.89</ele>
        <time>2015-07-21T09:52:35Z</time>
      </trkpt>
      <trkpt lat="46.71878" lon="6.15824">
        <ele>1099.89</ele>
        <time>2015-07-21T09:52:36Z</time>
      </trkpt>
      <trkpt lat="46.71918" lon="6.1589">
        <ele>1097</ele>
        <time>2015-07-21T09:52:43Z</time>
      </trkpt>
      <trkpt lat="46.71924" lon="6.15902">
        <ele>1097</ele>
        <time>2015-07-21T09:52:44Z</time>
      </trkpt>
      <trkpt lat="46.71941" lon="6.1594">
        <ele>1095.56</ele>
        <time>2015-07-21T09:52:47Z</time>
      </trkpt>
      <trkpt lat="46.71955" lon="6.16005">
        <ele>1093.16</ele>
        <time>2015-07-21T09:52:52Z</time>
      </trkpt>
      <trkpt lat="46.71947" lon="6.16111">
        <ele>1090.75</ele>
        <time>2015-07-21T09:53:00Z</time>
      </trkpt>
      <trkpt lat="46.71929" lon="6.16253">
        <ele>1087.87</ele>
        <time>2015-07-21T09:53:10Z</time>
      </trkpt>
      <trkpt lat="46.71927" lon="6.16267">
        <ele>1086.91</ele>
        <time>2015-07-21T09:53:11Z</time>
      </trkpt>
      <trkpt lat="46.71909" lon="6.16321">
        <ele>1085.47</ele>
        <time>2015-07-21T09:53:15Z</time>
      </trkpt>
      <trkpt lat="46.71894" lon="6.16344">
        <ele>1084.5</ele>
        <time>2015-07-21T09:53:17Z</time>
      </trkpt>
      <trkpt lat="46.71862" lon="6.16389">
        <ele>1082.1</ele>
        <time>2015-07-21T09:53:21Z</time>
      </trkpt>
      <trkpt lat="46.71853" lon="6.16399">
        <ele>1081.62</ele>
        <time>2015-07-21T09:53:22Z</time>
      </trkpt>
      <trkpt lat="46.71779" lon="6.16424">
        <ele>1077.29</ele>
        <time>2015-07-21T09:53:29Z</time>
      </trkpt>
      <trkpt lat="46.71769" lon="6.16421">
        <ele>1076.81</ele>
        <time>2015-07-21T09:53:30Z</time>
      </trkpt>
      <trkpt lat="46.71728" lon="6.16406">
        <ele>1074.89</ele>
        <time>2015-07-21T09:53:34Z</time>
      </trkpt>
      <trkpt lat="46.71674" lon="6.1643">
        <ele>1072.49</ele>
        <time>2015-07-21T09:53:40Z</time>
      </trkpt>
      <trkpt lat="46.71669" lon="6.16442">
        <ele>1072.01</ele>
        <time>2015-07-21T09:53:41Z</time>
      </trkpt>
      <trkpt lat="46.71651" lon="6.16486">
        <ele>1069.6</ele>
        <time>2015-07-21T09:53:46Z</time>
      </trkpt>
      <trkpt lat="46.7164" lon="6.165">
        <ele>1068.64</ele>
        <time>2015-07-21T09:53:55Z</time>
      </trkpt>
      <trkpt lat="46.7164" lon="6.165">
        <ele>1068.16</ele>
        <time>2015-07-21T09:54:16Z</time>
      </trkpt>
      <trkpt lat="46.7164" lon="6.165">
        <ele>1067.2</ele>
        <time>2015-07-21T09:54:50Z</time>
      </trkpt>
      <trkpt lat="46.7164" lon="6.16499">
        <ele>1066.24</ele>
        <time>2015-07-21T09:55:22Z</time>
      </trkpt>
      <trkpt lat="46.71641" lon="6.16499">
        <ele>1066.24</ele>
        <time>2015-07-21T09:55:54Z</time>
      </trkpt>
      <trkpt lat="46.71641" lon="6.16499">
        <ele>1065.76</ele>
        <time>2015-07-21T09:56:10Z</time>
      </trkpt>
      <trkpt lat="46.71641" lon="6.16499">
        <ele>1065.28</ele>
        <time>2015-07-21T09:56:25Z</time>
      </trkpt>
      <trkpt lat="46.71634" lon="6.1649">
        <ele>1065.76</ele>
        <time>2015-07-21T09:56:32Z</time>
      </trkpt>
      <trkpt lat="46.71617" lon="6.1644">
        <ele>1064.8</ele>
        <time>2015-07-21T09:56:44Z</time>
      </trkpt>
      <trkpt lat="46.71612" lon="6.16425">
        <ele>1064.32</ele>
        <time>2015-07-21T09:56:47Z</time>
      </trkpt>
      <trkpt lat="46.71598" lon="6.16361">
        <ele>1066.24</ele>
        <time>2015-07-21T09:57:01Z</time>
      </trkpt>
      <trkpt lat="46.71591" lon="6.16312">
        <ele>1066.72</ele>
        <time>2015-07-21T09:57:12Z</time>
      </trkpt>
      <trkpt lat="46.71579" lon="6.16254">
        <ele>1067.2</ele>
        <time>2015-07-21T09:57:24Z</time>
      </trkpt>
      <trkpt lat="46.71569" lon="6.16219">
        <ele>1067.2</ele>
        <time>2015-07-21T09:57:31Z</time>
      </trkpt>
      <trkpt lat="46.71558" lon="6.16182">
        <ele>1066.72</ele>
        <time>2015-07-21T09:57:37Z</time>
      </trkpt>
      <trkpt lat="46.71535" lon="6.16147">
        <ele>1065.28</ele>
        <time>2015-07-21T09:57:43Z</time>
      </trkpt>
      <trkpt lat="46.7146" lon="6.16091">
        <ele>1062.87</ele>
        <time>2015-07-21T09:57:55Z</time>
      </trkpt>
      <trkpt lat="46.71399" lon="6.1604">
        <ele>1062.39</ele>
        <time>2015-07-21T09:58:04Z</time>
      </trkpt>
      <trkpt lat="46.71374" lon="6.16002">
        <ele>1063.36</ele>
        <time>2015-07-21T09:58:10Z</time>
      </trkpt>
      <trkpt lat="46.71343" lon="6.15904">
        <ele>1065.76</ele>
        <time>2015-07-21T09:58:26Z</time>
      </trkpt>
      <trkpt lat="46.71333" lon="6.15878">
        <ele>1066.24</ele>
        <time>2015-07-21T09:58:31Z</time>
      </trkpt>
      <trkpt lat="46.71291" lon="6.15794">
        <ele>1065.76</ele>
        <time>2015-07-21T09:58:46Z</time>
      </trkpt>
      <trkpt lat="46.7124" lon="6.15693">
        <ele>1065.76</ele>
        <time>2015-07-21T09:59:01Z</time>
      </trkpt>
      <trkpt lat="46.71187" lon="6.15592">
        <ele>1062.87</ele>
        <time>2015-07-21T09:59:14Z</time>
      </trkpt>
      <trkpt lat="46.71157" lon="6.15548">
        <ele>1062.39</ele>
        <time>2015-07-21T09:59:20Z</time>
      </trkpt>
      <trkpt lat="46.71103" lon="6.15498">
        <ele>1062.87</ele>
        <time>2015-07-21T09:59:29Z</time>
      </trkpt>
      <trkpt lat="46.71021" lon="6.15401">
        <ele>1062.87</ele>
        <time>2015-07-21T09:59:45Z</time>
      </trkpt>
      <trkpt lat="46.70945" lon="6.15302">
        <ele>1060.95</ele>
        <time>2015-07-21T09:59:59Z</time>
      </trkpt>
      <trkpt lat="46.7087" lon="6.15217">
        <ele>1058.07</ele>
        <time>2015-07-21T10:00:11Z</time>
      </trkpt>
      <trkpt lat="46.70831" lon="6.15185">
        <ele>1057.59</ele>
        <time>2015-07-21T10:00:16Z</time>
      </trkpt>
      <trkpt lat="46.70817" lon="6.15115">
        <ele>1055.18</ele>
        <time>2015-07-21T10:00:22Z</time>
      </trkpt>
      <trkpt lat="46.7082" lon="6.15103">
        <ele>1054.7</ele>
        <time>2015-07-21T10:00:23Z</time>
      </trkpt>
      <trkpt lat="46.70846" lon="6.14993">
        <ele>1056.15</ele>
        <time>2015-07-21T10:00:35Z</time>
      </trkpt>
      <trkpt lat="46.70847" lon="6.14987">
        <ele>1056.15</ele>
        <time>2015-07-21T10:00:36Z</time>
      </trkpt>
      <trkpt lat="46.70857" lon="6.14913">
        <ele>1058.07</ele>
        <time>2015-07-21T10:00:51Z</time>
      </trkpt>
      <trkpt lat="46.70863" lon="6.14853">
        <ele>1059.99</ele>
        <time>2015-07-21T10:01:05Z</time>
      </trkpt>
      <trkpt lat="46.70856" lon="6.14799">
        <ele>1062.39</ele>
        <time>2015-07-21T10:01:19Z</time>
      </trkpt>
      <trkpt lat="46.70831" lon="6.1475">
        <ele>1063.84</ele>
        <time>2015-07-21T10:01:33Z</time>
      </trkpt>
      <trkpt lat="46.70805" lon="6.14707">
        <ele>1064.8</ele>
        <time>2015-07-21T10:01:45Z</time>
      </trkpt>
      <trkpt lat="46.70789" lon="6.14684">
        <ele>1064.8</ele>
        <time>2015-07-21T10:01:51Z</time>
      </trkpt>
      <trkpt lat="46.70771" lon="6.1466">
        <ele>1065.28</ele>
        <time>2015-07-21T10:01:57Z</time>
      </trkpt>
      <trkpt lat="46.7075" lon="6.14631">
        <ele>1065.76</ele>
        <time>2015-07-21T10:02:04Z</time>
      </trkpt>
      <trkpt lat="46.70744" lon="6.14622">
        <ele>1065.76</ele>
        <time>2015-07-21T10:02:06Z</time>
      </trkpt>
      <trkpt lat="46.70707" lon="6.1457">
        <ele>1066.72</ele>
        <time>2015-07-21T10:02:18Z</time>
      </trkpt>
      <trkpt lat="46.7066" lon="6.14501">
        <ele>1067.68</ele>
        <time>2015-07-21T10:02:33Z</time>
      </trkpt>
      <trkpt lat="46.70646" lon="6.14482">
        <ele>1067.2</ele>
        <time>2015-07-21T10:02:37Z</time>
      </trkpt>
      <trkpt lat="46.70613" lon="6.14437">
        <ele>1066.24</ele>
        <time>2015-07-21T10:02:45Z</time>
      </trkpt>
      <trkpt lat="46.7055" lon="6.1438">
        <ele>1063.84</ele>
        <time>2015-07-21T10:02:56Z</time>
      </trkpt>
      <trkpt lat="46.70517" lon="6.14353">
        <ele>1062.87</ele>
        <time>2015-07-21T10:03:02Z</time>
      </trkpt>
      <trkpt lat="46.70507" lon="6.14342">
        <ele>1061.91</ele>
        <time>2015-07-21T10:03:04Z</time>
      </trkpt>
      <trkpt lat="46.70493" lon="6.1432">
        <ele>1060.95</ele>
        <time>2015-07-21T10:03:07Z</time>
      </trkpt>
      <trkpt lat="46.70486" lon="6.14303">
        <ele>1060.47</ele>
        <time>2015-07-21T10:03:09Z</time>
      </trkpt>
      <trkpt lat="46.70473" lon="6.14199">
        <ele>1059.03</ele>
        <time>2015-07-21T10:03:20Z</time>
      </trkpt>
      <trkpt lat="46.70466" lon="6.14135">
        <ele>1059.51</ele>
        <time>2015-07-21T10:03:30Z</time>
      </trkpt>
      <trkpt lat="46.70457" lon="6.14114">
        <ele>1059.51</ele>
        <time>2015-07-21T10:03:34Z</time>
      </trkpt>
      <trkpt lat="46.7044" lon="6.14075">
        <ele>1059.99</ele>
        <time>2015-07-21T10:03:46Z</time>
      </trkpt>
      <trkpt lat="46.7044" lon="6.14075">
        <ele>1059.51</ele>
        <time>2015-07-21T10:04:04Z</time>
      </trkpt>
      <trkpt lat="46.70439" lon="6.14074">
        <ele>1059.99</ele>
        <time>2015-07-21T10:04:06Z</time>
      </trkpt>
      <trkpt lat="46.70419" lon="6.14032">
        <ele>1060.47</ele>
        <time>2015-07-21T10:04:16Z</time>
      </trkpt>
      <trkpt lat="46.70409" lon="6.14006">
        <ele>1059.99</ele>
        <time>2015-07-21T10:04:20Z</time>
      </trkpt>
      <trkpt lat="46.70403" lon="6.13969">
        <ele>1059.51</ele>
        <time>2015-07-21T10:04:25Z</time>
      </trkpt>
      <trkpt lat="46.70403" lon="6.13953">
        <ele>1059.51</ele>
        <time>2015-07-21T10:04:27Z</time>
      </trkpt>
      <trkpt lat="46.70404" lon="6.13923">
        <ele>1059.51</ele>
        <time>2015-07-21T10:04:31Z</time>
      </trkpt>
      <trkpt lat="46.70405" lon="6.13903">
        <ele>1059.51</ele>
        <time>2015-07-21T10:04:34Z</time>
      </trkpt>
      <trkpt lat="46.7041" lon="6.13866">
        <ele>1059.99</ele>
        <time>2015-07-21T10:04:40Z</time>
      </trkpt>
      <trkpt lat="46.70412" lon="6.13821">
        <ele>1060.47</ele>
        <time>2015-07-21T10:04:48Z</time>
      </trkpt>
      <trkpt lat="46.70413" lon="6.13799">
        <ele>1060.95</ele>
        <time>2015-07-21T10:04:52Z</time>
      </trkpt>
      <trkpt lat="46.70397" lon="6.13729">
        <ele>1061.43</ele>
        <time>2015-07-21T10:05:04Z</time>
      </trkpt>
      <trkpt lat="46.70395" lon="6.13724">
        <ele>1061.91</ele>
        <time>2015-07-21T10:05:05Z</time>
      </trkpt>
      <trkpt lat="46.70385" lon="6.13703">
        <ele>1061.91</ele>
        <time>2015-07-21T10:05:09Z</time>
      </trkpt>
      <trkpt lat="46.70381" lon="6.13692">
        <ele>1061.91</ele>
        <time>2015-07-21T10:05:11Z</time>
      </trkpt>
      <trkpt lat="46.70371" lon="6.13666">
        <ele>1062.39</ele>
        <time>2015-07-21T10:05:16Z</time>
      </trkpt>
      <trkpt lat="46.70347" lon="6.13606">
        <ele>1062.87</ele>
        <time>2015-07-21T10:05:27Z</time>
      </trkpt>
      <trkpt lat="46.70339" lon="6.13549">
        <ele>1062.87</ele>
        <time>2015-07-21T10:05:36Z</time>
      </trkpt>
      <trkpt lat="46.70339" lon="6.13448">
        <ele>1062.87</ele>
        <time>2015-07-21T10:05:50Z</time>
      </trkpt>
      <trkpt lat="46.70336" lon="6.13427">
        <ele>1062.87</ele>
        <time>2015-07-21T10:05:53Z</time>
      </trkpt>
      <trkpt lat="46.70331" lon="6.13408">
        <ele>1063.84</ele>
        <time>2015-07-21T10:05:56Z</time>
      </trkpt>
      <trkpt lat="46.703" lon="6.1337">
        <ele>1065.28</ele>
        <time>2015-07-21T10:06:08Z</time>
      </trkpt>
      <trkpt lat="46.70273" lon="6.13371">
        <ele>1068.16</ele>
        <time>2015-07-21T10:06:20Z</time>
      </trkpt>
      <trkpt lat="46.70237" lon="6.13375">
        <ele>1070.57</ele>
        <time>2015-07-21T10:06:35Z</time>
      </trkpt>
      <trkpt lat="46.70202" lon="6.13379">
        <ele>1072.49</ele>
        <time>2015-07-21T10:06:50Z</time>
      </trkpt>
      <trkpt lat="46.70174" lon="6.13351">
        <ele>1074.89</ele>
        <time>2015-07-21T10:07:05Z</time>
      </trkpt>
      <trkpt lat="46.70154" lon="6.13314">
        <ele>1076.81</ele>
        <time>2015-07-21T10:07:19Z</time>
      </trkpt>
      <trkpt lat="46.70133" lon="6.13275">
        <ele>1079.22</ele>
        <time>2015-07-21T10:07:33Z</time>
      </trkpt>
      <trkpt lat="46.70102" lon="6.13245">
        <ele>1081.14</ele>
        <time>2015-07-21T10:07:48Z</time>
      </trkpt>
      <trkpt lat="46.70074" lon="6.13233">
        <ele>1083.06</ele>
        <time>2015-07-21T10:08:00Z</time>
      </trkpt>
      <trkpt lat="46.70049" lon="6.13228">
        <ele>1084.02</ele>
        <time>2015-07-21T10:08:10Z</time>
      </trkpt>
      <trkpt lat="46.70025" lon="6.13228">
        <ele>1084.5</ele>
        <time>2015-07-21T10:08:21Z</time>
      </trkpt>
      <trkpt lat="46.69994" lon="6.1324">
        <ele>1084.02</ele>
        <time>2015-07-21T10:08:30Z</time>
      </trkpt>
      <trkpt lat="46.69985" lon="6.13244">
        <ele>1084.02</ele>
        <time>2015-07-21T10:08:32Z</time>
      </trkpt>
      <trkpt lat="46.69967" lon="6.13261">
        <ele>1083.54</ele>
        <time>2015-07-21T10:08:36Z</time>
      </trkpt>
      <trkpt lat="46.69911" lon="6.13316">
        <ele>1080.66</ele>
        <time>2015-07-21T10:08:48Z</time>
      </trkpt>
      <trkpt lat="46.69867" lon="6.13395">
        <ele>1078.74</ele>
        <time>2015-07-21T10:08:59Z</time>
      </trkpt>
      <trkpt lat="46.69843" lon="6.13471">
        <ele>1076.33</ele>
        <time>2015-07-21T10:09:06Z</time>
      </trkpt>
      <trkpt lat="46.69824" lon="6.13537">
        <ele>1073.93</ele>
        <time>2015-07-21T10:09:11Z</time>
      </trkpt>
      <trkpt lat="46.69815" lon="6.13565">
        <ele>1072.01</ele>
        <time>2015-07-21T10:09:13Z</time>
      </trkpt>
      <trkpt lat="46.69758" lon="6.13633">
        <ele>1069.6</ele>
        <time>2015-07-21T10:09:20Z</time>
      </trkpt>
      <trkpt lat="46.69725" lon="6.13669">
        <ele>1068.16</ele>
        <time>2015-07-21T10:09:24Z</time>
      </trkpt>
      <trkpt lat="46.69692" lon="6.13696">
        <ele>1064.8</ele>
        <time>2015-07-21T10:09:28Z</time>
      </trkpt>
      <trkpt lat="46.69657" lon="6.13713">
        <ele>1062.87</ele>
        <time>2015-07-21T10:09:32Z</time>
      </trkpt>
      <trkpt lat="46.69594" lon="6.13715">
        <ele>1059.99</ele>
        <time>2015-07-21T10:09:38Z</time>
      </trkpt>
      <trkpt lat="46.69494" lon="6.13711">
        <ele>1059.99</ele>
        <time>2015-07-21T10:09:48Z</time>
      </trkpt>
      <trkpt lat="46.69402" lon="6.13695">
        <ele>1059.51</ele>
        <time>2015-07-21T10:09:59Z</time>
      </trkpt>
      <trkpt lat="46.6933" lon="6.13701">
        <ele>1058.07</ele>
        <time>2015-07-21T10:10:09Z</time>
      </trkpt>
      <trkpt lat="46.69316" lon="6.13708">
        <ele>1057.59</ele>
        <time>2015-07-21T10:10:11Z</time>
      </trkpt>
      <trkpt lat="46.69224" lon="6.1377">
        <ele>1055.67</ele>
        <time>2015-07-21T10:10:24Z</time>
      </trkpt>
      <trkpt lat="46.69164" lon="6.13819">
        <ele>1056.15</ele>
        <time>2015-07-21T10:10:35Z</time>
      </trkpt>
      <trkpt lat="46.69098" lon="6.1387">
        <ele>1056.63</ele>
        <time>2015-07-21T10:10:48Z</time>
      </trkpt>
      <trkpt lat="46.69047" lon="6.1391">
        <ele>1057.59</ele>
        <time>2015-07-21T10:10:59Z</time>
      </trkpt>
      <trkpt lat="46.68979" lon="6.13959">
        <ele>1057.59</ele>
        <time>2015-07-21T10:11:13Z</time>
      </trkpt>
      <trkpt lat="46.68939" lon="6.13983">
        <ele>1058.07</ele>
        <time>2015-07-21T10:11:21Z</time>
      </trkpt>
      <trkpt lat="46.68898" lon="6.13993">
        <ele>1057.59</ele>
        <time>2015-07-21T10:11:29Z</time>
      </trkpt>
      <trkpt lat="46.68881" lon="6.13992">
        <ele>1057.59</ele>
        <time>2015-07-21T10:11:32Z</time>
      </trkpt>
      <trkpt lat="46.68861" lon="6.1399">
        <ele>1057.59</ele>
        <time>2015-07-21T10:11:36Z</time>
      </trkpt>
      <trkpt lat="46.68846" lon="6.13989">
        <ele>1058.07</ele>
        <time>2015-07-21T10:11:39Z</time>
      </trkpt>
      <trkpt lat="46.68828" lon="6.13991">
        <ele>1058.55</ele>
        <time>2015-07-21T10:11:43Z</time>
      </trkpt>
      <trkpt lat="46.68787" lon="6.1404">
        <ele>1055.67</ele>
        <time>2015-07-21T10:11:53Z</time>
      </trkpt>
      <trkpt lat="46.68779" lon="6.14067">
        <ele>1055.18</ele>
        <time>2015-07-21T10:11:56Z</time>
      </trkpt>
      <trkpt lat="46.68742" lon="6.1409">
        <ele>1053.26</ele>
        <time>2015-07-21T10:12:02Z</time>
      </trkpt>
      <trkpt lat="46.6873" lon="6.14073">
        <ele>1051.82</ele>
        <time>2015-07-21T10:12:04Z</time>
      </trkpt>
      <trkpt lat="46.68678" lon="6.1397">
        <ele>1047.97</ele>
        <time>2015-07-21T10:12:14Z</time>
      </trkpt>
      <trkpt lat="46.68628" lon="6.13876">
        <ele>1044.61</ele>
        <time>2015-07-21T10:12:24Z</time>
      </trkpt>
      <trkpt lat="46.68592" lon="6.13795">
        <ele>1041.25</ele>
        <time>2015-07-21T10:12:32Z</time>
      </trkpt>
      <trkpt lat="46.68564" lon="6.13733">
        <ele>1038.36</ele>
        <time>2015-07-21T10:12:38Z</time>
      </trkpt>
      <trkpt lat="46.68554" lon="6.13712">
        <ele>1035.96</ele>
        <time>2015-07-21T10:12:40Z</time>
      </trkpt>
      <trkpt lat="46.68517" lon="6.13686">
        <ele>1032.59</ele>
        <time>2015-07-21T10:12:45Z</time>
      </trkpt>
      <trkpt lat="46.68511" lon="6.13687">
        <ele>1032.11</ele>
        <time>2015-07-21T10:12:46Z</time>
      </trkpt>
      <trkpt lat="46.68483" lon="6.13695">
        <ele>1030.19</ele>
        <time>2015-07-21T10:12:52Z</time>
      </trkpt>
      <trkpt lat="46.6848" lon="6.13691">
        <ele>1028.75</ele>
        <time>2015-07-21T10:13:03Z</time>
      </trkpt>
      <trkpt lat="46.6848" lon="6.1369">
        <ele>1028.75</ele>
        <time>2015-07-21T10:13:16Z</time>
      </trkpt>
      <trkpt lat="46.6848" lon="6.1369">
        <ele>1028.75</ele>
        <time>2015-07-21T10:13:29Z</time>
      </trkpt>
      <trkpt lat="46.68479" lon="6.1369">
        <ele>1028.75</ele>
        <time>2015-07-21T10:13:31Z</time>
      </trkpt>
      <trkpt lat="46.68468" lon="6.13668">
        <ele>1028.75</ele>
        <time>2015-07-21T10:13:38Z</time>
      </trkpt>
      <trkpt lat="46.68462" lon="6.13652">
        <ele>1027.79</ele>
        <time>2015-07-21T10:13:41Z</time>
      </trkpt>
      <trkpt lat="46.68411" lon="6.1357">
        <ele>1025.86</ele>
        <time>2015-07-21T10:13:53Z</time>
      </trkpt>
      <trkpt lat="46.68372" lon="6.13525">
        <ele>1023.46</ele>
        <time>2015-07-21T10:14:00Z</time>
      </trkpt>
      <trkpt lat="46.68313" lon="6.13475">
        <ele>1021.54</ele>
        <time>2015-07-21T10:14:10Z</time>
      </trkpt>
      <trkpt lat="46.68296" lon="6.13463">
        <ele>1021.54</ele>
        <time>2015-07-21T10:14:13Z</time>
      </trkpt>
      <trkpt lat="46.68213" lon="6.1344">
        <ele>1021.06</ele>
        <time>2015-07-21T10:14:27Z</time>
      </trkpt>
      <trkpt lat="46.68195" lon="6.13441">
        <ele>1021.06</ele>
        <time>2015-07-21T10:14:30Z</time>
      </trkpt>
      <trkpt lat="46.68173" lon="6.13448">
        <ele>1020.58</ele>
        <time>2015-07-21T10:14:34Z</time>
      </trkpt>
      <trkpt lat="46.68147" lon="6.13446">
        <ele>1021.54</ele>
        <time>2015-07-21T10:14:39Z</time>
      </trkpt>
      <trkpt lat="46.68127" lon="6.13443">
        <ele>1021.54</ele>
        <time>2015-07-21T10:14:43Z</time>
      </trkpt>
      <trkpt lat="46.68077" lon="6.13432">
        <ele>1021.54</ele>
        <time>2015-07-21T10:14:53Z</time>
      </trkpt>
      <trkpt lat="46.68038" lon="6.1341">
        <ele>1022.5</ele>
        <time>2015-07-21T10:15:04Z</time>
      </trkpt>
      <trkpt lat="46.68031" lon="6.13397">
        <ele>1022.5</ele>
        <time>2015-07-21T10:15:16Z</time>
      </trkpt>
      <trkpt lat="46.68031" lon="6.13396">
        <ele>1022.02</ele>
        <time>2015-07-21T10:15:42Z</time>
      </trkpt>
      <trkpt lat="46.68031" lon="6.13396">
        <ele>1022.02</ele>
        <time>2015-07-21T10:15:53Z</time>
      </trkpt>
      <trkpt lat="46.68028" lon="6.13392">
        <ele>1022.5</ele>
        <time>2015-07-21T10:15:56Z</time>
      </trkpt>
      <trkpt lat="46.6801" lon="6.13376">
        <ele>1021.54</ele>
        <time>2015-07-21T10:16:03Z</time>
      </trkpt>
      <trkpt lat="46.67969" lon="6.13323">
        <ele>1019.13</ele>
        <time>2015-07-21T10:16:13Z</time>
      </trkpt>
      <trkpt lat="46.67957" lon="6.13294">
        <ele>1019.62</ele>
        <time>2015-07-21T10:16:17Z</time>
      </trkpt>
      <trkpt lat="46.67949" lon="6.13276">
        <ele>1019.13</ele>
        <time>2015-07-21T10:16:20Z</time>
      </trkpt>
      <trkpt lat="46.67945" lon="6.13204">
        <ele>1019.13</ele>
        <time>2015-07-21T10:16:31Z</time>
      </trkpt>
      <trkpt lat="46.67954" lon="6.13126">
        <ele>1020.1</ele>
        <time>2015-07-21T10:16:44Z</time>
      </trkpt>
      <trkpt lat="46.67969" lon="6.13055">
        <ele>1021.06</ele>
        <time>2015-07-21T10:16:57Z</time>
      </trkpt>
      <trkpt lat="46.67982" lon="6.12982">
        <ele>1022.5</ele>
        <time>2015-07-21T10:17:11Z</time>
      </trkpt>
      <trkpt lat="46.6799" lon="6.12904">
        <ele>1023.46</ele>
        <time>2015-07-21T10:17:25Z</time>
      </trkpt>
      <trkpt lat="46.67981" lon="6.12819">
        <ele>1023.94</ele>
        <time>2015-07-21T10:17:39Z</time>
      </trkpt>
      <trkpt lat="46.6797" lon="6.12768">
        <ele>1024.42</ele>
        <time>2015-07-21T10:17:48Z</time>
      </trkpt>
      <trkpt lat="46.67949" lon="6.12698">
        <ele>1025.38</ele>
        <time>2015-07-21T10:18:01Z</time>
      </trkpt>
      <trkpt lat="46.67912" lon="6.12618">
        <ele>1025.86</ele>
        <time>2015-07-21T10:18:16Z</time>
      </trkpt>
      <trkpt lat="46.67872" lon="6.12542">
        <ele>1026.34</ele>
        <time>2015-07-21T10:18:31Z</time>
      </trkpt>
      <trkpt lat="46.67828" lon="6.12457">
        <ele>1025.86</ele>
        <time>2015-07-21T10:18:45Z</time>
      </trkpt>
      <trkpt lat="46.67787" lon="6.12377">
        <ele>1026.34</ele>
        <time>2015-07-21T10:18:58Z</time>
      </trkpt>
      <trkpt lat="46.67741" lon="6.1228">
        <ele>1024.9</ele>
        <time>2015-07-21T10:19:16Z</time>
      </trkpt>
      <trkpt lat="46.67707" lon="6.12204">
        <ele>1022.98</ele>
        <time>2015-07-21T10:19:30Z</time>
      </trkpt>
      <trkpt lat="46.67663" lon="6.12134">
        <ele>1021.06</ele>
        <time>2015-07-21T10:19:47Z</time>
      </trkpt>
      <trkpt lat="46.6765" lon="6.12121">
        <ele>1019.62</ele>
        <time>2015-07-21T10:19:50Z</time>
      </trkpt>
      <trkpt lat="46.67588" lon="6.12073">
        <ele>1018.17</ele>
        <time>2015-07-21T10:20:02Z</time>
      </trkpt>
      <trkpt lat="46.67529" lon="6.12049">
        <ele>1019.13</ele>
        <time>2015-07-21T10:20:15Z</time>
      </trkpt>
      <trkpt lat="46.67482" lon="6.12052">
        <ele>1021.54</ele>
        <time>2015-07-21T10:20:28Z</time>
      </trkpt>
      <trkpt lat="46.67435" lon="6.12034">
        <ele>1022.98</ele>
        <time>2015-07-21T10:20:42Z</time>
      </trkpt>
      <trkpt lat="46.67408" lon="6.11991">
        <ele>1025.38</ele>
        <time>2015-07-21T10:20:54Z</time>
      </trkpt>
      <trkpt lat="46.67383" lon="6.11931">
        <ele>1027.31</ele>
        <time>2015-07-21T10:21:09Z</time>
      </trkpt>
      <trkpt lat="46.67367" lon="6.11888">
        <ele>1029.23</ele>
        <time>2015-07-21T10:21:22Z</time>
      </trkpt>
      <trkpt lat="46.67352" lon="6.11838">
        <ele>1031.63</ele>
        <time>2015-07-21T10:21:37Z</time>
      </trkpt>
      <trkpt lat="46.67347" lon="6.11791">
        <ele>1033.55</ele>
        <time>2015-07-21T10:21:50Z</time>
      </trkpt>
      <trkpt lat="46.67342" lon="6.11745">
        <ele>1035</ele>
        <time>2015-07-21T10:22:03Z</time>
      </trkpt>
      <trkpt lat="46.67341" lon="6.11699">
        <ele>1036.92</ele>
        <time>2015-07-21T10:22:16Z</time>
      </trkpt>
      <trkpt lat="46.67337" lon="6.11653">
        <ele>1038.84</ele>
        <time>2015-07-21T10:22:28Z</time>
      </trkpt>
      <trkpt lat="46.67322" lon="6.11603">
        <ele>1039.8</ele>
        <time>2015-07-21T10:22:41Z</time>
      </trkpt>
      <trkpt lat="46.67306" lon="6.11574">
        <ele>1040.28</ele>
        <time>2015-07-21T10:22:48Z</time>
      </trkpt>
      <trkpt lat="46.67255" lon="6.11515">
        <ele>1038.84</ele>
        <time>2015-07-21T10:23:02Z</time>
      </trkpt>
      <trkpt lat="46.67238" lon="6.1149">
        <ele>1037.88</ele>
        <time>2015-07-21T10:23:06Z</time>
      </trkpt>
      <trkpt lat="46.67221" lon="6.11444">
        <ele>1036.44</ele>
        <time>2015-07-21T10:23:11Z</time>
      </trkpt>
      <trkpt lat="46.67206" lon="6.11356">
        <ele>1033.55</ele>
        <time>2015-07-21T10:23:18Z</time>
      </trkpt>
      <trkpt lat="46.67208" lon="6.11303">
        <ele>1031.15</ele>
        <time>2015-07-21T10:23:22Z</time>
      </trkpt>
      <trkpt lat="46.67215" lon="6.1122">
        <ele>1027.79</ele>
        <time>2015-07-21T10:23:28Z</time>
      </trkpt>
      <trkpt lat="46.67216" lon="6.11192">
        <ele>1026.83</ele>
        <time>2015-07-21T10:23:30Z</time>
      </trkpt>
      <trkpt lat="46.67215" lon="6.11165">
        <ele>1025.86</ele>
        <time>2015-07-21T10:23:32Z</time>
      </trkpt>
      <trkpt lat="46.67198" lon="6.11062">
        <ele>1022.5</ele>
        <time>2015-07-21T10:23:40Z</time>
      </trkpt>
      <trkpt lat="46.67189" lon="6.11011">
        <ele>1018.65</ele>
        <time>2015-07-21T10:23:44Z</time>
      </trkpt>
      <trkpt lat="46.67183" lon="6.10973">
        <ele>1016.25</ele>
        <time>2015-07-21T10:23:47Z</time>
      </trkpt>
      <trkpt lat="46.67175" lon="6.10892">
        <ele>1013.37</ele>
        <time>2015-07-21T10:23:53Z</time>
      </trkpt>
      <trkpt lat="46.67167" lon="6.1084">
        <ele>1013.85</ele>
        <time>2015-07-21T10:23:57Z</time>
      </trkpt>
      <trkpt lat="46.67191" lon="6.10756">
        <ele>1010.96</ele>
        <time>2015-07-21T10:24:04Z</time>
      </trkpt>
      <trkpt lat="46.67214" lon="6.10701">
        <ele>1007.6</ele>
        <time>2015-07-21T10:24:09Z</time>
      </trkpt>
      <trkpt lat="46.67208" lon="6.10649">
        <ele>1005.2</ele>
        <time>2015-07-21T10:24:13Z</time>
      </trkpt>
      <trkpt lat="46.67184" lon="6.10565">
        <ele>1001.35</ele>
        <time>2015-07-21T10:24:20Z</time>
      </trkpt>
      <trkpt lat="46.67181" lon="6.10552">
        <ele>1001.35</ele>
        <time>2015-07-21T10:24:21Z</time>
      </trkpt>
      <trkpt lat="46.6716" lon="6.10507">
        <ele>999.43</ele>
        <time>2015-07-21T10:24:25Z</time>
      </trkpt>
      <trkpt lat="46.67146" lon="6.1047">
        <ele>997.51</ele>
        <time>2015-07-21T10:24:28Z</time>
      </trkpt>
      <trkpt lat="46.67143" lon="6.10456">
        <ele>997.51</ele>
        <time>2015-07-21T10:24:29Z</time>
      </trkpt>
      <trkpt lat="46.67135" lon="6.10415">
        <ele>995.1</ele>
        <time>2015-07-21T10:24:32Z</time>
      </trkpt>
      <trkpt lat="46.67112" lon="6.10372">
        <ele>992.7</ele>
        <time>2015-07-21T10:24:36Z</time>
      </trkpt>
      <trkpt lat="46.67095" lon="6.10358">
        <ele>991.74</ele>
        <time>2015-07-21T10:24:38Z</time>
      </trkpt>
      <trkpt lat="46.67047" lon="6.10286">
        <ele>990.78</ele>
        <time>2015-07-21T10:24:45Z</time>
      </trkpt>
      <trkpt lat="46.67046" lon="6.1027">
        <ele>990.3</ele>
        <time>2015-07-21T10:24:46Z</time>
      </trkpt>
      <trkpt lat="46.67039" lon="6.10227">
        <ele>985.97</ele>
        <time>2015-07-21T10:24:49Z</time>
      </trkpt>
      <trkpt lat="46.67021" lon="6.10191">
        <ele>984.53</ele>
        <time>2015-07-21T10:24:52Z</time>
      </trkpt>
      <trkpt lat="46.67002" lon="6.10137">
        <ele>982.6</ele>
        <time>2015-07-21T10:24:56Z</time>
      </trkpt>
      <trkpt lat="46.6698" lon="6.10087">
        <ele>980.2</ele>
        <time>2015-07-21T10:25:00Z</time>
      </trkpt>
      <trkpt lat="46.66965" lon="6.1005">
        <ele>978.76</ele>
        <time>2015-07-21T10:25:03Z</time>
      </trkpt>
      <trkpt lat="46.66955" lon="6.10025">
        <ele>977.32</ele>
        <time>2015-07-21T10:25:05Z</time>
      </trkpt>
      <trkpt lat="46.6693" lon="6.0992">
        <ele>973.95</ele>
        <time>2015-07-21T10:25:13Z</time>
      </trkpt>
      <trkpt lat="46.66897" lon="6.09835">
        <ele>972.51</ele>
        <time>2015-07-21T10:25:20Z</time>
      </trkpt>
      <trkpt lat="46.66906" lon="6.09763">
        <ele>970.11</ele>
        <time>2015-07-21T10:25:26Z</time>
      </trkpt>
      <trkpt lat="46.66922" lon="6.0975">
        <ele>968.18</ele>
        <time>2015-07-21T10:25:28Z</time>
      </trkpt>
      <trkpt lat="46.66964" lon="6.09684">
        <ele>962.9</ele>
        <time>2015-07-21T10:25:35Z</time>
      </trkpt>
      <trkpt lat="46.66957" lon="6.09646">
        <ele>962.42</ele>
        <time>2015-07-21T10:25:38Z</time>
      </trkpt>
      <trkpt lat="46.66944" lon="6.09597">
        <ele>960.49</ele>
        <time>2015-07-21T10:25:42Z</time>
      </trkpt>
      <trkpt lat="46.66938" lon="6.09559">
        <ele>959.05</ele>
        <time>2015-07-21T10:25:45Z</time>
      </trkpt>
      <trkpt lat="46.66937" lon="6.09519">
        <ele>957.61</ele>
        <time>2015-07-21T10:25:48Z</time>
      </trkpt>
      <trkpt lat="46.6694" lon="6.09493">
        <ele>956.17</ele>
        <time>2015-07-21T10:25:50Z</time>
      </trkpt>
      <trkpt lat="46.66946" lon="6.09454">
        <ele>954.25</ele>
        <time>2015-07-21T10:25:53Z</time>
      </trkpt>
      <trkpt lat="46.66931" lon="6.09373">
        <ele>951.36</ele>
        <time>2015-07-21T10:26:00Z</time>
      </trkpt>
      <trkpt lat="46.66918" lon="6.09359">
        <ele>950.88</ele>
        <time>2015-07-21T10:26:02Z</time>
      </trkpt>
      <trkpt lat="46.66893" lon="6.09337">
        <ele>951.36</ele>
        <time>2015-07-21T10:26:05Z</time>
      </trkpt>
      <trkpt lat="46.66837" lon="6.09242">
        <ele>947.04</ele>
        <time>2015-07-21T10:26:14Z</time>
      </trkpt>
      <trkpt lat="46.66823" lon="6.09207">
        <ele>944.63</ele>
        <time>2015-07-21T10:26:17Z</time>
      </trkpt>
      <trkpt lat="46.6681" lon="6.09172">
        <ele>942.71</ele>
        <time>2015-07-21T10:26:20Z</time>
      </trkpt>
      <trkpt lat="46.66783" lon="6.09098">
        <ele>939.35</ele>
        <time>2015-07-21T10:26:26Z</time>
      </trkpt>
      <trkpt lat="46.66779" lon="6.09086">
        <ele>939.35</ele>
        <time>2015-07-21T10:26:27Z</time>
      </trkpt>
      <trkpt lat="46.66739" lon="6.08988">
        <ele>935.5</ele>
        <time>2015-07-21T10:26:35Z</time>
      </trkpt>
      <trkpt lat="46.6672" lon="6.08955">
        <ele>932.14</ele>
        <time>2015-07-21T10:26:38Z</time>
      </trkpt>
      <trkpt lat="46.66702" lon="6.08928">
        <ele>930.69</ele>
        <time>2015-07-21T10:26:41Z</time>
      </trkpt>
      <trkpt lat="46.66652" lon="6.08856">
        <ele>927.33</ele>
        <time>2015-07-21T10:26:51Z</time>
      </trkpt>
      <trkpt lat="46.66619" lon="6.08795">
        <ele>925.41</ele>
        <time>2015-07-21T10:26:58Z</time>
      </trkpt>
      <trkpt lat="46.66559" lon="6.08686">
        <ele>922.52</ele>
        <time>2015-07-21T10:27:11Z</time>
      </trkpt>
      <trkpt lat="46.66525" lon="6.08573">
        <ele>920.6</ele>
        <time>2015-07-21T10:27:24Z</time>
      </trkpt>
      <trkpt lat="46.66468" lon="6.08503">
        <ele>919.16</ele>
        <time>2015-07-21T10:27:36Z</time>
      </trkpt>
      <trkpt lat="46.66429" lon="6.08461">
        <ele>918.2</ele>
        <time>2015-07-21T10:27:44Z</time>
      </trkpt>
      <trkpt lat="46.66393" lon="6.0844">
        <ele>918.2</ele>
        <time>2015-07-21T10:27:51Z</time>
      </trkpt>
      <trkpt lat="46.66371" lon="6.08429">
        <ele>917.72</ele>
        <time>2015-07-21T10:27:55Z</time>
      </trkpt>
      <trkpt lat="46.6634" lon="6.08401">
        <ele>916.27</ele>
        <time>2015-07-21T10:28:01Z</time>
      </trkpt>
      <trkpt lat="46.66332" lon="6.08389">
        <ele>915.79</ele>
        <time>2015-07-21T10:28:03Z</time>
      </trkpt>
      <trkpt lat="46.6632" lon="6.08367">
        <ele>915.31</ele>
        <time>2015-07-21T10:28:06Z</time>
      </trkpt>
      <trkpt lat="46.66286" lon="6.08239">
        <ele>912.43</ele>
        <time>2015-07-21T10:28:21Z</time>
      </trkpt>
      <trkpt lat="46.66263" lon="6.08119">
        <ele>909.54</ele>
        <time>2015-07-21T10:28:34Z</time>
      </trkpt>
      <trkpt lat="46.66256" lon="6.08091">
        <ele>909.06</ele>
        <time>2015-07-21T10:28:37Z</time>
      </trkpt>
      <trkpt lat="46.66236" lon="6.07981">
        <ele>907.14</ele>
        <time>2015-07-21T10:28:49Z</time>
      </trkpt>
      <trkpt lat="46.66216" lon="6.0789">
        <ele>906.18</ele>
        <time>2015-07-21T10:29:00Z</time>
      </trkpt>
      <trkpt lat="46.66165" lon="6.07753">
        <ele>902.82</ele>
        <time>2015-07-21T10:29:16Z</time>
      </trkpt>
      <trkpt lat="46.66153" lon="6.07724">
        <ele>900.89</ele>
        <time>2015-07-21T10:29:19Z</time>
      </trkpt>
      <trkpt lat="46.66117" lon="6.07672">
        <ele>897.53</ele>
        <time>2015-07-21T10:29:25Z</time>
      </trkpt>
      <trkpt lat="46.66079" lon="6.07634">
        <ele>894.16</ele>
        <time>2015-07-21T10:29:30Z</time>
      </trkpt>
      <trkpt lat="46.66024" lon="6.0759">
        <ele>891.28</ele>
        <time>2015-07-21T10:29:37Z</time>
      </trkpt>
      <trkpt lat="46.65994" lon="6.07565">
        <ele>893.2</ele>
        <time>2015-07-21T10:29:41Z</time>
      </trkpt>
      <trkpt lat="46.65977" lon="6.07547">
        <ele>891.28</ele>
        <time>2015-07-21T10:29:44Z</time>
      </trkpt>
      <trkpt lat="46.65969" lon="6.07536">
        <ele>891.28</ele>
        <time>2015-07-21T10:29:46Z</time>
      </trkpt>
      <trkpt lat="46.65963" lon="6.07508">
        <ele>891.28</ele>
        <time>2015-07-21T10:29:50Z</time>
      </trkpt>
      <trkpt lat="46.65956" lon="6.07434">
        <ele>890.8</ele>
        <time>2015-07-21T10:30:04Z</time>
      </trkpt>
      <trkpt lat="46.65948" lon="6.07393">
        <ele>889.84</ele>
        <time>2015-07-21T10:30:14Z</time>
      </trkpt>
      <trkpt lat="46.65925" lon="6.07339">
        <ele>889.84</ele>
        <time>2015-07-21T10:30:30Z</time>
      </trkpt>
      <trkpt lat="46.65907" lon="6.07303">
        <ele>889.84</ele>
        <time>2015-07-21T10:30:42Z</time>
      </trkpt>
      <trkpt lat="46.65903" lon="6.07298">
        <ele>889.36</ele>
        <time>2015-07-21T10:30:44Z</time>
      </trkpt>
      <trkpt lat="46.65905" lon="6.073">
        <ele>889.36</ele>
        <time>2015-07-21T10:30:56Z</time>
      </trkpt>
      <trkpt lat="46.65905" lon="6.073">
        <ele>889.36</ele>
        <time>2015-07-21T10:31:25Z</time>
      </trkpt>
      <trkpt lat="46.65906" lon="6.07298">
        <ele>889.84</ele>
        <time>2015-07-21T10:31:33Z</time>
      </trkpt>
      <trkpt lat="46.65895" lon="6.07271">
        <ele>889.36</ele>
        <time>2015-07-21T10:31:44Z</time>
      </trkpt>
      <trkpt lat="46.65868" lon="6.07222">
        <ele>888.88</ele>
        <time>2015-07-21T10:31:57Z</time>
      </trkpt>
      <trkpt lat="46.65862" lon="6.07214">
        <ele>888.88</ele>
        <time>2015-07-21T10:31:59Z</time>
      </trkpt>
      <trkpt lat="46.65832" lon="6.07157">
        <ele>890.32</ele>
        <time>2015-07-21T10:32:13Z</time>
      </trkpt>
      <trkpt lat="46.65809" lon="6.07112">
        <ele>890.8</ele>
        <time>2015-07-21T10:32:24Z</time>
      </trkpt>
      <trkpt lat="46.65781" lon="6.07055">
        <ele>892.24</ele>
        <time>2015-07-21T10:32:36Z</time>
      </trkpt>
      <trkpt lat="46.65761" lon="6.07018">
        <ele>892.24</ele>
        <time>2015-07-21T10:32:46Z</time>
      </trkpt>
      <trkpt lat="46.65746" lon="6.07032">
        <ele>891.28</ele>
        <time>2015-07-21T10:32:54Z</time>
      </trkpt>
      <trkpt lat="46.65722" lon="6.07059">
        <ele>889.36</ele>
        <time>2015-07-21T10:33:01Z</time>
      </trkpt>
      <trkpt lat="46.65659" lon="6.07024">
        <ele>884.07</ele>
        <time>2015-07-21T10:33:09Z</time>
      </trkpt>
      <trkpt lat="46.65645" lon="6.07014">
        <ele>883.59</ele>
        <time>2015-07-21T10:33:11Z</time>
      </trkpt>
      <trkpt lat="46.6562" lon="6.06952">
        <ele>882.63</ele>
        <time>2015-07-21T10:33:19Z</time>
      </trkpt>
      <trkpt lat="46.65625" lon="6.06911">
        <ele>882.15</ele>
        <time>2015-07-21T10:33:25Z</time>
      </trkpt>
      <trkpt lat="46.6565" lon="6.06889">
        <ele>882.63</ele>
        <time>2015-07-21T10:33:31Z</time>
      </trkpt>
      <trkpt lat="46.65671" lon="6.06861">
        <ele>882.15</ele>
        <time>2015-07-21T10:33:38Z</time>
      </trkpt>
      <trkpt lat="46.65674" lon="6.06838">
        <ele>882.15</ele>
        <time>2015-07-21T10:33:42Z</time>
      </trkpt>
      <trkpt lat="46.6563" lon="6.06764">
        <ele>881.67</ele>
        <time>2015-07-21T10:33:57Z</time>
      </trkpt>
      <trkpt lat="46.65596" lon="6.06708">
        <ele>881.67</ele>
        <time>2015-07-21T10:34:11Z</time>
      </trkpt>
      <trkpt lat="46.65573" lon="6.06707">
        <ele>881.67</ele>
        <time>2015-07-21T10:34:22Z</time>
      </trkpt>
      <trkpt lat="46.65552" lon="6.06726">
        <ele>881.19</ele>
        <time>2015-07-21T10:34:36Z</time>
      </trkpt>
      <trkpt lat="46.65542" lon="6.06735">
        <ele>881.19</ele>
        <time>2015-07-21T10:34:50Z</time>
      </trkpt>
      <trkpt lat="46.65533" lon="6.0672">
        <ele>881.67</ele>
        <time>2015-07-21T10:35:00Z</time>
      </trkpt>
      <trkpt lat="46.6553" lon="6.0672">
        <ele>880.71</ele>
        <time>2015-07-21T10:35:04Z</time>
      </trkpt>
      <trkpt lat="46.65519" lon="6.06725">
        <ele>880.22</ele>
        <time>2015-07-21T10:35:16Z</time>
      </trkpt>
      <trkpt lat="46.65519" lon="6.06725">
        <ele>879.26</ele>
        <time>2015-07-21T10:35:35Z</time>
      </trkpt>
      <trkpt lat="46.65501" lon="6.06738">
        <ele>880.71</ele>
        <time>2015-07-21T10:35:48Z</time>
      </trkpt>
      <trkpt lat="46.65507" lon="6.06737">
        <ele>880.71</ele>
        <time>2015-07-21T10:35:49Z</time>
      </trkpt>
      <trkpt lat="46.65525" lon="6.06724">
        <ele>879.74</ele>
        <time>2015-07-21T10:36:04Z</time>
      </trkpt>
      <trkpt lat="46.65491" lon="6.0668">
        <ele>854.27</ele>
        <time>2015-07-22T00:21:27Z</time>
      </trkpt>
      <trkpt lat="46.65492" lon="6.06678">
        <ele>854.27</ele>
        <time>2015-07-22T00:21:28Z</time>
      </trkpt>
    </trkseg>
  </trk>
</gpx>